Darstellungsparameter: Aktuell verwendete Einstellungen:
Skalierung der Graphiken ... ?
xyx+y,   Skalierungsfaktor:      Skalierung: Modus: x, Faktor: 1
Darstellungszeitraum ... ?
Vom - - bis: - -   Zeitraum: 30.11.2011 - 29.12.2011
Min/Max/Avg-Anzeige ... ?
Zeige MMA aktuell
Zeige MMA Monat
Zeige MMA alles
Zeige --A aktuell
Zeige --A Monat
Zeige --A alles
Keine MMA-Anzeige
MMA:
Average (ber die Originaldaten)
MMA-Basis: 30.11.2011 - 29.12.2011
Quicknavigation für Darstellung... ?
Tage:      1T, 2T, 3T, 5T -1T -2T -3T -5T +1T +2T +3T +5T
Wochen: 1W, 2W, 3W -1W -2W -3W +1W +2W +3W
Monate: 1M, 3M, 6M -1M -3M -6M +1M +3M +6M
Jahre:    1J, 3J, 5J, 10J -1J -3J -5J -10J +1J +3J +5J +10J
Nutze für die Darstellung ... ?
Originaldaten oder Mittelwerte auf ...
Stundenbasis Tagesbasis Wochenbasis
Monatsbasis Jahresbasis      Datenbasis: Original-Daten
Darstellen als:
Statistik (Auto) Statistik J:M      Darstellung:
Zur Graphik,    zurück zur Übersicht aller Sensoren.
 
Tabellarische Datenbersicht: ?
 
Sensor: Nr:Datum:Temp:Abs-Feuchte:Windchill:Wind:
Aussen-T/F 1 30-11-2011 00:11:02 6.7 C 7.07 g/m*3 6.7 C 0 km/h
2 30-11-2011 00:23:02 7 C 7.13 g/m*3 7 C 0 km/h
3 30-11-2011 00:35:01 8.1 C 7.49 g/m*3 8.1 C 0 km/h
4 30-11-2011 00:47:02 7.9 C 7.23 g/m*3 7.9 C 0 km/h
5 30-11-2011 00:59:02 7.9 C 7.23 g/m*3 7.9 C 0 km/h
6 30-11-2011 01:11:02 8.2 C 7.29 g/m*3 8.2 C 0 km/h
7 30-11-2011 01:23:02 8.4 C 7.21 g/m*3 8.4 C 0 km/h
8 30-11-2011 01:35:03 8.4 C 7.21 g/m*3 8.4 C 0 km/h
9 30-11-2011 01:47:02 9 C 7.23 g/m*3 9 C 0 km/h
10 30-11-2011 01:59:02 9.2 C 7.05 g/m*3 9.2 C 0 km/h
11 30-11-2011 02:11:01 9.1 C 7.01 g/m*3 9.1 C 0 km/h
12 30-11-2011 02:23:02 9.3 C 7.1 g/m*3 9.3 C 0 km/h
13 30-11-2011 02:35:02 9.2 C 6.97 g/m*3 9.2 C 0 km/h
14 30-11-2011 02:47:01 9.3 C 7.01 g/m*3 9.3 C 0 km/h
15 30-11-2011 02:59:01 9.5 C 7.19 g/m*3 9.5 C 0 km/h
16 30-11-2011 03:11:02 9.5 C 7.1 g/m*3 9.5 C 0 km/h
17 30-11-2011 03:23:02 9.5 C 7.1 g/m*3 9.5 C 0 km/h
18 30-11-2011 03:35:01 9.3 C 7.01 g/m*3 9.3 C 0 km/h
19 30-11-2011 03:47:01 9.2 C 7.05 g/m*3 9.2 C 0 km/h
20 30-11-2011 03:59:02 9 C 6.96 g/m*3 9 C 0 km/h
21 30-11-2011 04:11:01 8.7 C 7.01 g/m*3 8.7 C 0 km/h
22 30-11-2011 04:23:01 8.6 C 6.96 g/m*3 8.6 C 0 km/h
23 30-11-2011 04:35:02 8.6 C 7.13 g/m*3 8.6 C 0 km/h
24 30-11-2011 04:47:01 8.5 C 7.09 g/m*3 8.5 C 0 km/h
25 30-11-2011 04:59:01 8.1 C 6.91 g/m*3 8.1 C 0 km/h
Sensor: Nr:Datum:Temp:Abs-Feuchte:Windchill:Wind:
Aussen-T/F 26 30-11-2011 05:11:02 8.2 C 7.03 g/m*3 8.2 C 0 km/h
27 30-11-2011 05:23:01 7.8 C 6.94 g/m*3 7.8 C 0 km/h
28 30-11-2011 05:35:01 6.8 C 6.58 g/m*3 6.8 C 0 km/h
29 30-11-2011 05:47:01 6.8 C 6.65 g/m*3 6.8 C 0 km/h
30 30-11-2011 05:59:01 6.3 C 6.51 g/m*3 6.3 C 0 km/h
31 30-11-2011 06:11:02 6.2 C 6.47 g/m*3 6.2 C 0 km/h
32 30-11-2011 06:23:01 6 C 6.46 g/m*3 6 C 0 km/h
33 30-11-2011 06:35:01 6 C 6.46 g/m*3 6 C 0 km/h
34 30-11-2011 06:47:01 6 C 6.46 g/m*3 6 C 0 km/h
35 30-11-2011 06:59:01 5.6 C 6.43 g/m*3 5.6 C 0 km/h
36 30-11-2011 07:11:01 5.5 C 6.39 g/m*3 5.5 C 0 km/h
37 30-11-2011 07:23:02 5.3 C 6.31 g/m*3 5.3 C 0 km/h
38 30-11-2011 07:35:01 5.3 C 6.31 g/m*3 5.3 C 0 km/h
39 30-11-2011 07:47:02 4.8 C 6.17 g/m*3 4.8 C 0 km/h
40 30-11-2011 07:59:02 5 C 6.18 g/m*3 5 C 0 km/h
41 30-11-2011 08:11:01 4.6 C 6.09 g/m*3 4.6 C 0 km/h
42 30-11-2011 08:23:02 4.5 C 6.05 g/m*3 4.5 C 0 km/h
43 30-11-2011 08:35:01 4 C 5.85 g/m*3 4 C 0 km/h
44 30-11-2011 08:47:02 4.1 C 5.89 g/m*3 4.1 C 0 km/h
45 30-11-2011 08:59:02 4.8 C 6.17 g/m*3 4.8 C 0 km/h
46 30-11-2011 09:11:01 4.7 C 6.13 g/m*3 4.7 C 0 km/h
47 30-11-2011 09:23:01 4.6 C 6.09 g/m*3 4.6 C 0 km/h
48 30-11-2011 09:35:02 4 C 5.85 g/m*3 4 C 0 km/h
49 30-11-2011 09:47:01 3.3 C 5.58 g/m*3 3.3 C 0 km/h
50 30-11-2011 09:59:01 3.7 C 5.73 g/m*3 3.7 C 0 km/h
Sensor: Nr:Datum:Temp:Abs-Feuchte:Windchill:Wind:
Aussen-T/F 51 30-11-2011 10:11:02 4 C 5.85 g/m*3 4 C 0 km/h
52 30-11-2011 10:23:01 3.9 C 5.87 g/m*3 3.9 C 0 km/h
53 30-11-2011 10:35:01 3.9 C 5.87 g/m*3 3.9 C 0 km/h
54 30-11-2011 10:47:01 4.2 C 5.93 g/m*3 4.2 C 0 km/h
55 30-11-2011 10:59:01 4.2 C 5.93 g/m*3 4.2 C 0 km/h
56 30-11-2011 11:11:02 4.3 C 5.97 g/m*3 4.3 C 0 km/h
57 30-11-2011 11:23:01 4.3 C 5.97 g/m*3 4.3 C 0 km/h
58 30-11-2011 11:35:01 4.9 C 6.21 g/m*3 4.9 C 0 km/h
59 30-11-2011 11:47:01 5.3 C 6.38 g/m*3 5.3 C 0 km/h
60 30-11-2011 11:59:01 5.5 C 6.39 g/m*3 5.5 C 0 km/h
61 30-11-2011 12:11:01 5.6 C 6.43 g/m*3 5.6 C 0 km/h
62 30-11-2011 12:23:02 6.2 C 6.55 g/m*3 6.2 C 0 km/h
63 30-11-2011 12:35:01 6.1 C 6.28 g/m*3 6.1 C 0 km/h
64 30-11-2011 12:47:02 5.8 C 6.02 g/m*3 5.8 C 0 km/h
65 30-11-2011 12:59:02 5.8 C 6.02 g/m*3 5.8 C 0 km/h
66 30-11-2011 13:11:01 6.2 C 6.03 g/m*3 6.2 C 0 km/h
67 30-11-2011 13:23:01 6.6 C 6.11 g/m*3 6.6 C 0 km/h
68 30-11-2011 13:35:01 7 C 6.12 g/m*3 7 C 0 km/h
69 30-11-2011 13:47:01 7.9 C 6.16 g/m*3 7.9 C 0 km/h
70 30-11-2011 13:59:02 8.4 C 6.02 g/m*3 8.4 C 0 km/h
71 30-11-2011 14:11:01 8.7 C 5.88 g/m*3 8.7 C 0 km/h
72 30-11-2011 14:23:01 8.5 C 5.64 g/m*3 8.5 C 0 km/h
73 30-11-2011 14:35:01 8.2 C 5.78 g/m*3 8.2 C 0 km/h
74 30-11-2011 14:47:02 8.2 C 5.86 g/m*3 8.2 C 0 km/h
75 30-11-2011 14:59:02 8.1 C 5.91 g/m*3 8.1 C 0 km/h
Sensor: Nr:Datum:Temp:Abs-Feuchte:Windchill:Wind:
Aussen-T/F 76 30-11-2011 15:11:01 7.8 C 5.88 g/m*3 7.8 C 0 km/h
77 30-11-2011 15:23:01 7.4 C 5.73 g/m*3 7.4 C 0 km/h
78 30-11-2011 15:35:02 7.1 C 5.69 g/m*3 7.1 C 0 km/h
79 30-11-2011 15:47:01 6.6 C 5.74 g/m*3 6.6 C 0 km/h
80 30-11-2011 15:59:01 6.2 C 5.74 g/m*3 6.2 C 0 km/h
81 30-11-2011 16:11:02 5.8 C 5.66 g/m*3 5.8 C 0 km/h
82 30-11-2011 16:23:01 5.3 C 5.54 g/m*3 5.3 C 0 km/h
83 30-11-2011 16:35:02 5.1 C 5.54 g/m*3 5.1 C 0 km/h
84 30-11-2011 16:47:01 4.8 C 5.57 g/m*3 4.8 C 0 km/h
85 30-11-2011 16:59:01 4.7 C 5.6 g/m*3 4.7 C 0 km/h
86 30-11-2011 17:11:02 4.3 C 5.45 g/m*3 4.3 C 0 km/h
87 30-11-2011 17:23:01 4.1 C 5.44 g/m*3 4.1 C 0 km/h
88 30-11-2011 17:35:01 4.2 C 5.48 g/m*3 4.2 C 0 km/h
89 30-11-2011 17:47:01 4.1 C 5.44 g/m*3 4.1 C 0 km/h
90 30-11-2011 17:59:01 3.5 C 5.29 g/m*3 3.5 C 0 km/h
91 30-11-2011 18:11:01 2.6 C 5.03 g/m*3 2.6 C 0 km/h
92 30-11-2011 18:23:02 1.7 C 4.74 g/m*3 1.7 C 0 km/h
93 30-11-2011 18:35:01 1.6 C 4.7 g/m*3 1.6 C 0 km/h
94 30-11-2011 18:47:02 1.5 C 4.73 g/m*3 1.5 C 0 km/h
95 30-11-2011 18:59:02 1.2 C 4.63 g/m*3 1.2 C 0 km/h
96 30-11-2011 19:11:01 1 C 4.57 g/m*3 1 C 0 km/h
97 30-11-2011 19:23:02 0.7 C 4.53 g/m*3 0.7 C 0 km/h
98 30-11-2011 19:35:01 0.6 C 4.49 g/m*3 0.6 C 0 km/h
99 30-11-2011 19:47:02 0.5 C 4.46 g/m*3 0.5 C 0 km/h
100 30-11-2011 19:59:02 0.1 C 4.34 g/m*3 0.1 C 0 km/h
Sensor: Nr:Datum:Temp:Abs-Feuchte:Windchill:Wind:
Aussen-T/F 101 30-11-2011 20:11:01 0 C 4.31 g/m*3 0 C 0 km/h
102 30-11-2011 20:23:01 0 C 4.36 g/m*3 0 C 0 km/h
103 30-11-2011 20:35:02 0.1 C 4.39 g/m*3 0.1 C 0 km/h
104 30-11-2011 20:47:01 0 C 4.36 g/m*3 0 C 0 km/h
105 30-11-2011 20:59:01 0.1 C 4.44 g/m*3 0.1 C 0 km/h
106 30-11-2011 21:11:01 -0.5 C 4.26 g/m*3 -0.5 C 0 km/h
107 30-11-2011 21:23:01 -0.5 C 4.26 g/m*3 -0.5 C 0 km/h
108 30-11-2011 21:35:02 -0.7 C 4.2 g/m*3 -0.7 C 0 km/h
109 30-11-2011 21:47:01 -0.6 C 4.23 g/m*3 -0.6 C 0 km/h
110 30-11-2011 21:59:01 -0.9 C 4.14 g/m*3 -0.9 C 0 km/h
111 30-11-2011 22:11:02 -0.6 C 4.23 g/m*3 -0.6 C 0 km/h
112 30-11-2011 22:23:01 -0.9 C 4.14 g/m*3 -0.9 C 0 km/h
113 30-11-2011 22:35:02 -0.7 C 4.25 g/m*3 -0.7 C 0 km/h
114 30-11-2011 22:47:01 0.1 C 4.49 g/m*3 0.1 C 0 km/h
115 30-11-2011 22:59:01 -0.5 C 4.31 g/m*3 -0.5 C 0 km/h
116 30-11-2011 23:11:02 -1.3 C 4.07 g/m*3 -1.3 C 0 km/h
117 30-11-2011 23:23:01 -1.2 C 4.1 g/m*3 -1.2 C 0 km/h
118 30-11-2011 23:35:01 -1.7 C 3.96 g/m*3 -1.7 C 0 km/h
119 30-11-2011 23:47:01 -1.2 C 4.1 g/m*3 -1.2 C 0 km/h
120 30-11-2011 23:59:01 -1.3 C 4.07 g/m*3 -1.3 C 0 km/h
121 01-12-2011 00:11:01 -1.7 C 3.96 g/m*3 -1.7 C 0 km/h
122 01-12-2011 00:23:01 -1.8 C 3.93 g/m*3 -1.8 C 0 km/h
123 01-12-2011 00:35:02 -1.7 C 3.96 g/m*3 -1.7 C 0 km/h
124 01-12-2011 00:47:01 -1.7 C 3.96 g/m*3 -1.7 C 0 km/h
125 01-12-2011 00:59:01 -1.4 C 4.09 g/m*3 -1.4 C 0 km/h
Sensor: Nr:Datum:Temp:Abs-Feuchte:Windchill:Wind:
Aussen-T/F 126 01-12-2011 01:11:02 -1.8 C 3.93 g/m*3 -1.8 C 0 km/h
127 01-12-2011 01:23:01 -1.2 C 4.15 g/m*3 -1.2 C 0 km/h
128 01-12-2011 01:35:01 -1.6 C 4.03 g/m*3 -1.6 C 0 km/h
129 01-12-2011 01:47:01 -1.8 C 3.98 g/m*3 -1.8 C 0 km/h
130 01-12-2011 01:59:01 -2 C 3.92 g/m*3 -2 C 0 km/h
131 01-12-2011 02:11:02 -2 C 3.92 g/m*3 -2 C 0 km/h
132 01-12-2011 02:23:01 -2.1 C 3.89 g/m*3 -2.1 C 0 km/h
133 01-12-2011 02:35:01 -2 C 3.92 g/m*3 -2 C 0 km/h
134 01-12-2011 02:48:04 -2 C 3.92 g/m*3 -2 C 0 km/h
135 01-12-2011 03:00:04 -1.6 C 4.03 g/m*3 -1.6 C 0 km/h
136 01-12-2011 03:12:05 -1.4 C 4.09 g/m*3 -1.4 C 0 km/h
137 01-12-2011 03:24:05 -1.7 C 4 g/m*3 -1.7 C 0 km/h
138 01-12-2011 03:36:02 -1.4 C 4.09 g/m*3 -1.4 C 0 km/h
139 01-12-2011 03:48:02 -0.9 C 4.23 g/m*3 -0.9 C 0 km/h
140 01-12-2011 04:00:02 -0.8 C 4.31 g/m*3 -0.8 C 0 km/h
141 01-12-2011 04:12:02 -0.3 C 4.46 g/m*3 -0.3 C 0 km/h
142 01-12-2011 04:24:02 -0.4 C 4.43 g/m*3 -0.4 C 0 km/h
143 01-12-2011 04:36:02 -0.5 C 4.4 g/m*3 -0.5 C 0 km/h
144 01-12-2011 04:48:02 -0.4 C 4.43 g/m*3 -0.4 C 0 km/h
145 01-12-2011 05:00:02 -0.2 C 4.49 g/m*3 -0.2 C 0 km/h
146 01-12-2011 05:12:02 0 C 4.55 g/m*3 0 C 0 km/h
147 01-12-2011 05:24:03 -0.2 C 4.49 g/m*3 -0.2 C 0 km/h
148 01-12-2011 05:36:02 0.4 C 4.68 g/m*3 0.4 C 0 km/h
149 01-12-2011 05:48:01 0.1 C 4.59 g/m*3 0.1 C 0 km/h
150 01-12-2011 06:00:01 0.1 C 4.59 g/m*3 0.1 C 0 km/h
Sensor: Nr:Datum:Temp:Abs-Feuchte:Windchill:Wind:
Aussen-T/F 151 01-12-2011 06:12:02 0.6 C 4.75 g/m*3 0.6 C 0 km/h
152 01-12-2011 06:24:01 0.7 C 4.78 g/m*3 0.7 C 0 km/h
153 01-12-2011 06:36:01 1.4 C 5.01 g/m*3 1.4 C 0 km/h
154 01-12-2011 06:48:01 1.9 C 5.19 g/m*3 1.9 C 0 km/h
155 01-12-2011 07:00:01 1.9 C 5.19 g/m*3 1.9 C 0 km/h
156 01-12-2011 07:12:01 2.3 C 5.33 g/m*3 2.3 C 0 km/h
157 01-12-2011 07:24:02 2.4 C 5.37 g/m*3 2.4 C 0 km/h
158 01-12-2011 07:36:01 2.5 C 5.4 g/m*3 2.5 C 0 km/h
159 01-12-2011 07:36:01 2.5 C 5.4 g/m*3 2.5 C 0 km/h
160 01-12-2011 07:36:01 2.5 C 5.4 g/m*3 2.5 C 0 km/h
161 01-12-2011 07:36:01 2.5 C 5.4 g/m*3 2.5 C 0 km/h
162 01-12-2011 07:48:03 2.8 C 5.51 g/m*3 2.8 C 0 km/h
163 01-12-2011 08:00:03 2.6 C 5.44 g/m*3 2.6 C 0 km/h
164 01-12-2011 08:12:02 2.7 C 5.48 g/m*3 2.7 C 0 km/h
165 01-12-2011 08:24:02 2.7 C 5.48 g/m*3 2.7 C 0 km/h
166 01-12-2011 08:36:02 2.4 C 5.37 g/m*3 2.4 C 0 km/h
167 01-12-2011 08:48:02 2.6 C 5.44 g/m*3 2.6 C 0 km/h
168 01-12-2011 09:00:02 3 C 5.59 g/m*3 3 C 0 km/h
169 01-12-2011 09:12:02 3.6 C 5.82 g/m*3 3.6 C 0 km/h
170 01-12-2011 09:24:02 3.5 C 5.78 g/m*3 3.5 C 0 km/h
171 01-12-2011 09:36:02 3.2 C 5.66 g/m*3 3.2 C 0 km/h
172 01-12-2011 09:48:02 3.4 C 5.74 g/m*3 3.4 C 0 km/h
173 01-12-2011 10:00:02 3.2 C 5.66 g/m*3 3.2 C 0 km/h
174 01-12-2011 10:12:02 3.4 C 5.74 g/m*3 3.4 C 0 km/h
175 01-12-2011 10:24:02 3.3 C 5.7 g/m*3 3.3 C 0 km/h
Sensor: Nr:Datum:Temp:Abs-Feuchte:Windchill:Wind:
Aussen-T/F 176 01-12-2011 10:36:01 3.7 C 5.86 g/m*3 3.7 C 0 km/h
177 01-12-2011 10:48:02 4 C 5.98 g/m*3 4 C 0 km/h
178 01-12-2011 11:00:03 4.8 C 6.3 g/m*3 4.8 C 0 km/h
179 01-12-2011 11:12:01 5.1 C 6.36 g/m*3 5.1 C 0 km/h
180 01-12-2011 11:24:01 5.7 C 6.62 g/m*3 5.7 C 0 km/h
181 01-12-2011 11:36:02 6 C 6.75 g/m*3 6 C 0 km/h
182 01-12-2011 11:48:02 5.8 C 6.66 g/m*3 5.8 C 0 km/h
183 01-12-2011 12:00:02 6.4 C 6.85 g/m*3 6.4 C 0 km/h
184 01-12-2011 12:12:02 6.8 C 7.04 g/m*3 6.8 C 0 km/h
185 01-12-2011 12:24:01 7.9 C 7.56 g/m*3 7.9 C 0 km/h
186 01-12-2011 12:36:02 8.1 C 7.57 g/m*3 8.1 C 0 km/h
187 01-12-2011 12:48:02 8.9 C 7.97 g/m*3 8.9 C 0 km/h
188 01-12-2011 13:00:02 9.1 C 7.9 g/m*3 9.1 C 0 km/h
189 01-12-2011 13:12:02 9.9 C 8.31 g/m*3 9.9 C 0 km/h
190 01-12-2011 13:24:01 9.6 C 8.06 g/m*3 9.6 C 0 km/h
191 01-12-2011 13:36:02 10.1 C 8.13 g/m*3 10.1 C 0 km/h
192 01-12-2011 13:48:01 10.1 C 8.04 g/m*3 10.1 C 0 km/h
193 01-12-2011 14:00:01 10 C 7.99 g/m*3 10 C 0 km/h
194 01-12-2011 14:12:02 10.4 C 8.19 g/m*3 10.4 C 0 km/h
195 01-12-2011 14:24:02 10.7 C 8.15 g/m*3 10.7 C 0 km/h
196 01-12-2011 14:36:01 10.7 C 7.96 g/m*3 10.7 C 0 km/h
197 01-12-2011 14:48:02 10.6 C 7.81 g/m*3 10.6 C 0 km/h
198 01-12-2011 15:00:02 10.5 C 7.76 g/m*3 10.5 C 0 km/h
199 01-12-2011 15:12:01 10.4 C 7.81 g/m*3 10.4 C 0 km/h
200 01-12-2011 15:24:02 10.2 C 7.8 g/m*3 10.2 C 0 km/h
Sensor: Nr:Datum:Temp:Abs-Feuchte:Windchill:Wind:
Aussen-T/F 201 01-12-2011 15:36:01 10.1 C 7.75 g/m*3 10.1 C 0 km/h
202 01-12-2011 15:48:02 10.2 C 7.71 g/m*3 10.2 C 0 km/h
203 01-12-2011 16:00:03 10.7 C 7.86 g/m*3 10.7 C 0 km/h
204 01-12-2011 16:12:02 11 C 7.61 g/m*3 11 C 0 km/h
205 01-12-2011 16:24:02 11.5 C 7.33 g/m*3 11.5 C 0 km/h
206 01-12-2011 16:36:02 11.9 C 7.2 g/m*3 11.9 C 0 km/h
207 01-12-2011 16:48:01 12.1 C 7.08 g/m*3 12.1 C 0 km/h
208 01-12-2011 17:00:01 12 C 7.03 g/m*3 12 C 0 km/h
209 01-12-2011 17:12:02 11.8 C 7.16 g/m*3 11.8 C 0 km/h
210 01-12-2011 17:24:01 11.9 C 7.1 g/m*3 11.9 C 0 km/h
211 01-12-2011 17:36:02 11.4 C 7.19 g/m*3 11.4 C 0 km/h
212 01-12-2011 17:48:01 11.2 C 7.3 g/m*3 11.2 C 0 km/h
213 01-12-2011 18:00:01 11.7 C 7.32 g/m*3 11.7 C 0 km/h
214 01-12-2011 18:12:02 11.3 C 7.24 g/m*3 11.3 C 0 km/h
215 01-12-2011 18:24:01 11.1 C 7.25 g/m*3 11.1 C 0 km/h
216 01-12-2011 18:36:02 11 C 7.31 g/m*3 11 C 0 km/h
217 01-12-2011 18:48:01 10.8 C 7.51 g/m*3 10.8 C 0 km/h
218 01-12-2011 19:00:01 10.4 C 7.42 g/m*3 10.4 C 0 km/h
219 01-12-2011 19:12:02 10.4 C 7.61 g/m*3 10.4 C 0 km/h
220 01-12-2011 19:24:02 10.1 C 7.66 g/m*3 10.1 C 0 km/h
221 01-12-2011 19:36:01 9.9 C 7.84 g/m*3 9.9 C 0 km/h
222 01-12-2011 19:48:02 9.7 C 7.84 g/m*3 9.7 C 0 km/h
223 01-12-2011 20:00:02 9.6 C 7.88 g/m*3 9.6 C 0 km/h
224 01-12-2011 20:12:01 9.4 C 7.78 g/m*3 9.4 C 0 km/h
225 01-12-2011 20:24:02 9.3 C 7.82 g/m*3 9.3 C 0 km/h
Sensor: Nr:Datum:Temp:Abs-Feuchte:Windchill:Wind:
Aussen-T/F 226 01-12-2011 20:36:01 9.3 C 7.82 g/m*3 9.3 C 0 km/h
227 01-12-2011 20:48:02 9.2 C 7.77 g/m*3 9.2 C 0 km/h
228 01-12-2011 21:00:02 9.3 C 7.82 g/m*3 9.3 C 0 km/h
229 01-12-2011 21:12:02 9.3 C 7.91 g/m*3 9.3 C 0 km/h
230 01-12-2011 21:24:02 9.4 C 7.96 g/m*3 9.4 C 0 km/h
231 01-12-2011 21:36:03 9.5 C 8.01 g/m*3 9.5 C 0 km/h
232 01-12-2011 21:48:02 9.5 C 7.92 g/m*3 9.5 C 0 km/h
233 01-12-2011 22:00:02 9.6 C 7.97 g/m*3 9.6 C 0 km/h
234 01-12-2011 22:12:01 9.6 C 7.97 g/m*3 9.6 C 0 km/h
235 01-12-2011 22:24:02 9.7 C 8.02 g/m*3 9.7 C 0 km/h
236 01-12-2011 22:36:02 9.8 C 8.07 g/m*3 9.8 C 0 km/h
237 01-12-2011 22:48:02 9.8 C 8.07 g/m*3 9.8 C 0 km/h
238 01-12-2011 23:00:02 9.6 C 7.97 g/m*3 9.6 C 0 km/h
239 01-12-2011 23:12:02 9.7 C 8.02 g/m*3 9.7 C 0 km/h
240 01-12-2011 23:24:02 9.5 C 7.92 g/m*3 9.5 C 0 km/h
241 01-12-2011 23:36:02 9.7 C 8.02 g/m*3 9.7 C 0 km/h
242 01-12-2011 23:48:01 9.8 C 8.07 g/m*3 9.8 C 0 km/h
243 02-12-2011 00:00:01 10.6 C 8.3 g/m*3 10.6 C 0 km/h
244 02-12-2011 00:12:01 11.2 C 8.11 g/m*3 11.2 C 0 km/h
245 02-12-2011 00:24:01 10.9 C 7.76 g/m*3 10.9 C 0 km/h
246 02-12-2011 00:36:01 10.5 C 7.66 g/m*3 10.5 C 0 km/h
247 02-12-2011 00:48:01 10.2 C 7.61 g/m*3 10.2 C 0 km/h
248 02-12-2011 01:00:01 10 C 7.61 g/m*3 10 C 0 km/h
249 02-12-2011 01:12:01 10 C 7.71 g/m*3 10 C 0 km/h
250 02-12-2011 01:24:02 9.8 C 7.79 g/m*3 9.8 C 0 km/h
Sensor: Nr:Datum:Temp:Abs-Feuchte:Windchill:Wind:
Aussen-T/F 251 02-12-2011 01:36:01 9.5 C 7.65 g/m*3 9.5 C 0 km/h
252 02-12-2011 01:48:03 9.5 C 7.74 g/m*3 9.5 C 0 km/h
253 02-12-2011 02:00:03 9.5 C 7.74 g/m*3 9.5 C 0 km/h
254 02-12-2011 02:12:02 8.8 C 7.4 g/m*3 8.8 C 0 km/h
255 02-12-2011 02:24:02 8.6 C 7.39 g/m*3 8.6 C 0 km/h
256 02-12-2011 02:36:02 9.5 C 7.65 g/m*3 9.5 C 0 km/h
257 02-12-2011 02:49:04 9.8 C 7.42 g/m*3 9.8 C 0 km/h
258 02-12-2011 03:01:04 9.6 C 7.15 g/m*3 9.6 C 0 km/h
259 02-12-2011 03:13:03 9.2 C 6.88 g/m*3 9.2 C 0 km/h
260 02-12-2011 03:25:03 10 C 6.58 g/m*3 10 C 0 km/h
261 02-12-2011 03:37:03 9.7 C 6.45 g/m*3 9.7 C 0 km/h
262 02-12-2011 03:49:03 8.8 C 6.35 g/m*3 8.8 C 0 km/h
263 02-12-2011 04:01:02 9.2 C 6.34 g/m*3 9.2 C 0 km/h
264 02-12-2011 04:13:02 11.2 C 6.69 g/m*3 11.2 C 0 km/h
265 02-12-2011 04:25:02 10.3 C 6.03 g/m*3 10.3 C 0 km/h
266 02-12-2011 04:37:02 10.4 C 6.17 g/m*3 10.4 C 0 km/h
267 02-12-2011 04:49:02 10.1 C 6.05 g/m*3 10.1 C 0 km/h
268 02-12-2011 05:01:02 10 C 6.01 g/m*3 10 C 0 km/h
269 02-12-2011 05:13:02 10.1 C 6.05 g/m*3 10.1 C 0 km/h
270 02-12-2011 05:25:02 9.3 C 6.2 g/m*3 9.3 C 0 km/h
271 02-12-2011 05:37:02 10.4 C 6.46 g/m*3 10.4 C 0 km/h
272 02-12-2011 05:49:02 11.9 C 6.46 g/m*3 11.9 C 0 km/h
273 02-12-2011 06:01:02 12.4 C 6.23 g/m*3 12.4 C 0 km/h
274 02-12-2011 06:13:02 12.3 C 6.19 g/m*3 12.3 C 0 km/h
275 02-12-2011 06:25:01 12.5 C 6.27 g/m*3 12.5 C 0 km/h
Sensor: Nr:Datum:Temp:Abs-Feuchte:Windchill:Wind:
Aussen-T/F 276 02-12-2011 06:37:02 12.1 C 6.22 g/m*3 12.1 C 0 km/h
277 02-12-2011 06:49:02 12.2 C 6.26 g/m*3 12.2 C 0 km/h
278 02-12-2011 07:01:02 12 C 6.5 g/m*3 12 C 0 km/h
279 02-12-2011 07:13:02 11.9 C 6.67 g/m*3 11.9 C 0 km/h
280 02-12-2011 07:25:01 11.8 C 6.74 g/m*3 11.8 C 0 km/h
281 02-12-2011 07:37:02 11.7 C 6.69 g/m*3 11.7 C 0 km/h
282 02-12-2011 07:49:02 11.7 C 6.69 g/m*3 11.7 C 0 km/h
283 02-12-2011 08:01:02 11.7 C 6.59 g/m*3 11.7 C 0 km/h
284 02-12-2011 08:13:02 11.7 C 6.59 g/m*3 11.7 C 0 km/h
285 02-12-2011 08:25:01 11.8 C 6.63 g/m*3 11.8 C 0 km/h
286 02-12-2011 08:37:02 11.7 C 6.59 g/m*3 11.7 C 0 km/h
287 02-12-2011 08:49:01 11.8 C 6.63 g/m*3 11.8 C 0 km/h
288 02-12-2011 09:01:02 11.8 C 6.63 g/m*3 11.8 C 0 km/h
289 02-12-2011 09:13:02 11.9 C 6.67 g/m*3 11.9 C 0 km/h
290 02-12-2011 09:25:02 11.9 C 6.57 g/m*3 11.9 C 0 km/h
291 02-12-2011 09:37:01 12 C 6.5 g/m*3 12 C 0 km/h
292 02-12-2011 09:49:02 12 C 6.39 g/m*3 12 C 0 km/h
293 02-12-2011 10:01:01 12 C 6.39 g/m*3 12 C 0 km/h
294 02-12-2011 10:13:01 12 C 6.5 g/m*3 12 C 0 km/h
295 02-12-2011 10:25:02 12 C 6.5 g/m*3 12 C 0 km/h
296 02-12-2011 10:37:01 9.8 C 5.85 g/m*3 9.8 C 0 km/h
297 02-12-2011 10:49:02 8 C 6.04 g/m*3 8 C 0 km/h
298 02-12-2011 11:01:02 7.2 C 6.28 g/m*3 7.2 C 0 km/h
299 02-12-2011 11:13:02 7 C 6.35 g/m*3 7 C 0 km/h
300 02-12-2011 11:25:02 7 C 6.28 g/m*3 7 C 0 km/h
Sensor: Nr:Datum:Temp:Abs-Feuchte:Windchill:Wind:
Aussen-T/F 301 02-12-2011 11:37:02 6.9 C 6.24 g/m*3 6.9 C 0 km/h
302 02-12-2011 11:49:01 7 C 6.12 g/m*3 7 C 0 km/h
303 02-12-2011 12:01:02 7.3 C 6.08 g/m*3 7.3 C 0 km/h
304 02-12-2011 12:13:02 7.5 C 6.08 g/m*3 7.5 C 0 km/h
305 02-12-2011 12:25:01 7.5 C 6 g/m*3 7.5 C 0 km/h
306 02-12-2011 12:37:01 7.3 C 5.93 g/m*3 7.3 C 0 km/h
307 02-12-2011 12:49:01 7.3 C 6 g/m*3 7.3 C 0 km/h
308 02-12-2011 13:01:02 7.5 C 5.92 g/m*3 7.5 C 0 km/h
309 02-12-2011 13:13:02 7.7 C 5.92 g/m*3 7.7 C 0 km/h
310 02-12-2011 13:25:01 7.8 C 5.79 g/m*3 7.8 C 0 km/h
311 02-12-2011 13:37:01 7.6 C 5.72 g/m*3 7.6 C 0 km/h
312 02-12-2011 13:49:01 7.6 C 5.96 g/m*3 7.6 C 0 km/h
313 02-12-2011 14:01:02 7.5 C 5.76 g/m*3 7.5 C 0 km/h
314 02-12-2011 14:13:02 7.5 C 5.6 g/m*3 7.5 C 0 km/h
315 02-12-2011 14:25:02 7.3 C 5.61 g/m*3 7.3 C 0 km/h
316 02-12-2011 14:37:01 6.7 C 5.47 g/m*3 6.7 C 0 km/h
317 02-12-2011 14:49:02 6.4 C 5.51 g/m*3 6.4 C 0 km/h
318 02-12-2011 15:01:01 6.4 C 5.66 g/m*3 6.4 C 0 km/h
319 02-12-2011 15:13:01 6.2 C 5.74 g/m*3 6.2 C 0 km/h
320 02-12-2011 15:25:02 5.9 C 5.84 g/m*3 5.9 C 0 km/h
321 02-12-2011 15:37:01 6 C 5.81 g/m*3 6 C 0 km/h
322 02-12-2011 15:49:02 5.7 C 5.84 g/m*3 5.7 C 0 km/h
323 02-12-2011 16:01:02 5.5 C 5.83 g/m*3 5.5 C 0 km/h
324 02-12-2011 16:13:02 4.9 C 5.67 g/m*3 4.9 C 0 km/h
325 02-12-2011 16:25:02 4.7 C 5.66 g/m*3 4.7 C 0 km/h
Sensor: Nr:Datum:Temp:Abs-Feuchte:Windchill:Wind:
Aussen-T/F 326 02-12-2011 16:37:03 4.3 C 5.58 g/m*3 4.3 C 0 km/h
327 02-12-2011 16:49:02 4.5 C 5.72 g/m*3 4.5 C 0 km/h
328 02-12-2011 17:01:02 4.2 C 5.61 g/m*3 4.2 C 0 km/h
329 02-12-2011 17:13:02 3.6 C 5.45 g/m*3 3.6 C 0 km/h
330 02-12-2011 17:25:02 3 C 5.23 g/m*3 3 C 0 km/h
331 02-12-2011 17:37:02 2.8 C 5.22 g/m*3 2.8 C 0 km/h
332 02-12-2011 17:49:02 2.6 C 5.15 g/m*3 2.6 C 0 km/h
333 02-12-2011 18:01:02 2.1 C 4.98 g/m*3 2.1 C 0 km/h
334 02-12-2011 18:13:02 2.5 C 5.17 g/m*3 2.5 C 0 km/h
335 02-12-2011 18:25:02 2.1 C 5.04 g/m*3 2.1 C 0 km/h
336 02-12-2011 18:37:02 2.1 C 5.04 g/m*3 2.1 C 0 km/h
337 02-12-2011 18:49:02 2 C 5.06 g/m*3 2 C 0 km/h
338 02-12-2011 19:01:02 1.8 C 4.99 g/m*3 1.8 C 0 km/h
339 02-12-2011 19:13:02 1.7 C 4.95 g/m*3 1.7 C 0 km/h
340 02-12-2011 19:25:02 1.8 C 5.04 g/m*3 1.8 C 0 km/h
341 02-12-2011 19:37:02 1.5 C 4.94 g/m*3 1.5 C 0 km/h
342 02-12-2011 19:49:02 1.2 C 4.84 g/m*3 1.2 C 0 km/h
343 02-12-2011 20:01:02 0.6 C 4.65 g/m*3 0.6 C 0 km/h
344 02-12-2011 20:13:02 0.9 C 4.74 g/m*3 0.9 C 0 km/h
345 02-12-2011 20:25:03 0.6 C 4.65 g/m*3 0.6 C 0 km/h
346 02-12-2011 20:37:02 0.4 C 4.58 g/m*3 0.4 C 0 km/h
347 02-12-2011 20:49:02 1.8 C 5.04 g/m*3 1.8 C 0 km/h
348 02-12-2011 21:01:02 1.7 C 5.01 g/m*3 1.7 C 0 km/h
349 02-12-2011 21:13:02 1.8 C 5.1 g/m*3 1.8 C 0 km/h
350 02-12-2011 21:25:02 1.8 C 5.1 g/m*3 1.8 C 0 km/h
Sensor: Nr:Datum:Temp:Abs-Feuchte:Windchill:Wind:
Aussen-T/F 351 02-12-2011 21:37:02 1.8 C 5.1 g/m*3 1.8 C 0 km/h
352 02-12-2011 21:49:02 1.8 C 5.1 g/m*3 1.8 C 0 km/h
353 02-12-2011 22:01:01 2.3 C 5.22 g/m*3 2.3 C 0 km/h
354 02-12-2011 22:13:01 2 C 5.11 g/m*3 2 C 0 km/h
355 02-12-2011 22:25:02 2 C 5.11 g/m*3 2 C 0 km/h
356 02-12-2011 22:37:02 2 C 5.11 g/m*3 2 C 0 km/h
357 02-12-2011 22:49:01 1.7 C 5.01 g/m*3 1.7 C 0 km/h
358 02-12-2011 23:01:02 1.6 C 4.97 g/m*3 1.6 C 0 km/h
359 02-12-2011 23:13:02 1.6 C 4.97 g/m*3 1.6 C 0 km/h
360 02-12-2011 23:25:01 1.5 C 4.94 g/m*3 1.5 C 0 km/h
361 02-12-2011 23:37:02 1 C 4.78 g/m*3 1 C 0 km/h
362 02-12-2011 23:49:02 0.3 C 4.55 g/m*3 0.3 C 0 km/h
363 03-12-2011 00:01:02 0.2 C 4.52 g/m*3 0.2 C 0 km/h
364 03-12-2011 00:13:02 0.7 C 4.68 g/m*3 0.7 C 0 km/h
365 03-12-2011 00:25:02 0.5 C 4.61 g/m*3 0.5 C 0 km/h
366 03-12-2011 00:37:02 0.1 C 4.49 g/m*3 0.1 C 0 km/h
367 03-12-2011 00:49:02 -0.3 C 4.37 g/m*3 -0.3 C 0 km/h
368 03-12-2011 01:01:02 -0.4 C 4.34 g/m*3 -0.4 C 0 km/h
369 03-12-2011 01:13:03 -0.3 C 4.37 g/m*3 -0.3 C 0 km/h
370 03-12-2011 01:25:02 -0.2 C 4.4 g/m*3 -0.2 C 0 km/h
371 03-12-2011 01:37:02 -0.4 C 4.34 g/m*3 -0.4 C 0 km/h
372 03-12-2011 01:49:02 0 C 4.46 g/m*3 0 C 0 km/h
373 03-12-2011 02:01:02 0.1 C 4.54 g/m*3 0.1 C 0 km/h
374 03-12-2011 02:13:02 0.5 C 4.66 g/m*3 0.5 C 0 km/h
375 03-12-2011 02:25:03 0.7 C 4.73 g/m*3 0.7 C 0 km/h
Sensor: Nr:Datum:Temp:Abs-Feuchte:Windchill:Wind:
Aussen-T/F 376 03-12-2011 02:37:02 1.1 C 4.86 g/m*3 1.1 C 0 km/h
377 03-12-2011 02:50:04 2.2 C 5.24 g/m*3 2.2 C 0 km/h
378 03-12-2011 03:02:04 2.4 C 5.31 g/m*3 2.4 C 0 km/h
379 03-12-2011 03:14:03 2 C 5.17 g/m*3 2 C 0 km/h
380 03-12-2011 03:26:03 1.8 C 5.1 g/m*3 1.8 C 0 km/h
381 03-12-2011 03:38:01 2 C 5.17 g/m*3 2 C 0 km/h
382 03-12-2011 03:50:01 2.2 C 5.24 g/m*3 2.2 C 0 km/h
383 03-12-2011 04:02:02 2.2 C 5.24 g/m*3 2.2 C 0 km/h
384 03-12-2011 04:14:02 2.6 C 5.38 g/m*3 2.6 C 0 km/h
385 03-12-2011 04:26:02 3.2 C 5.54 g/m*3 3.2 C 0 km/h
386 03-12-2011 04:38:01 3.2 C 5.48 g/m*3 3.2 C 0 km/h
387 03-12-2011 04:50:02 3.3 C 5.4 g/m*3 3.3 C 0 km/h
388 03-12-2011 05:02:01 3.9 C 5.56 g/m*3 3.9 C 0 km/h
389 03-12-2011 05:14:01 4 C 5.4 g/m*3 4 C 0 km/h
390 03-12-2011 05:26:02 4.2 C 5.35 g/m*3 4.2 C 0 km/h
391 03-12-2011 05:38:01 4.3 C 5.25 g/m*3 4.3 C 0 km/h
392 03-12-2011 05:50:02 4.3 C 5.25 g/m*3 4.3 C 0 km/h
393 03-12-2011 06:02:01 4.1 C 5.25 g/m*3 4.1 C 0 km/h
394 03-12-2011 06:14:01 4.4 C 5.42 g/m*3 4.4 C 0 km/h
395 03-12-2011 06:26:01 5.3 C 5.48 g/m*3 5.3 C 0 km/h
396 03-12-2011 06:38:02 5.1 C 5.27 g/m*3 5.1 C 0 km/h
397 03-12-2011 06:50:02 5.3 C 5.34 g/m*3 5.3 C 0 km/h
398 03-12-2011 07:02:02 5.6 C 5.3 g/m*3 5.6 C 0 km/h
399 03-12-2011 07:14:02 5.8 C 5.3 g/m*3 5.8 C 0 km/h
400 03-12-2011 07:26:01 5.7 C 5.27 g/m*3 5.7 C 0 km/h
Sensor: Nr:Datum:Temp:Abs-Feuchte:Windchill:Wind:
Aussen-T/F 401 03-12-2011 07:38:02 5.8 C 5.23 g/m*3 5.8 C 0 km/h
402 03-12-2011 07:50:02 6 C 5.08 g/m*3 6 C 0 km/h
403 03-12-2011 08:02:02 6.1 C 5.04 g/m*3 6.1 C 0 km/h
404 03-12-2011 08:14:02 6.3 C 4.96 g/m*3 6.3 C 0 km/h
405 03-12-2011 08:26:01 6.5 C 4.95 g/m*3 6.5 C 0 km/h
406 03-12-2011 08:38:02 6.6 C 4.91 g/m*3 6.6 C 0 km/h
407 03-12-2011 08:50:02 6.7 C 4.86 g/m*3 6.7 C 0 km/h
408 03-12-2011 09:02:02 6.9 C 4.85 g/m*3 6.9 C 0 km/h
409 03-12-2011 09:14:02 7 C 4.8 g/m*3 7 C 0 km/h
410 03-12-2011 09:26:02 7.1 C 4.84 g/m*3 7.1 C 0 km/h
411 03-12-2011 09:38:02 7.2 C 4.87 g/m*3 7.2 C 0 km/h
412 03-12-2011 09:50:02 7.2 C 4.87 g/m*3 7.2 C 0 km/h
413 03-12-2011 10:02:01 7.3 C 4.98 g/m*3 7.3 C 0 km/h
414 03-12-2011 10:14:01 7.5 C 5.04 g/m*3 7.5 C 0 km/h
415 03-12-2011 10:26:02 7.5 C 5.04 g/m*3 7.5 C 0 km/h
416 03-12-2011 10:38:01 7.5 C 5.12 g/m*3 7.5 C 0 km/h
417 03-12-2011 10:50:02 7.5 C 5.2 g/m*3 7.5 C 0 km/h
418 03-12-2011 11:02:02 7.5 C 5.2 g/m*3 7.5 C 0 km/h
419 03-12-2011 11:14:02 7.6 C 5.24 g/m*3 7.6 C 0 km/h
420 03-12-2011 11:26:02 7.7 C 5.27 g/m*3 7.7 C 0 km/h
421 03-12-2011 11:38:03 7.7 C 5.27 g/m*3 7.7 C 0 km/h
422 03-12-2011 11:50:02 7.8 C 5.3 g/m*3 7.8 C 0 km/h
423 03-12-2011 12:02:02 7.9 C 5.34 g/m*3 7.9 C 0 km/h
424 03-12-2011 12:14:02 7.9 C 5.34 g/m*3 7.9 C 0 km/h
425 03-12-2011 12:26:01 7.9 C 5.42 g/m*3 7.9 C 0 km/h
Sensor: Nr:Datum:Temp:Abs-Feuchte:Windchill:Wind:
Aussen-T/F 426 03-12-2011 12:38:02 8 C 5.37 g/m*3 8 C 0 km/h
427 03-12-2011 12:50:02 7.8 C 5.55 g/m*3 7.8 C 0 km/h
428 03-12-2011 13:02:02 7.5 C 5.6 g/m*3 7.5 C 0 km/h
429 03-12-2011 13:14:02 7.6 C 5.72 g/m*3 7.6 C 0 km/h
430 03-12-2011 13:26:01 7.7 C 5.84 g/m*3 7.7 C 0 km/h
431 03-12-2011 13:38:02 7.5 C 5.84 g/m*3 7.5 C 0 km/h
432 03-12-2011 13:50:02 7.7 C 6 g/m*3 7.7 C 0 km/h
433 03-12-2011 14:02:02 7.9 C 6 g/m*3 7.9 C 0 km/h
434 03-12-2011 14:14:02 8.1 C 5.91 g/m*3 8.1 C 0 km/h
435 03-12-2011 14:26:02 8.2 C 5.86 g/m*3 8.2 C 0 km/h
436 03-12-2011 14:38:02 8.3 C 5.9 g/m*3 8.3 C 0 km/h
437 03-12-2011 14:50:01 8.4 C 5.85 g/m*3 8.4 C 0 km/h
438 03-12-2011 15:02:02 8.6 C 5.93 g/m*3 8.6 C 0 km/h
439 03-12-2011 15:14:02 8.6 C 6.02 g/m*3 8.6 C 0 km/h
440 03-12-2011 15:26:02 8.6 C 6.02 g/m*3 8.6 C 0 km/h
441 03-12-2011 15:38:02 8.5 C 6.06 g/m*3 8.5 C 0 km/h
442 03-12-2011 15:50:02 8.5 C 6.15 g/m*3 8.5 C 0 km/h
443 03-12-2011 16:02:01 8.6 C 6.19 g/m*3 8.6 C 0 km/h
444 03-12-2011 16:14:01 8.6 C 6.19 g/m*3 8.6 C 0 km/h
445 03-12-2011 16:26:02 8.4 C 6.19 g/m*3 8.4 C 0 km/h
446 03-12-2011 16:38:02 8.3 C 6.32 g/m*3 8.3 C 0 km/h
447 03-12-2011 16:50:01 8.4 C 6.45 g/m*3 8.4 C 0 km/h
448 03-12-2011 17:02:02 8.4 C 6.45 g/m*3 8.4 C 0 km/h
449 03-12-2011 17:14:02 8.7 C 6.49 g/m*3 8.7 C 0 km/h
450 03-12-2011 17:26:01 8.7 C 6.4 g/m*3 8.7 C 0 km/h
Sensor: Nr:Datum:Temp:Abs-Feuchte:Windchill:Wind:
Aussen-T/F 451 03-12-2011 17:38:02 8.7 C 6.4 g/m*3 8.7 C 0 km/h
452 03-12-2011 17:50:02 8.9 C 6.48 g/m*3 8.9 C 0 km/h
453 03-12-2011 18:02:02 9 C 6.44 g/m*3 9 C 0 km/h
454 03-12-2011 18:14:02 8.8 C 6.61 g/m*3 8.8 C 0 km/h
455 03-12-2011 18:26:01 8.7 C 6.66 g/m*3 8.7 C 0 km/h
456 03-12-2011 18:38:02 8.6 C 6.7 g/m*3 8.6 C 0 km/h
457 03-12-2011 18:50:02 8.6 C 6.79 g/m*3 8.6 C 0 km/h
458 03-12-2011 19:02:02 8.7 C 6.83 g/m*3 8.7 C 0 km/h
459 03-12-2011 19:14:02 8.8 C 6.88 g/m*3 8.8 C 0 km/h
460 03-12-2011 19:26:01 9 C 6.79 g/m*3 9 C 0 km/h
461 03-12-2011 19:38:02 9 C 6.7 g/m*3 9 C 0 km/h
462 03-12-2011 19:50:01 9.1 C 6.74 g/m*3 9.1 C 0 km/h
463 03-12-2011 20:02:02 9.2 C 6.7 g/m*3 9.2 C 0 km/h
464 03-12-2011 20:14:02 9.3 C 6.65 g/m*3 9.3 C 0 km/h
465 03-12-2011 20:26:02 9.2 C 6.61 g/m*3 9.2 C 0 km/h
466 03-12-2011 20:38:02 9.2 C 6.7 g/m*3 9.2 C 0 km/h
467 03-12-2011 20:50:02 9.3 C 6.65 g/m*3 9.3 C 0 km/h
468 03-12-2011 21:02:02 9.1 C 6.57 g/m*3 9.1 C 0 km/h
469 03-12-2011 21:14:02 9.1 C 6.65 g/m*3 9.1 C 0 km/h
470 03-12-2011 21:26:02 9.3 C 6.65 g/m*3 9.3 C 0 km/h
471 03-12-2011 21:38:01 9.2 C 6.52 g/m*3 9.2 C 0 km/h
472 03-12-2011 21:50:02 8.9 C 6.48 g/m*3 8.9 C 0 km/h
473 03-12-2011 22:02:01 8.5 C 6.4 g/m*3 8.5 C 0 km/h
474 03-12-2011 22:14:01 8.2 C 6.45 g/m*3 8.2 C 0 km/h
475 03-12-2011 22:26:02 8.5 C 6.57 g/m*3 8.5 C 0 km/h
Sensor: Nr:Datum:Temp:Abs-Feuchte:Windchill:Wind:
Aussen-T/F 476 03-12-2011 22:38:02 8.5 C 6.4 g/m*3 8.5 C 0 km/h
477 03-12-2011 22:50:02 8 C 6.2 g/m*3 8 C 0 km/h
478 03-12-2011 23:02:02 7.2 C 6.2 g/m*3 7.2 C 0 km/h
479 03-12-2011 23:14:02 7.3 C 6.4 g/m*3 7.3 C 0 km/h
480 03-12-2011 23:26:02 7.2 C 6.44 g/m*3 7.2 C 0 km/h
481 03-12-2011 23:38:02 7.6 C 6.61 g/m*3 7.6 C 0 km/h
482 03-12-2011 23:50:01 7.5 C 6.56 g/m*3 7.5 C 0 km/h
483 04-12-2011 00:02:02 7.8 C 6.69 g/m*3 7.8 C 0 km/h
484 04-12-2011 00:14:02 7.6 C 6.53 g/m*3 7.6 C 0 km/h
485 04-12-2011 00:26:01 6.9 C 6.31 g/m*3 6.9 C 0 km/h
486 04-12-2011 00:38:02 6.8 C 6.35 g/m*3 6.8 C 0 km/h
487 04-12-2011 00:50:02 7.1 C 6.47 g/m*3 7.1 C 0 km/h
488 04-12-2011 01:02:02 7.3 C 6.56 g/m*3 7.3 C 0 km/h
489 04-12-2011 01:14:02 6.6 C 6.27 g/m*3 6.6 C 0 km/h
490 04-12-2011 01:26:02 6.5 C 6.3 g/m*3 6.5 C 0 km/h
491 04-12-2011 01:38:02 6.6 C 6.49 g/m*3 6.6 C 0 km/h
492 04-12-2011 01:50:02 7.1 C 6.71 g/m*3 7.1 C 0 km/h
493 04-12-2011 02:02:02 7.4 C 6.84 g/m*3 7.4 C 0 km/h
494 04-12-2011 02:14:03 7.7 C 6.89 g/m*3 7.7 C 0 km/h
495 04-12-2011 02:26:02 8.6 C 6.87 g/m*3 8.6 C 0 km/h
496 04-12-2011 02:38:02 9.3 C 6.56 g/m*3 9.3 C 0 km/h
497 04-12-2011 02:51:03 9.5 C 6.46 g/m*3 9.5 C 0 km/h
498 04-12-2011 03:03:03 9.6 C 6.41 g/m*3 9.6 C 0 km/h
499 04-12-2011 03:15:03 9.4 C 6.42 g/m*3 9.4 C 0 km/h
500 04-12-2011 03:27:03 9.4 C 6.51 g/m*3 9.4 C 0 km/h
Sensor: Nr:Datum:Temp:Abs-Feuchte:Windchill:Wind:
Aussen-T/F 501 04-12-2011 03:39:01 9.6 C 6.6 g/m*3 9.6 C 0 km/h
502 04-12-2011 03:51:01 9.7 C 6.55 g/m*3 9.7 C 0 km/h
503 04-12-2011 04:03:02 9.9 C 6.63 g/m*3 9.9 C 0 km/h
504 04-12-2011 04:15:01 10 C 6.67 g/m*3 10 C 0 km/h
505 04-12-2011 04:27:01 10.1 C 6.71 g/m*3 10.1 C 0 km/h
506 04-12-2011 04:39:02 10 C 6.67 g/m*3 10 C 0 km/h
507 04-12-2011 04:51:01 10.2 C 6.85 g/m*3 10.2 C 0 km/h
508 04-12-2011 05:03:02 10 C 6.86 g/m*3 10 C 0 km/h
509 04-12-2011 05:15:01 9.6 C 7.05 g/m*3 9.6 C 0 km/h
510 04-12-2011 05:27:01 9.4 C 7.24 g/m*3 9.4 C 0 km/h
511 04-12-2011 05:39:02 9.2 C 7.32 g/m*3 9.2 C 0 km/h
512 04-12-2011 05:51:01 8.9 C 7.45 g/m*3 8.9 C 0 km/h
513 04-12-2011 06:03:02 8.9 C 7.53 g/m*3 8.9 C 0 km/h
514 04-12-2011 06:15:02 9 C 7.58 g/m*3 9 C 0 km/h
515 04-12-2011 06:27:02 9.2 C 7.68 g/m*3 9.2 C 0 km/h
516 04-12-2011 06:39:01 8.9 C 7.62 g/m*3 8.9 C 0 km/h
517 04-12-2011 06:51:02 8.7 C 7.52 g/m*3 8.7 C 0 km/h
518 04-12-2011 07:03:01 8.7 C 7.61 g/m*3 8.7 C 0 km/h
519 04-12-2011 07:15:02 8.7 C 7.61 g/m*3 8.7 C 0 km/h
520 04-12-2011 07:27:03 9.1 C 7.81 g/m*3 9.1 C 0 km/h
521 04-12-2011 07:39:01 9.3 C 7.91 g/m*3 9.3 C 0 km/h
522 04-12-2011 07:51:02 9.3 C 7.91 g/m*3 9.3 C 0 km/h
523 04-12-2011 08:03:02 9.1 C 7.81 g/m*3 9.1 C 0 km/h
524 04-12-2011 08:15:02 8.9 C 7.8 g/m*3 8.9 C 0 km/h
525 04-12-2011 08:27:02 8.5 C 7.51 g/m*3 8.5 C 0 km/h
Sensor: Nr:Datum:Temp:Abs-Feuchte:Windchill:Wind:
Aussen-T/F 526 04-12-2011 08:39:02 8.2 C 7.37 g/m*3 8.2 C 0 km/h
527 04-12-2011 08:51:02 8 C 7.19 g/m*3 8 C 0 km/h
528 04-12-2011 09:03:02 8 C 7.19 g/m*3 8 C 0 km/h
529 04-12-2011 09:15:01 8 C 7.28 g/m*3 8 C 0 km/h
530 04-12-2011 09:27:01 8 C 7.28 g/m*3 8 C 0 km/h
531 04-12-2011 09:39:02 8.1 C 7.16 g/m*3 8.1 C 0 km/h
532 04-12-2011 09:51:02 8.1 C 6.99 g/m*3 8.1 C 0 km/h
533 04-12-2011 10:03:02 8.1 C 6.99 g/m*3 8.1 C 0 km/h
534 04-12-2011 10:15:01 8.3 C 6.91 g/m*3 8.3 C 0 km/h
535 04-12-2011 10:27:01 8.6 C 6.87 g/m*3 8.6 C 0 km/h
536 04-12-2011 10:39:02 8.7 C 6.66 g/m*3 8.7 C 0 km/h
537 04-12-2011 10:51:01 9.1 C 6.39 g/m*3 9.1 C 0 km/h
538 04-12-2011 11:03:02 9.3 C 6.29 g/m*3 9.3 C 0 km/h
539 04-12-2011 11:15:02 9.3 C 6.38 g/m*3 9.3 C 0 km/h
540 04-12-2011 11:27:02 9.4 C 6.15 g/m*3 9.4 C 0 km/h
541 04-12-2011 11:39:02 9.4 C 5.88 g/m*3 9.4 C 0 km/h
542 04-12-2011 11:51:02 9.4 C 5.79 g/m*3 9.4 C 0 km/h
543 04-12-2011 12:03:02 9.4 C 5.79 g/m*3 9.4 C 0 km/h
544 04-12-2011 12:15:02 9.4 C 5.88 g/m*3 9.4 C 0 km/h
545 04-12-2011 12:27:02 9.6 C 5.77 g/m*3 9.6 C 0 km/h
546 04-12-2011 12:39:01 9.7 C 5.72 g/m*3 9.7 C 0 km/h
547 04-12-2011 12:51:02 9.7 C 5.81 g/m*3 9.7 C 0 km/h
548 04-12-2011 13:03:01 9.7 C 5.81 g/m*3 9.7 C 0 km/h
549 04-12-2011 13:15:01 9.7 C 5.81 g/m*3 9.7 C 0 km/h
550 04-12-2011 13:27:01 9 C 5.91 g/m*3 9 C 0 km/h
Sensor: Nr:Datum:Temp:Abs-Feuchte:Windchill:Wind:
Aussen-T/F 551 04-12-2011 13:39:02 8.6 C 6.19 g/m*3 8.6 C 0 km/h
552 04-12-2011 13:51:02 8.5 C 6.23 g/m*3 8.5 C 0 km/h
553 04-12-2011 14:03:02 8.6 C 6.44 g/m*3 8.6 C 0 km/h
554 04-12-2011 14:15:02 8.9 C 6.22 g/m*3 8.9 C 0 km/h
555 04-12-2011 14:27:02 8.9 C 6.13 g/m*3 8.9 C 0 km/h
556 04-12-2011 14:39:02 8.8 C 6.09 g/m*3 8.8 C 0 km/h
557 04-12-2011 14:51:02 8.3 C 6.07 g/m*3 8.3 C 0 km/h
558 04-12-2011 15:03:02 8.3 C 6.24 g/m*3 8.3 C 0 km/h
559 04-12-2011 15:15:02 8.3 C 6.41 g/m*3 8.3 C 0 km/h
560 04-12-2011 15:27:02 8 C 6.37 g/m*3 8 C 0 km/h
561 04-12-2011 15:39:02 8.4 C 6.36 g/m*3 8.4 C 0 km/h
562 04-12-2011 15:51:02 8.2 C 6.36 g/m*3 8.2 C 0 km/h
563 04-12-2011 16:03:02 8.5 C 6.49 g/m*3 8.5 C 0 km/h
564 04-12-2011 16:15:03 8.5 C 6.32 g/m*3 8.5 C 0 km/h
565 04-12-2011 16:27:03 8.7 C 6.31 g/m*3 8.7 C 0 km/h
566 04-12-2011 16:39:02 8.1 C 6.41 g/m*3 8.1 C 0 km/h
567 04-12-2011 16:51:03 7.7 C 6.65 g/m*3 7.7 C 0 km/h
568 04-12-2011 17:03:02 7.6 C 6.77 g/m*3 7.6 C 0 km/h
569 04-12-2011 17:15:02 7.5 C 6.88 g/m*3 7.5 C 0 km/h
570 04-12-2011 17:27:02 7.5 C 6.96 g/m*3 7.5 C 0 km/h
571 04-12-2011 17:39:02 7.5 C 7.04 g/m*3 7.5 C 0 km/h
572 04-12-2011 17:51:02 7.6 C 7.09 g/m*3 7.6 C 0 km/h
573 04-12-2011 18:03:02 7.4 C 7 g/m*3 7.4 C 0 km/h
574 04-12-2011 18:15:02 7.3 C 7.03 g/m*3 7.3 C 0 km/h
575 04-12-2011 18:27:02 7.3 C 7.03 g/m*3 7.3 C 0 km/h
Sensor: Nr:Datum:Temp:Abs-Feuchte:Windchill:Wind:
Aussen-T/F 576 04-12-2011 18:39:03 7.3 C 7.03 g/m*3 7.3 C 0 km/h
577 04-12-2011 18:51:02 7.3 C 7.03 g/m*3 7.3 C 0 km/h
578 04-12-2011 19:03:02 7.3 C 7.11 g/m*3 7.3 C 0 km/h
579 04-12-2011 19:15:01 7.5 C 7.2 g/m*3 7.5 C 0 km/h
580 04-12-2011 19:27:01 7.3 C 7.11 g/m*3 7.3 C 0 km/h
581 04-12-2011 19:39:02 7.4 C 7.16 g/m*3 7.4 C 0 km/h
582 04-12-2011 19:51:02 7.4 C 7.16 g/m*3 7.4 C 0 km/h
583 04-12-2011 20:03:02 7.4 C 7.16 g/m*3 7.4 C 0 km/h
584 04-12-2011 20:15:02 7.2 C 7.06 g/m*3 7.2 C 0 km/h
585 04-12-2011 20:27:02 7.2 C 7.06 g/m*3 7.2 C 0 km/h
586 04-12-2011 20:39:02 7.2 C 7.14 g/m*3 7.2 C 0 km/h
587 04-12-2011 20:51:02 7.3 C 7.19 g/m*3 7.3 C 0 km/h
588 04-12-2011 21:03:02 7.5 C 7.28 g/m*3 7.5 C 0 km/h
589 04-12-2011 21:15:03 7.9 C 7.47 g/m*3 7.9 C 0 km/h
590 04-12-2011 21:27:03 7.8 C 7.43 g/m*3 7.8 C 0 km/h
591 04-12-2011 21:39:02 7.7 C 7.38 g/m*3 7.7 C 0 km/h
592 04-12-2011 21:51:01 7.6 C 7.33 g/m*3 7.6 C 0 km/h
593 04-12-2011 22:03:01 7.5 C 7.2 g/m*3 7.5 C 0 km/h
594 04-12-2011 22:15:02 7.4 C 7.08 g/m*3 7.4 C 0 km/h
595 04-12-2011 22:27:02 7.3 C 7.03 g/m*3 7.3 C 0 km/h
596 04-12-2011 22:39:01 7.4 C 7.08 g/m*3 7.4 C 0 km/h
597 04-12-2011 22:51:03 7.3 C 7.03 g/m*3 7.3 C 0 km/h
598 04-12-2011 23:03:02 7.1 C 6.94 g/m*3 7.1 C 0 km/h
599 04-12-2011 23:15:02 7 C 6.9 g/m*3 7 C 0 km/h
600 04-12-2011 23:27:03 6.7 C 6.76 g/m*3 6.7 C 0 km/h
Sensor: Nr:Datum:Temp:Abs-Feuchte:Windchill:Wind:
Aussen-T/F 601 04-12-2011 23:39:02 6.4 C 6.48 g/m*3 6.4 C 0 km/h
602 04-12-2011 23:51:02 6 C 6.24 g/m*3 6 C 0 km/h
603 05-12-2011 00:03:01 5.7 C 6.19 g/m*3 5.7 C 0 km/h
604 05-12-2011 00:15:02 5.6 C 6.22 g/m*3 5.6 C 0 km/h
605 05-12-2011 00:27:02 5.5 C 6.18 g/m*3 5.5 C 0 km/h
606 05-12-2011 00:39:02 5.3 C 6.17 g/m*3 5.3 C 0 km/h
607 05-12-2011 00:51:02 5.3 C 6.17 g/m*3 5.3 C 0 km/h
608 05-12-2011 01:03:02 5.5 C 6.25 g/m*3 5.5 C 0 km/h
609 05-12-2011 01:15:02 5.5 C 6.18 g/m*3 5.5 C 0 km/h
610 05-12-2011 01:27:02 5.5 C 6.18 g/m*3 5.5 C 0 km/h
611 05-12-2011 01:39:02 5.6 C 6.15 g/m*3 5.6 C 0 km/h
612 05-12-2011 01:51:02 5.6 C 6.08 g/m*3 5.6 C 0 km/h
613 05-12-2011 02:03:01 5.4 C 5.93 g/m*3 5.4 C 0 km/h
614 05-12-2011 02:15:02 5.6 C 6.01 g/m*3 5.6 C 0 km/h
615 05-12-2011 02:27:02 5.7 C 5.98 g/m*3 5.7 C 0 km/h
616 05-12-2011 02:39:02 5.8 C 6.02 g/m*3 5.8 C 0 km/h
617 05-12-2011 02:52:04 5.6 C 5.94 g/m*3 5.6 C 0 km/h
618 05-12-2011 03:04:04 5.4 C 5.86 g/m*3 5.4 C 0 km/h
619 05-12-2011 03:16:03 5.1 C 5.47 g/m*3 5.1 C 0 km/h
620 05-12-2011 03:28:03 5.1 C 5.47 g/m*3 5.1 C 0 km/h
621 05-12-2011 03:40:02 5.1 C 5.34 g/m*3 5.1 C 0 km/h
622 05-12-2011 03:52:02 5.3 C 5.34 g/m*3 5.3 C 0 km/h
623 05-12-2011 04:04:01 5.3 C 5.34 g/m*3 5.3 C 0 km/h
624 05-12-2011 04:16:02 5.2 C 5.3 g/m*3 5.2 C 0 km/h
625 05-12-2011 04:28:02 4.9 C 5.13 g/m*3 4.9 C 0 km/h
Sensor: Nr:Datum:Temp:Abs-Feuchte:Windchill:Wind:
Aussen-T/F 626 05-12-2011 04:40:01 5.1 C 4.92 g/m*3 5.1 C 0 km/h
627 05-12-2011 04:52:02 4.7 C 4.86 g/m*3 4.7 C 0 km/h
628 05-12-2011 05:04:02 4.3 C 4.86 g/m*3 4.3 C 0 km/h
629 05-12-2011 05:16:02 4 C 4.7 g/m*3 4 C 0 km/h
630 05-12-2011 05:28:02 4.5 C 4.8 g/m*3 4.5 C 0 km/h
631 05-12-2011 05:40:02 3.9 C 4.67 g/m*3 3.9 C 0 km/h
632 05-12-2011 05:52:02 3.9 C 4.8 g/m*3 3.9 C 0 km/h
633 05-12-2011 06:04:02 3.4 C 4.7 g/m*3 3.4 C 0 km/h
634 05-12-2011 06:16:01 3.3 C 4.61 g/m*3 3.3 C 0 km/h
635 05-12-2011 06:28:01 4 C 4.64 g/m*3 4 C 0 km/h
636 05-12-2011 06:40:02 3.3 C 4.55 g/m*3 3.3 C 0 km/h
637 05-12-2011 06:52:02 3.5 C 4.61 g/m*3 3.5 C 0 km/h
638 05-12-2011 07:04:02 3.5 C 4.55 g/m*3 3.5 C 0 km/h
639 05-12-2011 07:16:01 3.6 C 4.64 g/m*3 3.6 C 0 km/h
640 05-12-2011 07:28:01 3.7 C 4.42 g/m*3 3.7 C 0 km/h
641 05-12-2011 07:40:02 2.9 C 4.55 g/m*3 2.9 C 0 km/h
642 05-12-2011 07:52:01 2.8 C 4.63 g/m*3 2.8 C 0 km/h
643 05-12-2011 08:04:02 2.9 C 4.72 g/m*3 2.9 C 0 km/h
644 05-12-2011 08:16:02 2.6 C 4.75 g/m*3 2.6 C 0 km/h
645 05-12-2011 08:28:02 2.1 C 4.59 g/m*3 2.1 C 0 km/h
646 05-12-2011 08:40:01 2.1 C 4.7 g/m*3 2.1 C 0 km/h
647 05-12-2011 08:52:02 2.1 C 4.81 g/m*3 2.1 C 0 km/h
648 05-12-2011 09:04:01 1.6 C 4.7 g/m*3 1.6 C 0 km/h
649 05-12-2011 09:16:01 1.8 C 4.82 g/m*3 1.8 C 0 km/h
650 05-12-2011 09:28:02 1.9 C 4.91 g/m*3 1.9 C 0 km/h
Sensor: Nr:Datum:Temp:Abs-Feuchte:Windchill:Wind:
Aussen-T/F 651 05-12-2011 09:40:01 2.1 C 4.98 g/m*3 2.1 C 0 km/h
652 05-12-2011 09:52:02 3 C 5.17 g/m*3 3 C 0 km/h
653 05-12-2011 10:04:01 2.9 C 5.08 g/m*3 2.9 C 0 km/h
654 05-12-2011 10:16:02 2.5 C 4.89 g/m*3 2.5 C 0 km/h
655 05-12-2011 10:28:02 3.5 C 5.04 g/m*3 3.5 C 0 km/h
656 05-12-2011 10:40:02 3.2 C 4.7 g/m*3 3.2 C 0 km/h
657 05-12-2011 10:52:02 3.9 C 4.8 g/m*3 3.9 C 0 km/h
658 05-12-2011 11:04:03 4 C 4.58 g/m*3 4 C 0 km/h
659 05-12-2011 11:16:02 3.9 C 4.55 g/m*3 3.9 C 0 km/h
660 05-12-2011 11:28:02 4.1 C 4.48 g/m*3 4.1 C 0 km/h
661 05-12-2011 11:40:02 4.6 C 4.5 g/m*3 4.6 C 0 km/h
662 05-12-2011 11:52:01 4.4 C 4.37 g/m*3 4.4 C 0 km/h
663 05-12-2011 12:04:01 4.7 C 4.53 g/m*3 4.7 C 0 km/h
664 05-12-2011 12:16:01 5.4 C 4.6 g/m*3 5.4 C 0 km/h
665 05-12-2011 12:28:01 5.1 C 4.24 g/m*3 5.1 C 0 km/h
666 05-12-2011 12:40:01 5.3 C 4.16 g/m*3 5.3 C 0 km/h
667 05-12-2011 12:52:01 5.7 C 4.2 g/m*3 5.7 C 0 km/h
668 05-12-2011 13:04:01 5.8 C 4.08 g/m*3 5.8 C 0 km/h
669 05-12-2011 13:16:02 5.8 C 3.87 g/m*3 5.8 C 0 km/h
670 05-12-2011 13:28:02 5.6 C 3.61 g/m*3 5.6 C 0 km/h
671 05-12-2011 13:40:01 5.6 C 3.68 g/m*3 5.6 C 0 km/h
672 05-12-2011 13:52:03 5.4 C 3.42 g/m*3 5.4 C 0 km/h
673 05-12-2011 14:04:02 5.1 C 3.49 g/m*3 5.1 C 0 km/h
674 05-12-2011 14:16:02 4.8 C 3.76 g/m*3 4.8 C 0 km/h
675 05-12-2011 14:28:02 5.5 C 3.44 g/m*3 5.5 C 0 km/h
Sensor: Nr:Datum:Temp:Abs-Feuchte:Windchill:Wind:
Aussen-T/F 676 05-12-2011 14:40:02 5.2 C 3.58 g/m*3 5.2 C 0 km/h
677 05-12-2011 14:52:02 5.2 C 3.51 g/m*3 5.2 C 0 km/h
678 05-12-2011 15:04:01 5.5 C 3.44 g/m*3 5.5 C 0 km/h
679 05-12-2011 15:16:02 5.5 C 3.51 g/m*3 5.5 C 0 km/h
680 05-12-2011 15:28:02 5.6 C 3.46 g/m*3 5.6 C 0 km/h
681 05-12-2011 15:40:02 5.4 C 3.49 g/m*3 5.4 C 0 km/h
682 05-12-2011 15:52:02 5 C 3.47 g/m*3 5 C 0 km/h
683 05-12-2011 16:04:03 5.3 C 3.47 g/m*3 5.3 C 0 km/h
684 05-12-2011 16:16:02 5.2 C 3.51 g/m*3 5.2 C 0 km/h
685 05-12-2011 16:28:02 5.1 C 3.63 g/m*3 5.1 C 0 km/h
686 05-12-2011 16:40:02 5 C 3.74 g/m*3 5 C 0 km/h
687 05-12-2011 16:52:01 4.7 C 3.93 g/m*3 4.7 C 0 km/h
688 05-12-2011 17:04:02 4.5 C 4.08 g/m*3 4.5 C 0 km/h
689 05-12-2011 17:16:01 4 C 4.07 g/m*3 4 C 0 km/h
690 05-12-2011 17:28:01 4.6 C 3.97 g/m*3 4.6 C 0 km/h
691 05-12-2011 17:40:02 4.5 C 3.94 g/m*3 4.5 C 0 km/h
692 05-12-2011 17:52:01 5.2 C 3.99 g/m*3 5.2 C 0 km/h
693 05-12-2011 18:04:02 5.4 C 3.98 g/m*3 5.4 C 0 km/h
694 05-12-2011 18:16:02 5.3 C 4.02 g/m*3 5.3 C 0 km/h
695 05-12-2011 18:28:02 5.3 C 4.09 g/m*3 5.3 C 0 km/h
696 05-12-2011 18:40:02 5.3 C 4.16 g/m*3 5.3 C 0 km/h
697 05-12-2011 18:52:01 5.4 C 4.26 g/m*3 5.4 C 0 km/h
698 05-12-2011 19:04:02 5.4 C 4.26 g/m*3 5.4 C 0 km/h
699 05-12-2011 19:16:02 5.2 C 4.34 g/m*3 5.2 C 0 km/h
700 05-12-2011 19:28:02 4.9 C 4.46 g/m*3 4.9 C 0 km/h
Sensor: Nr:Datum:Temp:Abs-Feuchte:Windchill:Wind:
Aussen-T/F 701 05-12-2011 19:40:01 4.5 C 4.54 g/m*3 4.5 C 0 km/h
702 05-12-2011 19:52:02 3.9 C 4.74 g/m*3 3.9 C 0 km/h
703 05-12-2011 20:04:01 3.7 C 4.92 g/m*3 3.7 C 0 km/h
704 05-12-2011 20:16:02 3.8 C 4.96 g/m*3 3.8 C 0 km/h
705 05-12-2011 20:28:02 3.6 C 4.83 g/m*3 3.6 C 0 km/h
706 05-12-2011 20:40:01 3.4 C 4.83 g/m*3 3.4 C 0 km/h
707 05-12-2011 20:52:02 4 C 4.77 g/m*3 4 C 0 km/h
708 05-12-2011 21:04:02 4.2 C 4.7 g/m*3 4.2 C 0 km/h
709 05-12-2011 21:16:02 4.1 C 4.35 g/m*3 4.1 C 0 km/h
710 05-12-2011 21:28:02 3.8 C 4.33 g/m*3 3.8 C 0 km/h
711 05-12-2011 21:40:02 3.6 C 4.39 g/m*3 3.6 C 0 km/h
712 05-12-2011 21:52:02 3.5 C 4.49 g/m*3 3.5 C 0 km/h
713 05-12-2011 22:04:02 3.5 C 4.49 g/m*3 3.5 C 0 km/h
714 05-12-2011 22:16:01 2.9 C 4.55 g/m*3 2.9 C 0 km/h
715 05-12-2011 22:28:01 3.2 C 4.76 g/m*3 3.2 C 0 km/h
716 05-12-2011 22:40:02 3.8 C 4.89 g/m*3 3.8 C 0 km/h
717 05-12-2011 22:52:02 3.5 C 4.73 g/m*3 3.5 C 0 km/h
718 05-12-2011 23:04:02 3.5 C 4.67 g/m*3 3.5 C 0 km/h
719 05-12-2011 23:16:01 3.4 C 4.7 g/m*3 3.4 C 0 km/h
720 05-12-2011 23:28:01 3.3 C 4.73 g/m*3 3.3 C 0 km/h
721 05-12-2011 23:40:02 3.7 C 4.74 g/m*3 3.7 C 0 km/h
722 05-12-2011 23:52:02 3.5 C 4.61 g/m*3 3.5 C 0 km/h
723 06-12-2011 00:04:02 4 C 4.58 g/m*3 4 C 0 km/h
724 06-12-2011 00:16:02 3.9 C 4.67 g/m*3 3.9 C 0 km/h
725 06-12-2011 00:28:02 3.8 C 4.71 g/m*3 3.8 C 0 km/h
Sensor: Nr:Datum:Temp:Abs-Feuchte:Windchill:Wind:
Aussen-T/F 726 06-12-2011 00:40:02 4.1 C 4.67 g/m*3 4.1 C 0 km/h
727 06-12-2011 00:52:02 3.7 C 4.67 g/m*3 3.7 C 0 km/h
728 06-12-2011 01:04:02 3.4 C 4.7 g/m*3 3.4 C 0 km/h
729 06-12-2011 01:16:02 3.5 C 4.8 g/m*3 3.5 C 0 km/h
730 06-12-2011 01:28:02 3.1 C 4.73 g/m*3 3.1 C 0 km/h
731 06-12-2011 01:40:02 3 C 4.76 g/m*3 3 C 0 km/h
732 06-12-2011 01:52:02 3.1 C 4.73 g/m*3 3.1 C 0 km/h
733 06-12-2011 02:04:01 3.2 C 4.76 g/m*3 3.2 C 0 km/h
734 06-12-2011 02:16:02 3.5 C 4.86 g/m*3 3.5 C 0 km/h
735 06-12-2011 02:28:02 3.5 C 4.8 g/m*3 3.5 C 0 km/h
736 06-12-2011 02:40:02 4 C 4.64 g/m*3 4 C 0 km/h
737 06-12-2011 02:53:03 4 C 4.64 g/m*3 4 C 0 km/h
738 06-12-2011 03:05:03 3.7 C 4.67 g/m*3 3.7 C 0 km/h
739 06-12-2011 03:17:02 3.5 C 4.67 g/m*3 3.5 C 0 km/h
740 06-12-2011 03:29:02 3.8 C 4.77 g/m*3 3.8 C 0 km/h
741 06-12-2011 03:41:02 3.7 C 4.67 g/m*3 3.7 C 0 km/h
742 06-12-2011 03:53:02 4 C 4.58 g/m*3 4 C 0 km/h
743 06-12-2011 04:05:01 3.8 C 4.58 g/m*3 3.8 C 0 km/h
744 06-12-2011 04:17:02 3.8 C 4.58 g/m*3 3.8 C 0 km/h
745 06-12-2011 04:29:02 3.8 C 4.64 g/m*3 3.8 C 0 km/h
746 06-12-2011 04:41:02 3.8 C 4.58 g/m*3 3.8 C 0 km/h
747 06-12-2011 04:53:02 3.8 C 4.58 g/m*3 3.8 C 0 km/h
748 06-12-2011 05:05:03 3.7 C 4.55 g/m*3 3.7 C 0 km/h
749 06-12-2011 05:17:02 3.7 C 4.49 g/m*3 3.7 C 0 km/h
750 06-12-2011 05:29:02 3.7 C 4.49 g/m*3 3.7 C 0 km/h
Sensor: Nr:Datum:Temp:Abs-Feuchte:Windchill:Wind:
Aussen-T/F 751 06-12-2011 05:41:02 3.8 C 4.52 g/m*3 3.8 C 0 km/h
752 06-12-2011 05:53:02 3.3 C 4.37 g/m*3 3.3 C 0 km/h
753 06-12-2011 06:05:02 3.2 C 4.4 g/m*3 3.2 C 0 km/h
754 06-12-2011 06:17:01 3.8 C 4.39 g/m*3 3.8 C 0 km/h
755 06-12-2011 06:29:01 3.8 C 4.39 g/m*3 3.8 C 0 km/h
756 06-12-2011 06:41:02 3.4 C 4.28 g/m*3 3.4 C 0 km/h
757 06-12-2011 06:53:01 3.4 C 4.34 g/m*3 3.4 C 0 km/h
758 06-12-2011 07:05:02 4 C 4.39 g/m*3 4 C 0 km/h
759 06-12-2011 07:17:02 3.9 C 4.29 g/m*3 3.9 C 0 km/h
760 06-12-2011 07:29:02 3.7 C 4.3 g/m*3 3.7 C 0 km/h
761 06-12-2011 07:41:01 3.6 C 4.33 g/m*3 3.6 C 0 km/h
762 06-12-2011 07:53:01 3.3 C 4.31 g/m*3 3.3 C 0 km/h
763 06-12-2011 08:05:01 3.3 C 4.37 g/m*3 3.3 C 0 km/h
764 06-12-2011 08:17:02 3.3 C 4.43 g/m*3 3.3 C 0 km/h
765 06-12-2011 08:29:02 2.6 C 4.34 g/m*3 2.6 C 0 km/h
766 06-12-2011 08:41:01 2.7 C 4.49 g/m*3 2.7 C 0 km/h
767 06-12-2011 08:53:02 2.4 C 4.51 g/m*3 2.4 C 0 km/h
768 06-12-2011 09:05:02 3.7 C 4.74 g/m*3 3.7 C 0 km/h
769 06-12-2011 09:17:02 4.1 C 4.48 g/m*3 4.1 C 0 km/h
770 06-12-2011 09:29:02 4.3 C 4.41 g/m*3 4.3 C 0 km/h
771 06-12-2011 09:41:03 4.5 C 4.47 g/m*3 4.5 C 0 km/h
772 06-12-2011 09:53:02 4.6 C 4.43 g/m*3 4.6 C 0 km/h
773 06-12-2011 10:05:01 4.7 C 4.4 g/m*3 4.7 C 0 km/h
774 06-12-2011 10:17:01 4.9 C 4.46 g/m*3 4.9 C 0 km/h
775 06-12-2011 10:29:02 5 C 4.42 g/m*3 5 C 0 km/h
Sensor: Nr:Datum:Temp:Abs-Feuchte:Windchill:Wind:
Aussen-T/F 776 06-12-2011 10:41:01 4.7 C 4.4 g/m*3 4.7 C 0 km/h
777 06-12-2011 10:53:02 4.7 C 4.4 g/m*3 4.7 C 0 km/h
778 06-12-2011 11:05:02 5 C 4.42 g/m*3 5 C 0 km/h
779 06-12-2011 11:17:02 5.3 C 4.44 g/m*3 5.3 C 0 km/h
780 06-12-2011 11:29:02 5.3 C 4.44 g/m*3 5.3 C 0 km/h
781 06-12-2011 11:41:03 5.3 C 4.44 g/m*3 5.3 C 0 km/h
782 06-12-2011 11:53:02 5.6 C 4.45 g/m*3 5.6 C 0 km/h
783 06-12-2011 12:05:02 5.4 C 4.4 g/m*3 5.4 C 0 km/h
784 06-12-2011 12:17:01 5.5 C 4.42 g/m*3 5.5 C 0 km/h
785 06-12-2011 12:29:01 5.2 C 4.48 g/m*3 5.2 C 0 km/h
786 06-12-2011 12:41:02 5.4 C 4.47 g/m*3 5.4 C 0 km/h
787 06-12-2011 12:53:02 5.4 C 4.4 g/m*3 5.4 C 0 km/h
788 06-12-2011 13:05:02 6.2 C 4.27 g/m*3 6.2 C 0 km/h
789 06-12-2011 13:17:01 6.5 C 4.27 g/m*3 6.5 C 0 km/h
790 06-12-2011 13:29:01 6.3 C 4.22 g/m*3 6.3 C 0 km/h
791 06-12-2011 13:41:02 6.5 C 4.2 g/m*3 6.5 C 0 km/h
792 06-12-2011 13:53:01 6.6 C 4.23 g/m*3 6.6 C 0 km/h
793 06-12-2011 14:05:02 6.6 C 4.23 g/m*3 6.6 C 0 km/h
794 06-12-2011 14:17:02 6.5 C 4.2 g/m*3 6.5 C 0 km/h
795 06-12-2011 14:29:02 6.2 C 4.12 g/m*3 6.2 C 0 km/h
796 06-12-2011 14:41:01 6.2 C 4.27 g/m*3 6.2 C 0 km/h
797 06-12-2011 14:53:02 6.2 C 4.12 g/m*3 6.2 C 0 km/h
798 06-12-2011 15:05:01 6.2 C 4.27 g/m*3 6.2 C 0 km/h
799 06-12-2011 15:17:02 5.9 C 4.33 g/m*3 5.9 C 0 km/h
800 06-12-2011 15:29:03 5.9 C 4.33 g/m*3 5.9 C 0 km/h
Sensor: Nr:Datum:Temp:Abs-Feuchte:Windchill:Wind:
Aussen-T/F 801 06-12-2011 15:41:01 6.2 C 4.27 g/m*3 6.2 C 0 km/h
802 06-12-2011 15:53:02 6.1 C 4.24 g/m*3 6.1 C 0 km/h
803 06-12-2011 16:05:02 5.7 C 4.2 g/m*3 5.7 C 0 km/h
804 06-12-2011 16:17:02 5.2 C 4.06 g/m*3 5.2 C 0 km/h
805 06-12-2011 16:29:02 4.9 C 4.12 g/m*3 4.9 C 0 km/h
806 06-12-2011 16:41:02 4.6 C 4.23 g/m*3 4.6 C 0 km/h
807 06-12-2011 16:53:02 4.9 C 4.25 g/m*3 4.9 C 0 km/h
808 06-12-2011 17:05:02 4.7 C 4.13 g/m*3 4.7 C 0 km/h
809 06-12-2011 17:17:01 4.5 C 4.14 g/m*3 4.5 C 0 km/h
810 06-12-2011 17:29:01 4.3 C 4.09 g/m*3 4.3 C 0 km/h
811 06-12-2011 17:41:02 4 C 4.2 g/m*3 4 C 0 km/h
812 06-12-2011 17:53:02 4 C 4.13 g/m*3 4 C 0 km/h
813 06-12-2011 18:05:02 3.7 C 4.18 g/m*3 3.7 C 0 km/h
814 06-12-2011 18:17:01 3.6 C 4.21 g/m*3 3.6 C 0 km/h
815 06-12-2011 18:29:01 3.5 C 4.24 g/m*3 3.5 C 0 km/h
816 06-12-2011 18:41:02 3.4 C 4.21 g/m*3 3.4 C 0 km/h
817 06-12-2011 18:53:02 3.6 C 4.33 g/m*3 3.6 C 0 km/h
818 06-12-2011 19:05:02 3.5 C 4.3 g/m*3 3.5 C 0 km/h
819 06-12-2011 19:17:02 4.2 C 4.19 g/m*3 4.2 C 0 km/h
820 06-12-2011 19:29:02 4.7 C 4.2 g/m*3 4.7 C 0 km/h
821 06-12-2011 19:41:02 4.3 C 4.09 g/m*3 4.3 C 0 km/h
822 06-12-2011 19:53:02 4.8 C 4.16 g/m*3 4.8 C 0 km/h
823 06-12-2011 20:05:02 4.8 C 4.16 g/m*3 4.8 C 0 km/h
824 06-12-2011 20:17:02 4.8 C 4.09 g/m*3 4.8 C 0 km/h
825 06-12-2011 20:29:03 4.8 C 4.02 g/m*3 4.8 C 0 km/h
Sensor: Nr:Datum:Temp:Abs-Feuchte:Windchill:Wind:
Aussen-T/F 826 06-12-2011 20:41:01 5.1 C 3.97 g/m*3 5.1 C 0 km/h
827 06-12-2011 20:53:02 4.9 C 4.05 g/m*3 4.9 C 0 km/h
828 06-12-2011 21:05:01 4.8 C 4.09 g/m*3 4.8 C 0 km/h
829 06-12-2011 21:17:01 5 C 4.01 g/m*3 5 C 0 km/h
830 06-12-2011 21:29:01 5.2 C 4.06 g/m*3 5.2 C 0 km/h
831 06-12-2011 21:41:02 4.7 C 4.06 g/m*3 4.7 C 0 km/h
832 06-12-2011 21:53:02 4.5 C 4.21 g/m*3 4.5 C 0 km/h
833 06-12-2011 22:05:02 4.3 C 4.28 g/m*3 4.3 C 0 km/h
834 06-12-2011 22:17:02 4.3 C 4.35 g/m*3 4.3 C 0 km/h
835 06-12-2011 22:29:02 4.5 C 4.4 g/m*3 4.5 C 0 km/h
836 06-12-2011 22:41:02 4.8 C 4.43 g/m*3 4.8 C 0 km/h
837 06-12-2011 22:53:01 4.7 C 4.46 g/m*3 4.7 C 0 km/h
838 06-12-2011 23:05:02 4.7 C 4.46 g/m*3 4.7 C 0 km/h
839 06-12-2011 23:17:01 4.5 C 4.54 g/m*3 4.5 C 0 km/h
840 06-12-2011 23:29:01 4.8 C 4.63 g/m*3 4.8 C 0 km/h
841 06-12-2011 23:41:01 4.6 C 4.57 g/m*3 4.6 C 0 km/h
842 06-12-2011 23:53:01 4.7 C 4.6 g/m*3 4.7 C 0 km/h
843 07-12-2011 00:05:01 5 C 4.62 g/m*3 5 C 0 km/h
844 07-12-2011 00:17:02 5.2 C 4.54 g/m*3 5.2 C 0 km/h
845 07-12-2011 00:29:02 5.1 C 4.51 g/m*3 5.1 C 0 km/h
846 07-12-2011 00:41:01 5.1 C 4.58 g/m*3 5.1 C 0 km/h
847 07-12-2011 00:53:02 5.2 C 4.61 g/m*3 5.2 C 0 km/h
848 07-12-2011 01:05:01 4.9 C 4.79 g/m*3 4.9 C 0 km/h
849 07-12-2011 01:17:02 4.9 C 4.86 g/m*3 4.9 C 0 km/h
850 07-12-2011 01:29:02 4.7 C 4.86 g/m*3 4.7 C 0 km/h
Sensor: Nr:Datum:Temp:Abs-Feuchte:Windchill:Wind:
Aussen-T/F 851 07-12-2011 01:41:01 4.5 C 4.93 g/m*3 4.5 C 0 km/h
852 07-12-2011 01:53:02 4.5 C 5 g/m*3 4.5 C 0 km/h
853 07-12-2011 02:05:02 4.4 C 5.03 g/m*3 4.4 C 0 km/h
854 07-12-2011 02:17:02 4.3 C 5.06 g/m*3 4.3 C 0 km/h
855 07-12-2011 02:29:02 4.5 C 5.13 g/m*3 4.5 C 0 km/h
856 07-12-2011 02:41:02 4.9 C 5.2 g/m*3 4.9 C 0 km/h
857 07-12-2011 02:53:01 4.8 C 5.23 g/m*3 4.8 C 0 km/h
858 07-12-2011 03:05:01 5.1 C 5.27 g/m*3 5.1 C 0 km/h
859 07-12-2011 03:17:02 5.1 C 5.2 g/m*3 5.1 C 0 km/h
860 07-12-2011 03:29:02 5.5 C 5.27 g/m*3 5.5 C 0 km/h
861 07-12-2011 03:41:01 5.7 C 5.19 g/m*3 5.7 C 0 km/h
862 07-12-2011 03:53:02 5.8 C 5.23 g/m*3 5.8 C 0 km/h
863 07-12-2011 04:05:01 5.8 C 5.23 g/m*3 5.8 C 0 km/h
864 07-12-2011 04:17:01 5.9 C 5.19 g/m*3 5.9 C 0 km/h
865 07-12-2011 04:29:01 6 C 5.15 g/m*3 6 C 0 km/h
866 07-12-2011 04:41:02 6.1 C 5.19 g/m*3 6.1 C 0 km/h
867 07-12-2011 04:53:01 6.3 C 5.26 g/m*3 6.3 C 0 km/h
868 07-12-2011 05:05:02 6.4 C 5.29 g/m*3 6.4 C 0 km/h
869 07-12-2011 05:17:01 6.5 C 5.25 g/m*3 6.5 C 0 km/h
870 07-12-2011 05:29:01 6.5 C 5.25 g/m*3 6.5 C 0 km/h
871 07-12-2011 05:41:01 6.6 C 5.28 g/m*3 6.6 C 0 km/h
872 07-12-2011 05:53:01 6.6 C 5.36 g/m*3 6.6 C 0 km/h
873 07-12-2011 06:05:02 6.6 C 5.36 g/m*3 6.6 C 0 km/h
874 07-12-2011 06:17:01 6.5 C 5.25 g/m*3 6.5 C 0 km/h
875 07-12-2011 06:29:01 6.7 C 5.32 g/m*3 6.7 C 0 km/h
Sensor: Nr:Datum:Temp:Abs-Feuchte:Windchill:Wind:
Aussen-T/F 876 07-12-2011 06:41:02 6.5 C 5.25 g/m*3 6.5 C 0 km/h
877 07-12-2011 06:53:01 6.1 C 5.41 g/m*3 6.1 C 0 km/h
878 07-12-2011 07:05:02 6 C 5.44 g/m*3 6 C 0 km/h
879 07-12-2011 07:17:01 5.5 C 5.55 g/m*3 5.5 C 0 km/h
880 07-12-2011 07:29:01 5.4 C 5.65 g/m*3 5.4 C 0 km/h
881 07-12-2011 07:41:01 5.3 C 5.75 g/m*3 5.3 C 0 km/h
882 07-12-2011 07:53:01 5.2 C 5.78 g/m*3 5.2 C 0 km/h
883 07-12-2011 08:05:01 5.1 C 5.81 g/m*3 5.1 C 0 km/h
884 07-12-2011 08:17:01 4.8 C 5.83 g/m*3 4.8 C 0 km/h
885 07-12-2011 08:29:01 4.9 C 5.94 g/m*3 4.9 C 0 km/h
886 07-12-2011 08:41:01 6.4 C 6.41 g/m*3 6.4 C 0 km/h
887 07-12-2011 08:53:01 6.4 C 6.18 g/m*3 6.4 C 0 km/h
888 07-12-2011 09:05:02 6.2 C 6.03 g/m*3 6.2 C 0 km/h
889 07-12-2011 09:17:01 6.3 C 6.14 g/m*3 6.3 C 0 km/h
890 07-12-2011 09:29:01 6.2 C 6.18 g/m*3 6.2 C 0 km/h
891 07-12-2011 09:41:01 6.4 C 6.26 g/m*3 6.4 C 0 km/h
892 07-12-2011 09:53:01 6.2 C 6.25 g/m*3 6.2 C 0 km/h
893 07-12-2011 10:05:01 6.2 C 5.88 g/m*3 6.2 C 0 km/h
894 07-12-2011 10:17:01 5.8 C 5.73 g/m*3 5.8 C 0 km/h
895 07-12-2011 10:29:01 5.8 C 5.66 g/m*3 5.8 C 0 km/h
896 07-12-2011 10:41:01 5.8 C 5.66 g/m*3 5.8 C 0 km/h
897 07-12-2011 10:53:01 6.1 C 5.63 g/m*3 6.1 C 0 km/h
898 07-12-2011 11:05:01 6.4 C 5.51 g/m*3 6.4 C 0 km/h
899 07-12-2011 11:17:02 7 C 5.35 g/m*3 7 C 0 km/h
900 07-12-2011 11:29:02 7.4 C 5.33 g/m*3 7.4 C 0 km/h
Sensor: Nr:Datum:Temp:Abs-Feuchte:Windchill:Wind:
Aussen-T/F 901 07-12-2011 11:41:01 7.6 C 5.48 g/m*3 7.6 C 0 km/h
902 07-12-2011 11:53:02 8.1 C 5.49 g/m*3 8.1 C 0 km/h
903 07-12-2011 12:05:01 8.6 C 5.5 g/m*3 8.6 C 0 km/h
904 07-12-2011 12:17:01 8.9 C 5.43 g/m*3 8.9 C 0 km/h
905 07-12-2011 12:29:01 6.2 C 4.85 g/m*3 6.2 C 0 km/h
906 07-12-2011 12:41:02 6.2 C 5 g/m*3 6.2 C 0 km/h
907 07-12-2011 12:53:01 7.6 C 5.16 g/m*3 7.6 C 0 km/h
908 07-12-2011 13:05:01 7.3 C 5.06 g/m*3 7.3 C 0 km/h
909 07-12-2011 13:17:01 6 C 5.15 g/m*3 6 C 0 km/h
910 07-12-2011 13:29:01 5.1 C 5.13 g/m*3 5.1 C 0 km/h
911 07-12-2011 13:41:02 5.8 C 5.3 g/m*3 5.8 C 0 km/h
912 07-12-2011 13:53:01 6 C 5.23 g/m*3 6 C 0 km/h
913 07-12-2011 14:05:02 5.7 C 5.19 g/m*3 5.7 C 0 km/h
914 07-12-2011 14:17:01 5.7 C 5.34 g/m*3 5.7 C 0 km/h
915 07-12-2011 14:29:01 5.8 C 5.3 g/m*3 5.8 C 0 km/h
916 07-12-2011 14:41:01 6.7 C 5.24 g/m*3 6.7 C 0 km/h
917 07-12-2011 14:53:01 6.7 C 5.09 g/m*3 6.7 C 0 km/h
918 07-12-2011 15:05:01 6.1 C 5.19 g/m*3 6.1 C 0 km/h
919 07-12-2011 15:17:02 6.6 C 5.21 g/m*3 6.6 C 0 km/h
920 07-12-2011 15:29:02 7 C 4.88 g/m*3 7 C 0 km/h
921 07-12-2011 15:41:01 4.8 C 4.56 g/m*3 4.8 C 0 km/h
922 07-12-2011 15:53:02 4 C 4.77 g/m*3 4 C 0 km/h
923 07-12-2011 16:05:01 3.7 C 4.92 g/m*3 3.7 C 0 km/h
924 07-12-2011 16:17:02 3.8 C 5.08 g/m*3 3.8 C 0 km/h
925 07-12-2011 16:29:02 6.5 C 5.25 g/m*3 6.5 C 0 km/h
Sensor: Nr:Datum:Temp:Abs-Feuchte:Windchill:Wind:
Aussen-T/F 926 07-12-2011 16:41:01 6.9 C 4.08 g/m*3 6.9 C 0 km/h
927 07-12-2011 16:53:02 4.6 C 4.57 g/m*3 4.6 C 0 km/h
928 07-12-2011 17:05:01 3.6 C 4.58 g/m*3 3.6 C 0 km/h
929 07-12-2011 17:17:01 4.7 C 4.93 g/m*3 4.7 C 0 km/h
930 07-12-2011 17:29:01 5.9 C 4.18 g/m*3 5.9 C 0 km/h
931 07-12-2011 17:41:02 6.9 C 3.62 g/m*3 6.9 C 0 km/h
932 07-12-2011 17:53:01 6.3 C 3.63 g/m*3 6.3 C 0 km/h
933 07-12-2011 18:05:02 5.8 C 4.01 g/m*3 5.8 C 0 km/h
934 07-12-2011 18:17:01 5.3 C 4.23 g/m*3 5.3 C 0 km/h
935 07-12-2011 18:29:01 4.6 C 4.37 g/m*3 4.6 C 0 km/h
936 07-12-2011 18:41:02 4.8 C 4.49 g/m*3 4.8 C 0 km/h
937 07-12-2011 18:53:01 4.8 C 4.43 g/m*3 4.8 C 0 km/h
938 07-12-2011 19:05:02 4.5 C 4.47 g/m*3 4.5 C 0 km/h
939 07-12-2011 19:17:01 4 C 4.51 g/m*3 4 C 0 km/h
940 07-12-2011 19:29:01 3.7 C 4.67 g/m*3 3.7 C 0 km/h
941 07-12-2011 19:41:01 3.5 C 4.67 g/m*3 3.5 C 0 km/h
942 07-12-2011 19:53:01 4.1 C 4.74 g/m*3 4.1 C 0 km/h
943 07-12-2011 20:05:01 4 C 4.64 g/m*3 4 C 0 km/h
944 07-12-2011 20:17:02 3.8 C 4.58 g/m*3 3.8 C 0 km/h
945 07-12-2011 20:29:02 4.5 C 4.67 g/m*3 4.5 C 0 km/h
946 07-12-2011 20:41:01 4.8 C 4.56 g/m*3 4.8 C 0 km/h
947 07-12-2011 20:53:02 5.4 C 4.4 g/m*3 5.4 C 0 km/h
948 07-12-2011 21:05:01 4.5 C 4.67 g/m*3 4.5 C 0 km/h
949 07-12-2011 21:17:01 4.3 C 4.74 g/m*3 4.3 C 0 km/h
950 07-12-2011 21:29:02 4.2 C 4.64 g/m*3 4.2 C 0 km/h
Sensor: Nr:Datum:Temp:Abs-Feuchte:Windchill:Wind:
Aussen-T/F 951 07-12-2011 21:41:01 4.4 C 4.44 g/m*3 4.4 C 0 km/h
952 07-12-2011 21:53:01 4.4 C 4.31 g/m*3 4.4 C 0 km/h
953 07-12-2011 22:05:01 5 C 4.01 g/m*3 5 C 0 km/h
954 07-12-2011 22:17:01 5.5 C 3.93 g/m*3 5.5 C 0 km/h
955 07-12-2011 22:29:01 5.4 C 3.91 g/m*3 5.4 C 0 km/h
956 07-12-2011 22:41:02 5.3 C 4.02 g/m*3 5.3 C 0 km/h
957 07-12-2011 22:53:01 5.4 C 3.98 g/m*3 5.4 C 0 km/h
958 07-12-2011 23:05:02 5.2 C 3.99 g/m*3 5.2 C 0 km/h
959 07-12-2011 23:17:01 5.2 C 3.99 g/m*3 5.2 C 0 km/h
960 07-12-2011 23:29:01 5.2 C 3.92 g/m*3 5.2 C 0 km/h
961 07-12-2011 23:41:02 5.6 C 3.82 g/m*3 5.6 C 0 km/h
962 07-12-2011 23:53:01 5.7 C 3.77 g/m*3 5.7 C 0 km/h
963 08-12-2011 00:05:01 5.8 C 3.65 g/m*3 5.8 C 0 km/h
964 08-12-2011 00:17:01 6.2 C 3.68 g/m*3 6.2 C 0 km/h
965 08-12-2011 00:29:01 6.2 C 3.68 g/m*3 6.2 C 0 km/h
966 08-12-2011 00:41:02 6.4 C 3.65 g/m*3 6.4 C 0 km/h
967 08-12-2011 00:53:01 6.4 C 3.65 g/m*3 6.4 C 0 km/h
968 08-12-2011 01:05:02 6.5 C 3.6 g/m*3 6.5 C 0 km/h
969 08-12-2011 01:17:01 6.5 C 3.6 g/m*3 6.5 C 0 km/h
970 08-12-2011 01:29:01 6.2 C 3.6 g/m*3 6.2 C 0 km/h
971 08-12-2011 01:41:01 6.3 C 3.55 g/m*3 6.3 C 0 km/h
972 08-12-2011 01:53:01 6 C 3.63 g/m*3 6 C 0 km/h
973 08-12-2011 02:05:01 6.1 C 3.65 g/m*3 6.1 C 0 km/h
974 08-12-2011 02:17:02 6.1 C 3.65 g/m*3 6.1 C 0 km/h
975 08-12-2011 02:29:02 6.2 C 3.68 g/m*3 6.2 C 0 km/h
Sensor: Nr:Datum:Temp:Abs-Feuchte:Windchill:Wind:
Aussen-T/F 976 08-12-2011 02:41:01 6 C 3.63 g/m*3 6 C 0 km/h
977 08-12-2011 02:54:04 5.4 C 3.7 g/m*3 5.4 C 0 km/h
978 08-12-2011 03:06:04 5.1 C 3.69 g/m*3 5.1 C 0 km/h
979 08-12-2011 03:18:04 5.1 C 3.63 g/m*3 5.1 C 0 km/h
980 08-12-2011 03:30:04 4.7 C 3.73 g/m*3 4.7 C 0 km/h
981 08-12-2011 03:42:02 4.6 C 3.77 g/m*3 4.6 C 0 km/h
982 08-12-2011 03:54:02 4.5 C 3.81 g/m*3 4.5 C 0 km/h
983 08-12-2011 04:06:02 4 C 3.81 g/m*3 4 C 0 km/h
984 08-12-2011 04:18:02 4.1 C 3.84 g/m*3 4.1 C 0 km/h
985 08-12-2011 04:30:02 3.9 C 3.85 g/m*3 3.9 C 0 km/h
986 08-12-2011 04:42:02 4.2 C 3.87 g/m*3 4.2 C 0 km/h
987 08-12-2011 04:54:02 3.7 C 3.86 g/m*3 3.7 C 0 km/h
988 08-12-2011 05:06:02 4.1 C 3.9 g/m*3 4.1 C 0 km/h
989 08-12-2011 05:18:02 3.8 C 3.95 g/m*3 3.8 C 0 km/h
990 08-12-2011 05:30:02 3.2 C 3.92 g/m*3 3.2 C 0 km/h
991 08-12-2011 05:42:01 3.1 C 3.95 g/m*3 3.1 C 0 km/h
992 08-12-2011 05:54:02 2.7 C 4.08 g/m*3 2.7 C 0 km/h
993 08-12-2011 06:06:01 2.8 C 4.05 g/m*3 2.8 C 0 km/h
994 08-12-2011 06:18:02 2.2 C 4.06 g/m*3 2.2 C 0 km/h
995 08-12-2011 06:30:02 2.5 C 4.14 g/m*3 2.5 C 0 km/h
996 08-12-2011 06:42:02 2.8 C 4.16 g/m*3 2.8 C 0 km/h
997 08-12-2011 06:54:02 2.6 C 4.05 g/m*3 2.6 C 0 km/h
998 08-12-2011 07:06:02 2.8 C 4.05 g/m*3 2.8 C 0 km/h
999 08-12-2011 07:18:02 3.1 C 4.07 g/m*3 3.1 C 0 km/h
1000 08-12-2011 07:30:02 2.9 C 4.07 g/m*3 2.9 C 0 km/h
Sensor: Nr:Datum:Temp:Abs-Feuchte:Windchill:Wind:
Aussen-T/F 1001 08-12-2011 07:42:02 2.9 C 4.13 g/m*3 2.9 C 0 km/h
1002 08-12-2011 07:54:02 2.7 C 4.02 g/m*3 2.7 C 0 km/h
1003 08-12-2011 08:06:02 2.6 C 4.05 g/m*3 2.6 C 0 km/h
1004 08-12-2011 08:18:02 2.4 C 4.05 g/m*3 2.4 C 0 km/h
1005 08-12-2011 08:30:02 2 C 4 g/m*3 2 C 0 km/h
1006 08-12-2011 08:42:02 1.7 C 4.14 g/m*3 1.7 C 0 km/h
1007 08-12-2011 08:54:01 2.9 C 4.25 g/m*3 2.9 C 0 km/h
1008 08-12-2011 09:06:01 2.9 C 4.13 g/m*3 2.9 C 0 km/h
1009 08-12-2011 09:18:02 2.9 C 4.07 g/m*3 2.9 C 0 km/h
1010 08-12-2011 09:30:02 2.6 C 4.05 g/m*3 2.6 C 0 km/h
1011 08-12-2011 09:42:01 3.1 C 4.07 g/m*3 3.1 C 0 km/h
1012 08-12-2011 09:54:03 3.6 C 4.09 g/m*3 3.6 C 0 km/h
1013 08-12-2011 10:06:02 3.7 C 4.11 g/m*3 3.7 C 0 km/h
1014 08-12-2011 10:18:02 3.9 C 4.11 g/m*3 3.9 C 0 km/h
1015 08-12-2011 10:30:02 4.1 C 4.1 g/m*3 4.1 C 0 km/h
1016 08-12-2011 10:42:02 4.4 C 4.18 g/m*3 4.4 C 0 km/h
1017 08-12-2011 10:54:02 4.6 C 4.17 g/m*3 4.6 C 0 km/h
1018 08-12-2011 11:06:01 4.8 C 4.22 g/m*3 4.8 C 0 km/h
1019 08-12-2011 11:18:02 4.7 C 4.26 g/m*3 4.7 C 0 km/h
1020 08-12-2011 11:30:02 5 C 4.35 g/m*3 5 C 0 km/h
1021 08-12-2011 11:42:02 5.1 C 4.38 g/m*3 5.1 C 0 km/h
1022 08-12-2011 11:54:02 5.3 C 4.44 g/m*3 5.3 C 0 km/h
1023 08-12-2011 12:06:03 5.6 C 4.52 g/m*3 5.6 C 0 km/h
1024 08-12-2011 12:18:02 6 C 4.5 g/m*3 6 C 0 km/h
1025 08-12-2011 12:30:02 6.3 C 4.59 g/m*3 6.3 C 0 km/h
Sensor: Nr:Datum:Temp:Abs-Feuchte:Windchill:Wind:
Aussen-T/F 1026 08-12-2011 12:42:02 6.2 C 4.56 g/m*3 6.2 C 0 km/h
1027 08-12-2011 12:54:01 6.4 C 4.69 g/m*3 6.4 C 0 km/h
1028 08-12-2011 13:06:02 6.4 C 4.69 g/m*3 6.4 C 0 km/h
1029 08-12-2011 13:18:01 6.2 C 4.78 g/m*3 6.2 C 0 km/h
1030 08-12-2011 13:30:01 6.2 C 4.78 g/m*3 6.2 C 0 km/h
1031 08-12-2011 13:42:01 6.2 C 4.78 g/m*3 6.2 C 0 km/h
1032 08-12-2011 13:54:01 6.3 C 4.89 g/m*3 6.3 C 0 km/h
1033 08-12-2011 14:06:02 6.6 C 4.91 g/m*3 6.6 C 0 km/h
1034 08-12-2011 14:18:02 6.8 C 4.97 g/m*3 6.8 C 0 km/h
1035 08-12-2011 14:30:02 6.8 C 4.97 g/m*3 6.8 C 0 km/h
1036 08-12-2011 14:42:01 6.9 C 5 g/m*3 6.9 C 0 km/h
1037 08-12-2011 14:54:02 7 C 4.88 g/m*3 7 C 0 km/h
1038 08-12-2011 15:06:01 7.1 C 4.99 g/m*3 7.1 C 0 km/h
1039 08-12-2011 15:18:02 7.2 C 4.95 g/m*3 7.2 C 0 km/h
1040 08-12-2011 15:30:02 7.3 C 4.98 g/m*3 7.3 C 0 km/h
1041 08-12-2011 15:42:01 7.2 C 4.95 g/m*3 7.2 C 0 km/h
1042 08-12-2011 15:54:02 7.4 C 5.01 g/m*3 7.4 C 0 km/h
1043 08-12-2011 16:06:02 7 C 4.88 g/m*3 7 C 0 km/h
1044 08-12-2011 16:18:02 7.5 C 4.96 g/m*3 7.5 C 0 km/h
1045 08-12-2011 16:30:02 7.6 C 4.91 g/m*3 7.6 C 0 km/h
1046 08-12-2011 16:42:02 7.5 C 4.88 g/m*3 7.5 C 0 km/h
1047 08-12-2011 16:54:01 7.8 C 4.98 g/m*3 7.8 C 0 km/h
1048 08-12-2011 17:06:02 7.4 C 4.93 g/m*3 7.4 C 0 km/h
1049 08-12-2011 17:18:01 7.6 C 4.99 g/m*3 7.6 C 0 km/h
1050 08-12-2011 17:30:01 8 C 5.04 g/m*3 8 C 0 km/h
Sensor: Nr:Datum:Temp:Abs-Feuchte:Windchill:Wind:
Aussen-T/F 1051 08-12-2011 17:42:02 8.1 C 4.99 g/m*3 8.1 C 0 km/h
1052 08-12-2011 17:54:02 8.2 C 5.02 g/m*3 8.2 C 0 km/h
1053 08-12-2011 18:06:02 8.6 C 5.16 g/m*3 8.6 C 0 km/h
1054 08-12-2011 18:18:02 8.5 C 5.12 g/m*3 8.5 C 0 km/h
1055 08-12-2011 18:30:02 8.6 C 5.16 g/m*3 8.6 C 0 km/h
1056 08-12-2011 18:42:02 8.7 C 5.19 g/m*3 8.7 C 0 km/h
1057 08-12-2011 18:54:02 8.9 C 5.34 g/m*3 8.9 C 0 km/h
1058 08-12-2011 19:06:02 8.9 C 5.34 g/m*3 8.9 C 0 km/h
1059 08-12-2011 19:18:02 9.2 C 5.45 g/m*3 9.2 C 0 km/h
1060 08-12-2011 19:30:02 9.2 C 5.45 g/m*3 9.2 C 0 km/h
1061 08-12-2011 19:42:02 9.4 C 5.43 g/m*3 9.4 C 0 km/h
1062 08-12-2011 19:54:02 9.4 C 5.52 g/m*3 9.4 C 0 km/h
1063 08-12-2011 20:06:02 9.3 C 5.48 g/m*3 9.3 C 0 km/h
1064 08-12-2011 20:18:03 9.4 C 5.52 g/m*3 9.4 C 0 km/h
1065 08-12-2011 20:30:03 9.6 C 5.59 g/m*3 9.6 C 0 km/h
1066 08-12-2011 20:42:02 9.6 C 5.59 g/m*3 9.6 C 0 km/h
1067 08-12-2011 20:54:02 9.6 C 5.68 g/m*3 9.6 C 0 km/h
1068 08-12-2011 21:06:02 9.5 C 5.73 g/m*3 9.5 C 0 km/h
1069 08-12-2011 21:18:02 9.5 C 5.83 g/m*3 9.5 C 0 km/h
1070 08-12-2011 21:30:03 9.6 C 5.86 g/m*3 9.6 C 0 km/h
1071 08-12-2011 21:42:02 9.6 C 5.86 g/m*3 9.6 C 0 km/h
1072 08-12-2011 21:54:02 9.9 C 5.88 g/m*3 9.9 C 0 km/h
1073 08-12-2011 22:06:01 10 C 5.83 g/m*3 10 C 0 km/h
1074 08-12-2011 22:18:02 10 C 5.92 g/m*3 10 C 0 km/h
1075 08-12-2011 22:30:02 10.1 C 5.86 g/m*3 10.1 C 0 km/h
Sensor: Nr:Datum:Temp:Abs-Feuchte:Windchill:Wind:
Aussen-T/F 1076 08-12-2011 22:42:02 10 C 5.92 g/m*3 10 C 0 km/h
1077 08-12-2011 22:54:01 10.1 C 5.96 g/m*3 10.1 C 0 km/h
1078 08-12-2011 23:06:02 10.2 C 6 g/m*3 10.2 C 0 km/h
1079 08-12-2011 23:18:01 10.3 C 6.03 g/m*3 10.3 C 0 km/h
1080 08-12-2011 23:30:01 10.3 C 6.13 g/m*3 10.3 C 0 km/h
1081 08-12-2011 23:42:02 9.6 C 6.32 g/m*3 9.6 C 0 km/h
1082 08-12-2011 23:54:02 9.7 C 6.45 g/m*3 9.7 C 0 km/h
1083 09-12-2011 00:06:02 10 C 6.39 g/m*3 10 C 0 km/h
1084 09-12-2011 00:18:01 10 C 6.3 g/m*3 10 C 0 km/h
1085 09-12-2011 00:30:01 10.1 C 6.34 g/m*3 10.1 C 0 km/h
1086 09-12-2011 00:42:02 10.3 C 6.42 g/m*3 10.3 C 0 km/h
1087 09-12-2011 00:54:01 10.3 C 6.32 g/m*3 10.3 C 0 km/h
1088 09-12-2011 01:06:02 9.8 C 6.49 g/m*3 9.8 C 0 km/h
1089 09-12-2011 01:18:02 9.7 C 6.64 g/m*3 9.7 C 0 km/h
1090 09-12-2011 01:30:02 9.8 C 6.77 g/m*3 9.8 C 0 km/h
1091 09-12-2011 01:42:02 9.8 C 6.68 g/m*3 9.8 C 0 km/h
1092 09-12-2011 01:54:02 9.9 C 6.72 g/m*3 9.9 C 0 km/h
1093 09-12-2011 02:06:01 10 C 6.67 g/m*3 10 C 0 km/h
1094 09-12-2011 02:18:02 10.2 C 6.66 g/m*3 10.2 C 0 km/h
1095 09-12-2011 02:30:02 10.2 C 6.66 g/m*3 10.2 C 0 km/h
1096 09-12-2011 02:42:01 10.4 C 6.65 g/m*3 10.4 C 0 km/h
1097 09-12-2011 02:55:03 10.2 C 6.66 g/m*3 10.2 C 0 km/h
1098 09-12-2011 03:07:03 10 C 6.77 g/m*3 10 C 0 km/h
1099 09-12-2011 03:19:03 10.1 C 6.71 g/m*3 10.1 C 0 km/h
1100 09-12-2011 03:31:02 10.6 C 6.83 g/m*3 10.6 C 0 km/h
Sensor: Nr:Datum:Temp:Abs-Feuchte:Windchill:Wind:
Aussen-T/F 1101 09-12-2011 03:43:02 10.7 C 6.68 g/m*3 10.7 C 0 km/h
1102 09-12-2011 03:55:02 10.4 C 6.65 g/m*3 10.4 C 0 km/h
1103 09-12-2011 04:07:02 10.3 C 6.9 g/m*3 10.3 C 0 km/h
1104 09-12-2011 04:19:02 10.2 C 6.95 g/m*3 10.2 C 0 km/h
1105 09-12-2011 04:31:01 10.4 C 6.84 g/m*3 10.4 C 0 km/h
1106 09-12-2011 04:43:01 10.4 C 6.94 g/m*3 10.4 C 0 km/h
1107 09-12-2011 04:55:02 10.5 C 6.98 g/m*3 10.5 C 0 km/h
1108 09-12-2011 05:07:01 10.2 C 7.04 g/m*3 10.2 C 0 km/h
1109 09-12-2011 05:19:02 10.1 C 7.09 g/m*3 10.1 C 0 km/h
1110 09-12-2011 05:31:02 10 C 7.14 g/m*3 10 C 0 km/h
1111 09-12-2011 05:43:02 9.7 C 7.28 g/m*3 9.7 C 0 km/h
1112 09-12-2011 05:55:02 8.7 C 6.92 g/m*3 8.7 C 0 km/h
1113 09-12-2011 06:07:02 8.5 C 6.83 g/m*3 8.5 C 0 km/h
1114 09-12-2011 06:19:02 7.8 C 6.45 g/m*3 7.8 C 0 km/h
1115 09-12-2011 06:31:02 7.1 C 5.85 g/m*3 7.1 C 0 km/h
1116 09-12-2011 06:43:02 6.7 C 5.77 g/m*3 6.7 C 0 km/h
1117 09-12-2011 06:55:01 6.4 C 5.74 g/m*3 6.4 C 0 km/h
1118 09-12-2011 07:07:02 6.2 C 5.96 g/m*3 6.2 C 0 km/h
1119 09-12-2011 07:19:01 6.2 C 6.1 g/m*3 6.2 C 0 km/h
1120 09-12-2011 07:31:01 6.2 C 6.1 g/m*3 6.2 C 0 km/h
1121 09-12-2011 07:43:01 6.2 C 5.88 g/m*3 6.2 C 0 km/h
1122 09-12-2011 07:55:02 6.3 C 5.26 g/m*3 6.3 C 0 km/h
1123 09-12-2011 08:07:02 6 C 5.01 g/m*3 6 C 0 km/h
1124 09-12-2011 08:19:03 6 C 4.94 g/m*3 6 C 0 km/h
1125 09-12-2011 08:31:02 6.1 C 4.75 g/m*3 6.1 C 0 km/h
Sensor: Nr:Datum:Temp:Abs-Feuchte:Windchill:Wind:
Aussen-T/F 1126 09-12-2011 08:43:02 6 C 4.72 g/m*3 6 C 0 km/h
1127 09-12-2011 08:55:03 5.6 C 4.81 g/m*3 5.6 C 0 km/h
1128 09-12-2011 09:07:02 5.4 C 4.95 g/m*3 5.4 C 0 km/h
1129 09-12-2011 09:19:02 5.6 C 4.95 g/m*3 5.6 C 0 km/h
1130 09-12-2011 09:31:02 5.5 C 4.71 g/m*3 5.5 C 0 km/h
1131 09-12-2011 09:43:02 5.6 C 4.67 g/m*3 5.6 C 0 km/h
1132 09-12-2011 09:55:02 5.3 C 4.71 g/m*3 5.3 C 0 km/h
1133 09-12-2011 10:07:01 5.5 C 4.78 g/m*3 5.5 C 0 km/h
1134 09-12-2011 10:19:02 5.4 C 4.74 g/m*3 5.4 C 0 km/h
1135 09-12-2011 10:31:02 5.3 C 4.78 g/m*3 5.3 C 0 km/h
1136 09-12-2011 10:43:02 5.4 C 4.81 g/m*3 5.4 C 0 km/h
1137 09-12-2011 10:55:02 5.2 C 4.82 g/m*3 5.2 C 0 km/h
1138 09-12-2011 11:07:02 5.3 C 4.85 g/m*3 5.3 C 0 km/h
1139 09-12-2011 11:19:02 5.8 C 4.87 g/m*3 5.8 C 0 km/h
1140 09-12-2011 11:31:02 5.7 C 4.84 g/m*3 5.7 C 0 km/h
1141 09-12-2011 11:43:03 5.7 C 4.98 g/m*3 5.7 C 0 km/h
1142 09-12-2011 11:55:02 5.8 C 4.94 g/m*3 5.8 C 0 km/h
1143 09-12-2011 12:07:02 5.6 C 4.81 g/m*3 5.6 C 0 km/h
1144 09-12-2011 12:19:02 5.5 C 4.92 g/m*3 5.5 C 0 km/h
1145 09-12-2011 12:31:02 5.9 C 4.76 g/m*3 5.9 C 0 km/h
1146 09-12-2011 12:43:02 6.4 C 3.95 g/m*3 6.4 C 0 km/h
1147 09-12-2011 12:55:02 6.3 C 3.63 g/m*3 6.3 C 0 km/h
1148 09-12-2011 13:07:02 6.2 C 3.38 g/m*3 6.2 C 0 km/h
1149 09-12-2011 13:19:03 6.3 C 3.48 g/m*3 6.3 C 0 km/h
1150 09-12-2011 13:31:02 5.7 C 3.56 g/m*3 5.7 C 0 km/h
Sensor: Nr:Datum:Temp:Abs-Feuchte:Windchill:Wind:
Aussen-T/F 1151 09-12-2011 13:43:02 5.7 C 3.63 g/m*3 5.7 C 0 km/h
1152 09-12-2011 13:55:02 5.8 C 3.8 g/m*3 5.8 C 0 km/h
1153 09-12-2011 14:07:02 5.6 C 3.82 g/m*3 5.6 C 0 km/h
1154 09-12-2011 14:19:02 6 C 3.85 g/m*3 6 C 0 km/h
1155 09-12-2011 14:31:02 6.2 C 3.82 g/m*3 6.2 C 0 km/h
1156 09-12-2011 14:43:02 5.8 C 4.01 g/m*3 5.8 C 0 km/h
1157 09-12-2011 14:55:02 5.9 C 4.04 g/m*3 5.9 C 0 km/h
1158 09-12-2011 15:07:01 5.8 C 4.08 g/m*3 5.8 C 0 km/h
1159 09-12-2011 15:19:02 5.7 C 4.13 g/m*3 5.7 C 0 km/h
1160 09-12-2011 15:31:02 5.4 C 4.12 g/m*3 5.4 C 0 km/h
1161 09-12-2011 15:43:02 5.2 C 4.13 g/m*3 5.2 C 0 km/h
1162 09-12-2011 15:55:02 5.4 C 4.26 g/m*3 5.4 C 0 km/h
1163 09-12-2011 16:07:03 4.5 C 4.27 g/m*3 4.5 C 0 km/h
1164 09-12-2011 16:19:02 4.5 C 4.27 g/m*3 4.5 C 0 km/h
1165 09-12-2011 16:31:02 4.5 C 4.34 g/m*3 4.5 C 0 km/h
1166 09-12-2011 16:43:02 3.8 C 4.2 g/m*3 3.8 C 0 km/h
1167 09-12-2011 16:55:01 3.5 C 4.37 g/m*3 3.5 C 0 km/h
1168 09-12-2011 17:07:02 3 C 4.34 g/m*3 3 C 0 km/h
1169 09-12-2011 17:19:01 3.2 C 4.46 g/m*3 3.2 C 0 km/h
1170 09-12-2011 17:31:01 3 C 4.4 g/m*3 3 C 0 km/h
1171 09-12-2011 17:43:01 3.4 C 4.52 g/m*3 3.4 C 0 km/h
1172 09-12-2011 17:55:01 3.9 C 4.48 g/m*3 3.9 C 0 km/h
1173 09-12-2011 18:07:01 2.5 C 4.2 g/m*3 2.5 C 0 km/h
1174 09-12-2011 18:19:02 2.1 C 4.36 g/m*3 2.1 C 0 km/h
1175 09-12-2011 18:31:01 2 C 4.5 g/m*3 2 C 0 km/h
Sensor: Nr:Datum:Temp:Abs-Feuchte:Windchill:Wind:
Aussen-T/F 1176 09-12-2011 18:43:01 3.4 C 4.7 g/m*3 3.4 C 0 km/h
1177 09-12-2011 18:55:02 3 C 4.28 g/m*3 3 C 0 km/h
1178 09-12-2011 19:07:01 2.1 C 4.2 g/m*3 2.1 C 0 km/h
1179 09-12-2011 19:19:01 2.4 C 4.4 g/m*3 2.4 C 0 km/h
1180 09-12-2011 19:31:02 2.7 C 4.31 g/m*3 2.7 C 0 km/h
1181 09-12-2011 19:43:02 2.2 C 4.17 g/m*3 2.2 C 0 km/h
1182 09-12-2011 19:55:02 2.3 C 4.42 g/m*3 2.3 C 0 km/h
1183 09-12-2011 20:07:01 2.4 C 4.45 g/m*3 2.4 C 0 km/h
1184 09-12-2011 20:19:02 2.4 C 4.45 g/m*3 2.4 C 0 km/h
1185 09-12-2011 20:31:02 2.9 C 4.78 g/m*3 2.9 C 0 km/h
1186 09-12-2011 20:43:02 2.5 C 4.66 g/m*3 2.5 C 0 km/h
1187 09-12-2011 20:55:01 2.5 C 4.71 g/m*3 2.5 C 0 km/h
1188 09-12-2011 21:07:02 1.9 C 4.58 g/m*3 1.9 C 0 km/h
1189 09-12-2011 21:19:01 2.7 C 4.89 g/m*3 2.7 C 0 km/h
1190 09-12-2011 21:31:01 2.6 C 4.8 g/m*3 2.6 C 0 km/h
1191 09-12-2011 21:43:01 2.6 C 4.86 g/m*3 2.6 C 0 km/h
1192 09-12-2011 21:55:01 2.1 C 4.7 g/m*3 2.1 C 0 km/h
1193 09-12-2011 22:07:02 2.6 C 4.98 g/m*3 2.6 C 0 km/h
1194 09-12-2011 22:19:01 2.5 C 4.89 g/m*3 2.5 C 0 km/h
1195 09-12-2011 22:31:01 3.1 C 5.09 g/m*3 3.1 C 0 km/h
1196 09-12-2011 22:43:01 3.1 C 5.09 g/m*3 3.1 C 0 km/h
1197 09-12-2011 22:55:01 2.7 C 4.95 g/m*3 2.7 C 0 km/h
1198 09-12-2011 23:07:02 2.3 C 4.88 g/m*3 2.3 C 0 km/h
1199 09-12-2011 23:19:02 2.3 C 4.93 g/m*3 2.3 C 0 km/h
1200 09-12-2011 23:31:01 2.5 C 5 g/m*3 2.5 C 0 km/h
Sensor: Nr:Datum:Temp:Abs-Feuchte:Windchill:Wind:
Aussen-T/F 1201 09-12-2011 23:43:01 2.3 C 4.99 g/m*3 2.3 C 0 km/h
1202 09-12-2011 23:55:02 4.3 C 5.64 g/m*3 4.3 C 0 km/h
1203 10-12-2011 00:07:01 4.5 C 5.39 g/m*3 4.5 C 0 km/h
1204 10-12-2011 00:19:01 4.5 C 5.13 g/m*3 4.5 C 0 km/h
1205 10-12-2011 00:31:02 4.4 C 5.03 g/m*3 4.4 C 0 km/h
1206 10-12-2011 00:43:02 4.5 C 5 g/m*3 4.5 C 0 km/h
1207 10-12-2011 00:55:02 4.6 C 4.96 g/m*3 4.6 C 0 km/h
1208 10-12-2011 01:07:02 4.3 C 4.93 g/m*3 4.3 C 0 km/h
1209 10-12-2011 01:19:01 4.6 C 5.1 g/m*3 4.6 C 0 km/h
1210 10-12-2011 01:31:02 4.7 C 5.13 g/m*3 4.7 C 0 km/h
1211 10-12-2011 01:43:02 4.8 C 5.16 g/m*3 4.8 C 0 km/h
1212 10-12-2011 01:55:01 4.5 C 5.19 g/m*3 4.5 C 0 km/h
1213 10-12-2011 02:07:02 4.6 C 5.1 g/m*3 4.6 C 0 km/h
1214 10-12-2011 02:19:02 4.5 C 4.93 g/m*3 4.5 C 0 km/h
1215 10-12-2011 02:31:01 4.5 C 4.86 g/m*3 4.5 C 0 km/h
1216 10-12-2011 02:43:01 4 C 4.77 g/m*3 4 C 0 km/h
1217 10-12-2011 02:56:03 3.7 C 4.74 g/m*3 3.7 C 0 km/h
1218 10-12-2011 03:08:03 3.4 C 4.7 g/m*3 3.4 C 0 km/h
1219 10-12-2011 03:20:03 3.1 C 4.73 g/m*3 3.1 C 0 km/h
1220 10-12-2011 03:32:02 3.4 C 4.89 g/m*3 3.4 C 0 km/h
1221 10-12-2011 03:44:02 2.6 C 4.69 g/m*3 2.6 C 0 km/h
1222 10-12-2011 03:56:02 2.3 C 4.71 g/m*3 2.3 C 0 km/h
1223 10-12-2011 04:08:02 2.6 C 4.86 g/m*3 2.6 C 0 km/h
1224 10-12-2011 04:20:02 2.5 C 4.77 g/m*3 2.5 C 0 km/h
1225 10-12-2011 04:32:02 2.1 C 4.64 g/m*3 2.1 C 0 km/h
Sensor: Nr:Datum:Temp:Abs-Feuchte:Windchill:Wind:
Aussen-T/F 1226 10-12-2011 04:44:02 1.5 C 4.51 g/m*3 1.5 C 0 km/h
1227 10-12-2011 04:56:02 2 C 4.72 g/m*3 2 C 0 km/h
1228 10-12-2011 05:08:02 2.1 C 4.76 g/m*3 2.1 C 0 km/h
1229 10-12-2011 05:20:02 2 C 4.72 g/m*3 2 C 0 km/h
1230 10-12-2011 05:32:01 1.3 C 4.5 g/m*3 1.3 C 0 km/h
1231 10-12-2011 05:44:01 1.6 C 4.7 g/m*3 1.6 C 0 km/h
1232 10-12-2011 05:56:02 1.9 C 4.8 g/m*3 1.9 C 0 km/h
1233 10-12-2011 06:08:01 1.5 C 4.62 g/m*3 1.5 C 0 km/h
1234 10-12-2011 06:20:01 1.5 C 4.67 g/m*3 1.5 C 0 km/h
1235 10-12-2011 06:32:02 1.5 C 4.67 g/m*3 1.5 C 0 km/h
1236 10-12-2011 06:44:02 1.5 C 4.62 g/m*3 1.5 C 0 km/h
1237 10-12-2011 06:56:02 0.4 C 4.28 g/m*3 0.4 C 0 km/h
1238 10-12-2011 07:08:02 0.3 C 4.3 g/m*3 0.3 C 0 km/h
1239 10-12-2011 07:20:02 0.6 C 4.44 g/m*3 0.6 C 0 km/h
1240 10-12-2011 07:32:02 0.4 C 4.43 g/m*3 0.4 C 0 km/h
1241 10-12-2011 07:44:02 0.5 C 4.46 g/m*3 0.5 C 0 km/h
1242 10-12-2011 07:56:02 0.5 C 4.46 g/m*3 0.5 C 0 km/h
1243 10-12-2011 08:08:02 0.6 C 4.49 g/m*3 0.6 C 0 km/h
1244 10-12-2011 08:20:02 0.3 C 4.35 g/m*3 0.3 C 0 km/h
1245 10-12-2011 08:32:02 0.2 C 4.32 g/m*3 0.2 C 0 km/h
1246 10-12-2011 08:44:02 0.3 C 4.4 g/m*3 0.3 C 0 km/h
1247 10-12-2011 08:56:02 0.3 C 4.35 g/m*3 0.3 C 0 km/h
1248 10-12-2011 09:08:02 0.6 C 4.49 g/m*3 0.6 C 0 km/h
1249 10-12-2011 09:20:02 1.7 C 4.79 g/m*3 1.7 C 0 km/h
1250 10-12-2011 09:32:02 1.8 C 4.6 g/m*3 1.8 C 0 km/h
Sensor: Nr:Datum:Temp:Abs-Feuchte:Windchill:Wind:
Aussen-T/F 1251 10-12-2011 09:44:02 1.4 C 4.43 g/m*3 1.4 C 0 km/h
1252 10-12-2011 09:56:02 1.4 C 4.43 g/m*3 1.4 C 0 km/h
1253 10-12-2011 10:08:02 2.3 C 4.54 g/m*3 2.3 C 0 km/h
1254 10-12-2011 10:20:02 2.4 C 4.4 g/m*3 2.4 C 0 km/h
1255 10-12-2011 10:32:01 2.4 C 4.34 g/m*3 2.4 C 0 km/h
1256 10-12-2011 10:44:01 2.3 C 4.31 g/m*3 2.3 C 0 km/h
1257 10-12-2011 10:56:02 2.4 C 4.23 g/m*3 2.4 C 0 km/h
1258 10-12-2011 11:08:01 2.2 C 4.17 g/m*3 2.2 C 0 km/h
1259 10-12-2011 11:20:01 2.9 C 4.19 g/m*3 2.9 C 0 km/h
1260 10-12-2011 11:32:02 2.7 C 4.14 g/m*3 2.7 C 0 km/h
1261 10-12-2011 11:44:02 3.1 C 4.19 g/m*3 3.1 C 0 km/h
1262 10-12-2011 11:56:02 3.2 C 4.16 g/m*3 3.2 C 0 km/h
1263 10-12-2011 12:08:02 3.4 C 4.03 g/m*3 3.4 C 0 km/h
1264 10-12-2011 12:20:02 3.5 C 4 g/m*3 3.5 C 0 km/h
1265 10-12-2011 12:32:02 3.5 C 4 g/m*3 3.5 C 0 km/h
1266 10-12-2011 12:44:03 3.5 C 3.94 g/m*3 3.5 C 0 km/h
1267 10-12-2011 12:56:02 3.6 C 3.96 g/m*3 3.6 C 0 km/h
1268 10-12-2011 13:08:02 3.5 C 3.94 g/m*3 3.5 C 0 km/h
1269 10-12-2011 13:20:02 3.5 C 4 g/m*3 3.5 C 0 km/h
1270 10-12-2011 13:32:02 3.9 C 3.98 g/m*3 3.9 C 0 km/h
1271 10-12-2011 13:44:02 3.7 C 3.68 g/m*3 3.7 C 0 km/h
1272 10-12-2011 13:56:02 3.8 C 3.58 g/m*3 3.8 C 0 km/h
1273 10-12-2011 14:08:02 3.6 C 3.84 g/m*3 3.6 C 0 km/h
1274 10-12-2011 14:20:03 3.9 C 3.79 g/m*3 3.9 C 0 km/h
1275 10-12-2011 14:32:02 4.3 C 3.5 g/m*3 4.3 C 0 km/h
Sensor: Nr:Datum:Temp:Abs-Feuchte:Windchill:Wind:
Aussen-T/F 1276 10-12-2011 14:44:02 4.2 C 3.48 g/m*3 4.2 C 0 km/h
1277 10-12-2011 14:56:03 4.4 C 3.66 g/m*3 4.4 C 0 km/h
1278 10-12-2011 15:08:02 5 C 3.47 g/m*3 5 C 0 km/h
1279 10-12-2011 15:20:02 5 C 3.47 g/m*3 5 C 0 km/h
1280 10-12-2011 15:32:02 5.1 C 3.42 g/m*3 5.1 C 0 km/h
1281 10-12-2011 15:44:02 5 C 3.4 g/m*3 5 C 0 km/h
1282 10-12-2011 15:56:02 4.9 C 3.38 g/m*3 4.9 C 0 km/h
1283 10-12-2011 16:08:02 4.3 C 3.31 g/m*3 4.3 C 0 km/h
1284 10-12-2011 16:20:02 3.5 C 3.44 g/m*3 3.5 C 0 km/h
1285 10-12-2011 16:32:02 3.2 C 3.5 g/m*3 3.2 C 0 km/h
1286 10-12-2011 16:44:02 3.4 C 3.48 g/m*3 3.4 C 0 km/h
1287 10-12-2011 16:56:02 2.3 C 3.46 g/m*3 2.3 C 0 km/h
1288 10-12-2011 17:08:02 2.2 C 3.66 g/m*3 2.2 C 0 km/h
1289 10-12-2011 17:20:01 1.6 C 3.73 g/m*3 1.6 C 0 km/h
1290 10-12-2011 17:32:02 0.9 C 3.81 g/m*3 0.9 C 0 km/h
1291 10-12-2011 17:44:02 0.6 C 3.84 g/m*3 0.6 C 0 km/h
1292 10-12-2011 17:56:02 0.4 C 3.88 g/m*3 0.4 C 0 km/h
1293 10-12-2011 18:08:02 0.3 C 3.91 g/m*3 0.3 C 0 km/h
1294 10-12-2011 18:20:01 0 C 3.88 g/m*3 0 C 0 km/h
1295 10-12-2011 18:32:02 -0.1 C 3.9 g/m*3 -0.1 C 0 km/h
1296 10-12-2011 18:44:02 0 C 3.97 g/m*3 0 C 0 km/h
1297 10-12-2011 18:56:02 -0.2 C 3.92 g/m*3 -0.2 C 0 km/h
1298 10-12-2011 19:08:02 0 C 3.97 g/m*3 0 C 0 km/h
1299 10-12-2011 19:20:02 0.1 C 4 g/m*3 0.1 C 0 km/h
1300 10-12-2011 19:32:02 0.2 C 3.98 g/m*3 0.2 C 0 km/h
Sensor: Nr:Datum:Temp:Abs-Feuchte:Windchill:Wind:
Aussen-T/F 1301 10-12-2011 19:44:02 0.3 C 3.91 g/m*3 0.3 C 0 km/h
1302 10-12-2011 19:56:01 -0.4 C 3.72 g/m*3 -0.4 C 0 km/h
1303 10-12-2011 20:08:02 -0.4 C 3.82 g/m*3 -0.4 C 0 km/h
1304 10-12-2011 20:20:02 -0.6 C 3.81 g/m*3 -0.6 C 0 km/h
1305 10-12-2011 20:32:02 -0.8 C 3.8 g/m*3 -0.8 C 0 km/h
1306 10-12-2011 20:44:02 -0.5 C 3.88 g/m*3 -0.5 C 0 km/h
1307 10-12-2011 20:56:02 -0.5 C 3.88 g/m*3 -0.5 C 0 km/h
1308 10-12-2011 21:08:01 -0.7 C 3.88 g/m*3 -0.7 C 0 km/h
1309 10-12-2011 21:20:02 -0.6 C 3.9 g/m*3 -0.6 C 0 km/h
1310 10-12-2011 21:32:02 -0.6 C 3.9 g/m*3 -0.6 C 0 km/h
1311 10-12-2011 21:44:02 -0.6 C 3.86 g/m*3 -0.6 C 0 km/h
1312 10-12-2011 21:56:01 -0.4 C 3.86 g/m*3 -0.4 C 0 km/h
1313 10-12-2011 22:08:02 -1 C 3.66 g/m*3 -1 C 0 km/h
1314 10-12-2011 22:20:01 -1.1 C 3.68 g/m*3 -1.1 C 0 km/h
1315 10-12-2011 22:32:02 -1.9 C 3.52 g/m*3 -1.9 C 0 km/h
1316 10-12-2011 22:44:02 -1.1 C 3.77 g/m*3 -1.1 C 0 km/h
1317 10-12-2011 22:56:02 -1.5 C 3.71 g/m*3 -1.5 C 0 km/h
1318 10-12-2011 23:08:02 -1.5 C 3.71 g/m*3 -1.5 C 0 km/h
1319 10-12-2011 23:20:01 -2 C 3.58 g/m*3 -2 C 0 km/h
1320 10-12-2011 23:32:02 -1.6 C 3.73 g/m*3 -1.6 C 0 km/h
1321 10-12-2011 23:44:02 -2.3 C 3.55 g/m*3 -2.3 C 0 km/h
1322 10-12-2011 23:56:02 -2.3 C 3.55 g/m*3 -2.3 C 0 km/h
1323 11-12-2011 00:08:02 -2.4 C 3.52 g/m*3 -2.4 C 0 km/h
1324 11-12-2011 00:20:02 -2.5 C 3.54 g/m*3 -2.5 C 0 km/h
1325 11-12-2011 00:32:02 -2 C 3.71 g/m*3 -2 C 0 km/h
Sensor: Nr:Datum:Temp:Abs-Feuchte:Windchill:Wind:
Aussen-T/F 1326 11-12-2011 00:44:02 -1.8 C 3.76 g/m*3 -1.8 C 0 km/h
1327 11-12-2011 00:56:02 -2.3 C 3.63 g/m*3 -2.3 C 0 km/h
1328 11-12-2011 01:08:02 -2.5 C 3.58 g/m*3 -2.5 C 0 km/h
1329 11-12-2011 01:20:02 -2.7 C 3.53 g/m*3 -2.7 C 0 km/h
1330 11-12-2011 01:32:02 -2.3 C 3.63 g/m*3 -2.3 C 0 km/h
1331 11-12-2011 01:44:02 -2.6 C 3.56 g/m*3 -2.6 C 0 km/h
1332 11-12-2011 01:56:01 -2.3 C 3.67 g/m*3 -2.3 C 0 km/h
1333 11-12-2011 02:08:01 -2.7 C 3.57 g/m*3 -2.7 C 0 km/h
1334 11-12-2011 02:20:02 -3.1 C 3.43 g/m*3 -3.1 C 0 km/h
1335 11-12-2011 02:32:01 -3.4 C 3.4 g/m*3 -3.4 C 0 km/h
1336 11-12-2011 02:44:01 -3.5 C 3.37 g/m*3 -3.5 C 0 km/h
1337 11-12-2011 02:56:01 -3.4 C 3.4 g/m*3 -3.4 C 0 km/h
1338 11-12-2011 03:08:01 -3.7 C 3.33 g/m*3 -3.7 C 0 km/h
1339 11-12-2011 03:20:01 -3.1 C 3.47 g/m*3 -3.1 C 0 km/h
1340 11-12-2011 03:32:01 -2.8 C 3.55 g/m*3 -2.8 C 0 km/h
1341 11-12-2011 03:44:01 -3 C 3.5 g/m*3 -3 C 0 km/h
1342 11-12-2011 03:56:01 -2.8 C 3.59 g/m*3 -2.8 C 0 km/h
1343 11-12-2011 04:08:01 -2.2 C 3.74 g/m*3 -2.2 C 0 km/h
1344 11-12-2011 04:20:01 -1.9 C 3.86 g/m*3 -1.9 C 0 km/h
1345 11-12-2011 04:32:01 -1.8 C 3.89 g/m*3 -1.8 C 0 km/h
1346 11-12-2011 04:44:01 -1.5 C 3.97 g/m*3 -1.5 C 0 km/h
1347 11-12-2011 04:56:01 -1.3 C 4.03 g/m*3 -1.3 C 0 km/h
1348 11-12-2011 05:08:01 -1 C 4.16 g/m*3 -1 C 0 km/h
1349 11-12-2011 05:20:02 -1 C 4.16 g/m*3 -1 C 0 km/h
1350 11-12-2011 05:32:01 -0.9 C 4.19 g/m*3 -0.9 C 0 km/h
Sensor: Nr:Datum:Temp:Abs-Feuchte:Windchill:Wind:
Aussen-T/F 1351 11-12-2011 05:44:01 -1 C 4.16 g/m*3 -1 C 0 km/h
1352 11-12-2011 05:56:02 -1.4 C 4 g/m*3 -1.4 C 0 km/h
1353 11-12-2011 06:08:01 -1.5 C 3.97 g/m*3 -1.5 C 0 km/h
1354 11-12-2011 06:20:01 -1.2 C 4.06 g/m*3 -1.2 C 0 km/h
1355 11-12-2011 06:32:02 -1.6 C 3.94 g/m*3 -1.6 C 0 km/h
1356 11-12-2011 06:44:02 -1.8 C 3.89 g/m*3 -1.8 C 0 km/h
1357 11-12-2011 06:56:01 -2.6 C 3.64 g/m*3 -2.6 C 0 km/h
1358 11-12-2011 07:08:01 -2.9 C 3.56 g/m*3 -2.9 C 0 km/h
1359 11-12-2011 07:20:01 -2.4 C 3.69 g/m*3 -2.4 C 0 km/h
1360 11-12-2011 07:32:02 -2.2 C 3.74 g/m*3 -2.2 C 0 km/h
1361 11-12-2011 07:44:02 -1.9 C 3.86 g/m*3 -1.9 C 0 km/h
1362 11-12-2011 07:56:01 -2.3 C 3.76 g/m*3 -2.3 C 0 km/h
1363 11-12-2011 08:08:02 -2.7 C 3.65 g/m*3 -2.7 C 0 km/h
1364 11-12-2011 08:20:01 -2.7 C 3.65 g/m*3 -2.7 C 0 km/h
1365 11-12-2011 08:32:01 -2.8 C 3.59 g/m*3 -2.8 C 0 km/h
1366 11-12-2011 08:44:01 -2.5 C 3.7 g/m*3 -2.5 C 0 km/h
1367 11-12-2011 08:56:01 -2.2 C 3.78 g/m*3 -2.2 C 0 km/h
1368 11-12-2011 09:08:01 -2.4 C 3.73 g/m*3 -2.4 C 0 km/h
1369 11-12-2011 09:20:01 -2.4 C 3.73 g/m*3 -2.4 C 0 km/h
1370 11-12-2011 09:32:01 -2.2 C 3.78 g/m*3 -2.2 C 0 km/h
1371 11-12-2011 09:44:01 -1.9 C 3.86 g/m*3 -1.9 C 0 km/h
1372 11-12-2011 09:56:01 -1.6 C 3.94 g/m*3 -1.6 C 0 km/h
1373 11-12-2011 10:08:01 -1.6 C 3.94 g/m*3 -1.6 C 0 km/h
1374 11-12-2011 10:20:02 -1.6 C 3.94 g/m*3 -1.6 C 0 km/h
1375 11-12-2011 10:32:01 -0.6 C 4.28 g/m*3 -0.6 C 0 km/h
Sensor: Nr:Datum:Temp:Abs-Feuchte:Windchill:Wind:
Aussen-T/F 1376 11-12-2011 10:44:01 -0.6 C 4.28 g/m*3 -0.6 C 0 km/h
1377 11-12-2011 10:56:02 0.3 C 4.55 g/m*3 0.3 C 0 km/h
1378 11-12-2011 11:08:01 0.3 C 4.55 g/m*3 0.3 C 0 km/h
1379 11-12-2011 11:20:01 0.5 C 4.56 g/m*3 0.5 C 0 km/h
1380 11-12-2011 11:32:01 0.8 C 4.66 g/m*3 0.8 C 0 km/h
1381 11-12-2011 11:44:01 1.7 C 4.95 g/m*3 1.7 C 0 km/h
1382 11-12-2011 11:56:02 2.2 C 5.01 g/m*3 2.2 C 0 km/h
1383 11-12-2011 12:08:01 2.3 C 4.93 g/m*3 2.3 C 0 km/h
1384 11-12-2011 12:20:01 2.6 C 4.8 g/m*3 2.6 C 0 km/h
1385 11-12-2011 12:32:02 2.8 C 4.63 g/m*3 2.8 C 0 km/h
1386 11-12-2011 12:44:02 3 C 4.46 g/m*3 3 C 0 km/h
1387 11-12-2011 12:56:01 3 C 4.4 g/m*3 3 C 0 km/h
1388 11-12-2011 13:08:01 2.9 C 4.43 g/m*3 2.9 C 0 km/h
1389 11-12-2011 13:20:01 3 C 4.52 g/m*3 3 C 0 km/h
1390 11-12-2011 13:32:02 3.3 C 4.61 g/m*3 3.3 C 0 km/h
1391 11-12-2011 13:44:02 3.6 C 4.64 g/m*3 3.6 C 0 km/h
1392 11-12-2011 13:56:01 3.6 C 4.58 g/m*3 3.6 C 0 km/h
1393 11-12-2011 14:08:02 3.6 C 4.64 g/m*3 3.6 C 0 km/h
1394 11-12-2011 14:20:01 3.5 C 4.55 g/m*3 3.5 C 0 km/h
1395 11-12-2011 14:32:01 3.4 C 4.46 g/m*3 3.4 C 0 km/h
1396 11-12-2011 14:44:01 3 C 4.52 g/m*3 3 C 0 km/h
1397 11-12-2011 14:56:01 2.7 C 4.54 g/m*3 2.7 C 0 km/h
1398 11-12-2011 15:08:02 2.5 C 4.54 g/m*3 2.5 C 0 km/h
1399 11-12-2011 15:20:01 2.3 C 4.54 g/m*3 2.3 C 0 km/h
1400 11-12-2011 15:32:01 2.2 C 4.56 g/m*3 2.2 C 0 km/h
Sensor: Nr:Datum:Temp:Abs-Feuchte:Windchill:Wind:
Aussen-T/F 1401 11-12-2011 15:44:01 2 C 4.5 g/m*3 2 C 0 km/h
1402 11-12-2011 15:56:01 1.6 C 4.43 g/m*3 1.6 C 0 km/h
1403 11-12-2011 16:08:01 1.1 C 4.34 g/m*3 1.1 C 0 km/h
1404 11-12-2011 16:20:02 0.6 C 4.24 g/m*3 0.6 C 0 km/h
1405 11-12-2011 16:32:01 0.5 C 4.26 g/m*3 0.5 C 0 km/h
1406 11-12-2011 16:44:01 0.5 C 4.26 g/m*3 0.5 C 0 km/h
1407 11-12-2011 16:56:02 0.7 C 4.37 g/m*3 0.7 C 0 km/h
1408 11-12-2011 17:08:01 1.4 C 4.64 g/m*3 1.4 C 0 km/h
1409 11-12-2011 17:20:01 1.7 C 4.74 g/m*3 1.7 C 0 km/h
1410 11-12-2011 17:32:01 1.8 C 4.71 g/m*3 1.8 C 0 km/h
1411 11-12-2011 17:44:01 2 C 4.67 g/m*3 2 C 0 km/h
1412 11-12-2011 17:56:01 2.5 C 4.48 g/m*3 2.5 C 0 km/h
1413 11-12-2011 18:08:01 3 C 4.22 g/m*3 3 C 0 km/h
1414 11-12-2011 18:20:01 3.1 C 4.01 g/m*3 3.1 C 0 km/h
1415 11-12-2011 18:32:02 2.5 C 3.97 g/m*3 2.5 C 0 km/h
1416 11-12-2011 18:44:02 3.1 C 3.95 g/m*3 3.1 C 0 km/h
1417 11-12-2011 18:56:01 2.5 C 3.97 g/m*3 2.5 C 0 km/h
1418 11-12-2011 19:08:02 2.6 C 4.11 g/m*3 2.6 C 0 km/h
1419 11-12-2011 19:20:01 3.2 C 4.04 g/m*3 3.2 C 0 km/h
1420 11-12-2011 19:32:01 3.2 C 4.04 g/m*3 3.2 C 0 km/h
1421 11-12-2011 19:44:01 3.2 C 3.98 g/m*3 3.2 C 0 km/h
1422 11-12-2011 19:56:01 3.2 C 4.1 g/m*3 3.2 C 0 km/h
1423 11-12-2011 20:08:01 3.3 C 4 g/m*3 3.3 C 0 km/h
1424 11-12-2011 20:20:01 3.4 C 4.03 g/m*3 3.4 C 0 km/h
1425 11-12-2011 20:32:01 3.3 C 4.06 g/m*3 3.3 C 0 km/h
Sensor: Nr:Datum:Temp:Abs-Feuchte:Windchill:Wind:
Aussen-T/F 1426 11-12-2011 20:44:01 3.1 C 4.19 g/m*3 3.1 C 0 km/h
1427 11-12-2011 20:56:01 3.5 C 4.18 g/m*3 3.5 C 0 km/h
1428 11-12-2011 21:08:01 3.5 C 4.12 g/m*3 3.5 C 0 km/h
1429 11-12-2011 21:20:02 3.1 C 4.01 g/m*3 3.1 C 0 km/h
1430 11-12-2011 21:32:01 2.4 C 4.05 g/m*3 2.4 C 0 km/h
1431 11-12-2011 21:44:01 3.2 C 4.22 g/m*3 3.2 C 0 km/h
1432 11-12-2011 21:56:02 3.3 C 4.25 g/m*3 3.3 C 0 km/h
1433 11-12-2011 22:08:02 3.3 C 4.31 g/m*3 3.3 C 0 km/h
1434 11-12-2011 22:20:01 3.1 C 4.37 g/m*3 3.1 C 0 km/h
1435 11-12-2011 22:32:01 3 C 4.58 g/m*3 3 C 0 km/h
1436 11-12-2011 22:44:01 2.9 C 4.72 g/m*3 2.9 C 0 km/h
1437 11-12-2011 22:56:01 3 C 4.76 g/m*3 3 C 0 km/h
1438 11-12-2011 23:08:01 3.1 C 4.85 g/m*3 3.1 C 0 km/h
1439 11-12-2011 23:20:01 3.2 C 5 g/m*3 3.2 C 0 km/h
1440 11-12-2011 23:32:01 3.4 C 5.07 g/m*3 3.4 C 0 km/h
1441 11-12-2011 23:44:01 3.6 C 5.2 g/m*3 3.6 C 0 km/h
1442 11-12-2011 23:56:01 3.7 C 5.23 g/m*3 3.7 C 0 km/h
1443 12-12-2011 00:08:01 4.1 C 5.38 g/m*3 4.1 C 0 km/h
1444 12-12-2011 00:20:02 4.3 C 5.45 g/m*3 4.3 C 0 km/h
1445 12-12-2011 00:32:01 4.6 C 5.43 g/m*3 4.6 C 0 km/h
1446 12-12-2011 00:44:01 4.6 C 5.36 g/m*3 4.6 C 0 km/h
1447 12-12-2011 00:56:02 4.8 C 5.36 g/m*3 4.8 C 0 km/h
1448 12-12-2011 01:08:01 4.7 C 5.33 g/m*3 4.7 C 0 km/h
1449 12-12-2011 01:20:01 4.7 C 5.4 g/m*3 4.7 C 0 km/h
1450 12-12-2011 01:44:01 4.8 C 5.57 g/m*3 4.8 C 0 km/h
Sensor: Nr:Datum:Temp:Abs-Feuchte:Windchill:Wind:
Aussen-T/F 1451 12-12-2011 01:44:01 4.9 C 5.54 g/m*3 4.9 C 0 km/h
1452 12-12-2011 01:44:01 4.8 C 5.57 g/m*3 4.8 C 0 km/h
1453 12-12-2011 01:44:01 4.9 C 5.54 g/m*3 4.9 C 0 km/h
1454 12-12-2011 01:56:01 4.9 C 5.6 g/m*3 4.9 C 0 km/h
1455 12-12-2011 02:08:01 5.2 C 5.65 g/m*3 5.2 C 0 km/h
1456 12-12-2011 02:20:01 5.2 C 5.65 g/m*3 5.2 C 0 km/h
1457 12-12-2011 02:32:02 5.6 C 5.73 g/m*3 5.6 C 0 km/h
1458 12-12-2011 02:44:02 5.9 C 5.77 g/m*3 5.9 C 0 km/h
1459 12-12-2011 02:57:02 6 C 5.73 g/m*3 6 C 0 km/h
1460 12-12-2011 03:09:02 5.8 C 5.73 g/m*3 5.8 C 0 km/h
1461 12-12-2011 03:21:03 6 C 5.81 g/m*3 6 C 0 km/h
1462 12-12-2011 03:33:02 5.9 C 5.84 g/m*3 5.9 C 0 km/h
1463 12-12-2011 03:45:03 5.9 C 5.84 g/m*3 5.9 C 0 km/h
1464 12-12-2011 03:57:03 5.8 C 5.8 g/m*3 5.8 C 0 km/h
1465 12-12-2011 04:09:02 5.7 C 5.84 g/m*3 5.7 C 0 km/h
1466 12-12-2011 04:21:02 5.6 C 5.87 g/m*3 5.6 C 0 km/h
1467 12-12-2011 04:33:02 5.7 C 5.98 g/m*3 5.7 C 0 km/h
1468 12-12-2011 04:45:01 6.2 C 6.18 g/m*3 6.2 C 0 km/h
1469 12-12-2011 04:57:01 6.9 C 6.47 g/m*3 6.9 C 0 km/h
1470 12-12-2011 05:09:02 7 C 6.28 g/m*3 7 C 0 km/h
1471 12-12-2011 05:21:01 7 C 6.28 g/m*3 7 C 0 km/h
1472 12-12-2011 05:33:01 7.3 C 6.32 g/m*3 7.3 C 0 km/h
1473 12-12-2011 05:45:01 7.5 C 6.32 g/m*3 7.5 C 0 km/h
1474 12-12-2011 05:57:01 7.4 C 6.28 g/m*3 7.4 C 0 km/h
1475 12-12-2011 06:09:02 7.1 C 6.16 g/m*3 7.1 C 0 km/h
Sensor: Nr:Datum:Temp:Abs-Feuchte:Windchill:Wind:
Aussen-T/F 1476 12-12-2011 06:21:01 7 C 6.2 g/m*3 7 C 0 km/h
1477 12-12-2011 06:33:01 6.6 C 6.11 g/m*3 6.6 C 0 km/h
1478 12-12-2011 06:45:01 6.4 C 6.18 g/m*3 6.4 C 0 km/h
1479 12-12-2011 06:57:01 6.2 C 6.18 g/m*3 6.2 C 0 km/h
1480 12-12-2011 07:09:02 6.5 C 6.45 g/m*3 6.5 C 0 km/h
1481 12-12-2011 07:21:01 6.8 C 6.58 g/m*3 6.8 C 0 km/h
1482 12-12-2011 07:33:01 6.8 C 6.58 g/m*3 6.8 C 0 km/h
1483 12-12-2011 07:45:01 7.1 C 6.63 g/m*3 7.1 C 0 km/h
1484 12-12-2011 07:57:01 7.2 C 6.67 g/m*3 7.2 C 0 km/h
1485 12-12-2011 08:09:01 7.3 C 6.79 g/m*3 7.3 C 0 km/h
1486 12-12-2011 08:21:02 7.3 C 6.79 g/m*3 7.3 C 0 km/h
1487 12-12-2011 08:33:01 7.2 C 6.75 g/m*3 7.2 C 0 km/h
1488 12-12-2011 08:45:03 7.1 C 6.71 g/m*3 7.1 C 0 km/h
1489 12-12-2011 08:57:03 7.1 C 6.79 g/m*3 7.1 C 0 km/h
1490 12-12-2011 09:09:02 7.1 C 6.79 g/m*3 7.1 C 0 km/h
1491 12-12-2011 09:21:02 7.5 C 7.04 g/m*3 7.5 C 0 km/h
1492 12-12-2011 09:33:03 7.8 C 6.86 g/m*3 7.8 C 0 km/h
1493 12-12-2011 09:45:02 7.5 C 6.64 g/m*3 7.5 C 0 km/h
1494 12-12-2011 09:57:03 7.5 C 6.72 g/m*3 7.5 C 0 km/h
1495 12-12-2011 10:09:01 7.2 C 6.59 g/m*3 7.2 C 0 km/h
1496 12-12-2011 10:21:02 7.3 C 6.72 g/m*3 7.3 C 0 km/h
1497 12-12-2011 10:33:02 7.5 C 6.8 g/m*3 7.5 C 0 km/h
1498 12-12-2011 10:45:02 7.6 C 6.77 g/m*3 7.6 C 0 km/h
1499 12-12-2011 10:57:02 7.7 C 6.81 g/m*3 7.7 C 0 km/h
1500 12-12-2011 11:09:02 7.9 C 6.74 g/m*3 7.9 C 0 km/h
Sensor: Nr:Datum:Temp:Abs-Feuchte:Windchill:Wind:
Aussen-T/F 1501 12-12-2011 11:21:02 7.9 C 6.57 g/m*3 7.9 C 0 km/h
1502 12-12-2011 11:33:02 7.9 C 6.57 g/m*3 7.9 C 0 km/h
1503 12-12-2011 11:45:01 7.7 C 6.49 g/m*3 7.7 C 0 km/h
1504 12-12-2011 11:57:01 7.8 C 6.61 g/m*3 7.8 C 0 km/h
1505 12-12-2011 12:09:01 7.8 C 6.45 g/m*3 7.8 C 0 km/h
1506 12-12-2011 12:21:01 7.2 C 5.97 g/m*3 7.2 C 0 km/h
1507 12-12-2011 12:33:01 7.1 C 5.69 g/m*3 7.1 C 0 km/h
1508 12-12-2011 12:45:02 7.2 C 5.73 g/m*3 7.2 C 0 km/h
1509 12-12-2011 12:57:02 7.5 C 5.6 g/m*3 7.5 C 0 km/h
1510 12-12-2011 13:09:02 7.9 C 5.5 g/m*3 7.9 C 0 km/h
1511 12-12-2011 13:21:03 8.3 C 5.48 g/m*3 8.3 C 0 km/h
1512 12-12-2011 13:33:02 7.7 C 5.35 g/m*3 7.7 C 0 km/h
1513 12-12-2011 13:45:02 7.8 C 5.55 g/m*3 7.8 C 0 km/h
1514 12-12-2011 13:57:02 8.1 C 5.49 g/m*3 8.1 C 0 km/h
1515 12-12-2011 14:09:02 8.2 C 5.28 g/m*3 8.2 C 0 km/h
1516 12-12-2011 14:21:02 8.1 C 5.24 g/m*3 8.1 C 0 km/h
1517 12-12-2011 14:33:02 7.9 C 5.17 g/m*3 7.9 C 0 km/h
1518 12-12-2011 14:45:02 8.4 C 4.92 g/m*3 8.4 C 0 km/h
1519 12-12-2011 14:57:02 7.7 C 4.62 g/m*3 7.7 C 0 km/h
1520 12-12-2011 15:09:01 7.3 C 4.74 g/m*3 7.3 C 0 km/h
1521 12-12-2011 15:21:02 6.9 C 4.7 g/m*3 6.9 C 0 km/h
1522 12-12-2011 15:33:02 6.6 C 4.68 g/m*3 6.6 C 0 km/h
1523 12-12-2011 15:45:02 6.3 C 4.59 g/m*3 6.3 C 0 km/h
1524 12-12-2011 15:57:02 6.3 C 4.59 g/m*3 6.3 C 0 km/h
1525 12-12-2011 16:09:02 6.2 C 4.56 g/m*3 6.2 C 0 km/h
Sensor: Nr:Datum:Temp:Abs-Feuchte:Windchill:Wind:
Aussen-T/F 1526 12-12-2011 16:21:02 5.7 C 4.55 g/m*3 5.7 C 0 km/h
1527 12-12-2011 16:33:02 5.5 C 4.35 g/m*3 5.5 C 0 km/h
1528 12-12-2011 16:45:01 5.4 C 4.4 g/m*3 5.4 C 0 km/h
1529 12-12-2011 16:57:01 4.5 C 4.34 g/m*3 4.5 C 0 km/h
1530 12-12-2011 17:09:02 4 C 4.51 g/m*3 4 C 0 km/h
1531 12-12-2011 17:21:01 3.8 C 4.52 g/m*3 3.8 C 0 km/h
1532 12-12-2011 17:33:01 3.1 C 4.55 g/m*3 3.1 C 0 km/h
1533 12-12-2011 17:45:01 2.5 C 4.48 g/m*3 2.5 C 0 km/h
1534 12-12-2011 17:57:01 2.1 C 4.53 g/m*3 2.1 C 0 km/h
1535 12-12-2011 18:09:01 2.3 C 4.71 g/m*3 2.3 C 0 km/h
1536 12-12-2011 18:21:25 2.2 C 4.73 g/m*3 2.2 C 0 km/h
1537 12-12-2011 18:33:25 3 C 4.93 g/m*3 3 C 0 km/h
1538 12-12-2011 18:45:25 3.3 C 4.91 g/m*3 3.3 C 0 km/h
1539 12-12-2011 18:57:25 3.1 C 4.79 g/m*3 3.1 C 0 km/h
1540 12-12-2011 19:09:25 3.9 C 4.93 g/m*3 3.9 C 0 km/h
1541 12-12-2011 19:21:25 5.1 C 4.86 g/m*3 5.1 C 0 km/h
1542 12-12-2011 19:33:25 5.2 C 4.89 g/m*3 5.2 C 0 km/h
1543 12-12-2011 19:45:25 4.8 C 4.83 g/m*3 4.8 C 0 km/h
1544 12-12-2011 19:57:25 4.7 C 4.93 g/m*3 4.7 C 0 km/h
1545 12-12-2011 20:09:25 4.5 C 4.93 g/m*3 4.5 C 0 km/h
1546 12-12-2011 20:21:25 3.8 C 4.83 g/m*3 3.8 C 0 km/h
1547 12-12-2011 20:33:25 3.3 C 4.79 g/m*3 3.3 C 0 km/h
1548 12-12-2011 20:45:25 2.7 C 4.78 g/m*3 2.7 C 0 km/h
1549 12-12-2011 20:57:25 4.1 C 5.25 g/m*3 4.1 C 0 km/h
1550 12-12-2011 21:09:02 4.5 C 5.32 g/m*3 4.5 C 0 km/h
Sensor: Nr:Datum:Temp:Abs-Feuchte:Windchill:Wind:
Aussen-T/F 1551 12-12-2011 21:21:02 4.9 C 5.2 g/m*3 4.9 C 0 km/h
1552 12-12-2011 21:33:02 4.6 C 5.03 g/m*3 4.6 C 0 km/h
1553 12-12-2011 21:45:01 4.6 C 5.1 g/m*3 4.6 C 0 km/h
1554 12-12-2011 21:57:01 4.7 C 5 g/m*3 4.7 C 0 km/h
1555 12-12-2011 22:09:02 5.5 C 4.99 g/m*3 5.5 C 0 km/h
1556 12-12-2011 22:21:02 5.8 C 4.87 g/m*3 5.8 C 0 km/h
1557 12-12-2011 22:33:01 5.1 C 4.79 g/m*3 5.1 C 0 km/h
1558 12-12-2011 22:45:02 5 C 4.96 g/m*3 5 C 0 km/h
1559 12-12-2011 22:57:02 4.8 C 4.9 g/m*3 4.8 C 0 km/h
1560 12-12-2011 23:09:01 5.3 C 4.99 g/m*3 5.3 C 0 km/h
1561 12-12-2011 23:21:02 5.6 C 4.95 g/m*3 5.6 C 0 km/h
1562 12-12-2011 23:33:01 6.1 C 4.75 g/m*3 6.1 C 0 km/h
1563 12-12-2011 23:45:02 6.2 C 4.71 g/m*3 6.2 C 0 km/h
1564 12-12-2011 23:57:03 6.5 C 4.65 g/m*3 6.5 C 0 km/h
1565 13-12-2011 00:09:02 6.1 C 4.68 g/m*3 6.1 C 0 km/h
1566 13-12-2011 00:21:02 6.3 C 4.59 g/m*3 6.3 C 0 km/h
1567 13-12-2011 00:33:02 6 C 4.57 g/m*3 6 C 0 km/h
1568 13-12-2011 00:45:01 5.4 C 4.54 g/m*3 5.4 C 0 km/h
1569 13-12-2011 00:57:01 5 C 4.55 g/m*3 5 C 0 km/h
1570 13-12-2011 01:09:02 4.3 C 4.61 g/m*3 4.3 C 0 km/h
1571 13-12-2011 01:21:01 4.7 C 4.73 g/m*3 4.7 C 0 km/h
1572 13-12-2011 01:33:01 5 C 4.62 g/m*3 5 C 0 km/h
1573 13-12-2011 01:45:01 4.9 C 4.59 g/m*3 4.9 C 0 km/h
1574 13-12-2011 01:57:01 4.6 C 4.63 g/m*3 4.6 C 0 km/h
1575 13-12-2011 02:09:01 5 C 4.48 g/m*3 5 C 0 km/h
Sensor: Nr:Datum:Temp:Abs-Feuchte:Windchill:Wind:
Aussen-T/F 1576 13-12-2011 02:21:02 5.1 C 4.38 g/m*3 5.1 C 0 km/h
1577 13-12-2011 02:33:01 4.9 C 4.39 g/m*3 4.9 C 0 km/h
1578 13-12-2011 02:45:02 5.1 C 4.31 g/m*3 5.1 C 0 km/h
1579 13-12-2011 02:57:02 5 C 4.28 g/m*3 5 C 0 km/h
1580 13-12-2011 03:09:02 5 C 4.28 g/m*3 5 C 0 km/h
1581 13-12-2011 03:21:01 5 C 4.28 g/m*3 5 C 0 km/h
1582 13-12-2011 03:33:01 5 C 4.28 g/m*3 5 C 0 km/h
1583 13-12-2011 03:45:01 4.9 C 4.32 g/m*3 4.9 C 0 km/h
1584 13-12-2011 03:57:01 4.9 C 4.25 g/m*3 4.9 C 0 km/h
1585 13-12-2011 04:09:01 4.6 C 4.23 g/m*3 4.6 C 0 km/h
1586 13-12-2011 04:21:02 4.9 C 4.32 g/m*3 4.9 C 0 km/h
1587 13-12-2011 04:33:01 5.1 C 4.24 g/m*3 5.1 C 0 km/h
1588 13-12-2011 04:45:02 5.2 C 4.27 g/m*3 5.2 C 0 km/h
1589 13-12-2011 04:57:02 5.6 C 4.24 g/m*3 5.6 C 0 km/h
1590 13-12-2011 05:09:01 5.4 C 4.33 g/m*3 5.4 C 0 km/h
1591 13-12-2011 05:21:02 4.9 C 4.52 g/m*3 4.9 C 0 km/h
1592 13-12-2011 05:33:01 4.2 C 4.7 g/m*3 4.2 C 0 km/h
1593 13-12-2011 05:45:02 4 C 4.77 g/m*3 4 C 0 km/h
1594 13-12-2011 05:57:02 4 C 4.9 g/m*3 4 C 0 km/h
1595 13-12-2011 06:09:01 3.9 C 4.99 g/m*3 3.9 C 0 km/h
1596 13-12-2011 06:21:01 4.3 C 5.06 g/m*3 4.3 C 0 km/h
1597 13-12-2011 06:33:02 4.1 C 4.93 g/m*3 4.1 C 0 km/h
1598 13-12-2011 06:45:01 4.2 C 5.09 g/m*3 4.2 C 0 km/h
1599 13-12-2011 06:57:01 4.4 C 5.09 g/m*3 4.4 C 0 km/h
1600 13-12-2011 07:09:02 4.3 C 4.99 g/m*3 4.3 C 0 km/h
Sensor: Nr:Datum:Temp:Abs-Feuchte:Windchill:Wind:
Aussen-T/F 1601 13-12-2011 07:21:01 4.3 C 5.06 g/m*3 4.3 C 0 km/h
1602 13-12-2011 07:33:02 4.6 C 5.1 g/m*3 4.6 C 0 km/h
1603 13-12-2011 07:45:01 5 C 5.03 g/m*3 5 C 0 km/h
1604 13-12-2011 07:57:01 5.2 C 5.03 g/m*3 5.2 C 0 km/h
1605 13-12-2011 08:09:02 5.2 C 5.03 g/m*3 5.2 C 0 km/h
1606 13-12-2011 08:21:01 5.2 C 5.1 g/m*3 5.2 C 0 km/h
1607 13-12-2011 08:33:01 5.3 C 5.13 g/m*3 5.3 C 0 km/h
1608 13-12-2011 08:45:01 5.4 C 5.16 g/m*3 5.4 C 0 km/h
1609 13-12-2011 08:57:01 5.7 C 5.12 g/m*3 5.7 C 0 km/h
1610 13-12-2011 09:09:01 5.9 C 5.19 g/m*3 5.9 C 0 km/h
1611 13-12-2011 09:21:02 5.8 C 5.3 g/m*3 5.8 C 0 km/h
1612 13-12-2011 09:33:01 5.9 C 5.41 g/m*3 5.9 C 0 km/h
1613 13-12-2011 09:45:02 6.2 C 5.37 g/m*3 6.2 C 0 km/h
1614 13-12-2011 09:57:02 6.5 C 5.4 g/m*3 6.5 C 0 km/h
1615 13-12-2011 10:09:01 6.8 C 5.43 g/m*3 6.8 C 0 km/h
1616 13-12-2011 10:21:02 7.1 C 5.38 g/m*3 7.1 C 0 km/h
1617 13-12-2011 10:33:01 7.2 C 5.42 g/m*3 7.2 C 0 km/h
1618 13-12-2011 10:45:02 7.5 C 5.44 g/m*3 7.5 C 0 km/h
1619 13-12-2011 10:57:02 8 C 5.54 g/m*3 8 C 0 km/h
1620 13-12-2011 11:09:01 9.1 C 5.77 g/m*3 9.1 C 0 km/h
1621 13-12-2011 11:21:01 10 C 5.54 g/m*3 10 C 0 km/h
1622 13-12-2011 11:33:02 10.2 C 5.52 g/m*3 10.2 C 0 km/h
1623 13-12-2011 11:45:01 10.7 C 5.5 g/m*3 10.7 C 0 km/h
1624 13-12-2011 11:57:01 10.8 C 5.63 g/m*3 10.8 C 0 km/h
1625 13-12-2011 12:09:02 10 C 5.45 g/m*3 10 C 0 km/h
Sensor: Nr:Datum:Temp:Abs-Feuchte:Windchill:Wind:
Aussen-T/F 1626 13-12-2011 12:21:01 10 C 5.45 g/m*3 10 C 0 km/h
1627 13-12-2011 12:33:02 9.6 C 5.59 g/m*3 9.6 C 0 km/h
1628 13-12-2011 12:45:01 9.7 C 5.62 g/m*3 9.7 C 0 km/h
1629 13-12-2011 12:57:01 9.7 C 5.72 g/m*3 9.7 C 0 km/h
1630 13-12-2011 13:09:02 9.6 C 5.77 g/m*3 9.6 C 0 km/h
1631 13-12-2011 13:21:01 9.5 C 5.83 g/m*3 9.5 C 0 km/h
1632 13-12-2011 13:33:01 9.8 C 6.03 g/m*3 9.8 C 0 km/h
1633 13-12-2011 13:45:01 10.2 C 6 g/m*3 10.2 C 0 km/h
1634 13-12-2011 13:57:01 10.1 C 5.96 g/m*3 10.1 C 0 km/h
1635 13-12-2011 14:09:01 10 C 5.92 g/m*3 10 C 0 km/h
1636 13-12-2011 14:21:02 9.9 C 6.07 g/m*3 9.9 C 0 km/h
1637 13-12-2011 14:33:01 10 C 6.01 g/m*3 10 C 0 km/h
1638 13-12-2011 14:45:02 9.8 C 6.12 g/m*3 9.8 C 0 km/h
1639 13-12-2011 14:57:02 9.7 C 6.27 g/m*3 9.7 C 0 km/h
1640 13-12-2011 15:09:01 9.4 C 6.33 g/m*3 9.4 C 0 km/h
1641 13-12-2011 15:21:02 8.8 C 6.53 g/m*3 8.8 C 0 km/h
1642 13-12-2011 15:33:01 8.7 C 6.75 g/m*3 8.7 C 0 km/h
1643 13-12-2011 15:45:02 8.9 C 6.75 g/m*3 8.9 C 0 km/h
1644 13-12-2011 15:57:02 8.9 C 6.48 g/m*3 8.9 C 0 km/h
1645 13-12-2011 16:09:01 9.2 C 5.98 g/m*3 9.2 C 0 km/h
1646 13-12-2011 16:21:01 9.2 C 5.89 g/m*3 9.2 C 0 km/h
1647 13-12-2011 16:33:02 9.2 C 5.98 g/m*3 9.2 C 0 km/h
1648 13-12-2011 16:45:01 8.9 C 6.04 g/m*3 8.9 C 0 km/h
1649 13-12-2011 16:57:01 9.1 C 5.94 g/m*3 9.1 C 0 km/h
1650 13-12-2011 17:09:02 8.5 C 5.98 g/m*3 8.5 C 0 km/h
Sensor: Nr:Datum:Temp:Abs-Feuchte:Windchill:Wind:
Aussen-T/F 1651 13-12-2011 17:21:01 8 C 6.45 g/m*3 8 C 0 km/h
1652 13-12-2011 17:33:02 6.9 C 5.93 g/m*3 6.9 C 0 km/h
1653 13-12-2011 17:45:01 6.7 C 6.08 g/m*3 6.7 C 0 km/h
1654 13-12-2011 17:57:01 6.5 C 6.07 g/m*3 6.5 C 0 km/h
1655 13-12-2011 18:09:02 5.9 C 6.06 g/m*3 5.9 C 0 km/h
1656 13-12-2011 18:21:01 5.4 C 5.93 g/m*3 5.4 C 0 km/h
1657 13-12-2011 18:33:01 5.6 C 6.08 g/m*3 5.6 C 0 km/h
1658 13-12-2011 18:45:01 6.6 C 6.49 g/m*3 6.6 C 0 km/h
1659 13-12-2011 18:57:01 7.4 C 6.12 g/m*3 7.4 C 0 km/h
1660 13-12-2011 19:09:01 7.8 C 5.63 g/m*3 7.8 C 0 km/h
1661 13-12-2011 19:21:01 7.6 C 5.48 g/m*3 7.6 C 0 km/h
1662 13-12-2011 19:33:01 7.8 C 5.47 g/m*3 7.8 C 0 km/h
1663 13-12-2011 19:45:01 7.8 C 5.47 g/m*3 7.8 C 0 km/h
1664 13-12-2011 19:57:01 7.8 C 5.47 g/m*3 7.8 C 0 km/h
1665 13-12-2011 20:09:01 7.7 C 5.35 g/m*3 7.7 C 0 km/h
1666 13-12-2011 20:21:02 7.2 C 5.34 g/m*3 7.2 C 0 km/h
1667 13-12-2011 20:33:02 7.4 C 5.25 g/m*3 7.4 C 0 km/h
1668 13-12-2011 20:45:01 6.9 C 5.23 g/m*3 6.9 C 0 km/h
1669 13-12-2011 20:57:01 7.3 C 5.14 g/m*3 7.3 C 0 km/h
1670 13-12-2011 21:09:01 6.8 C 5.12 g/m*3 6.8 C 0 km/h
1671 13-12-2011 21:21:02 6.9 C 5.16 g/m*3 6.9 C 0 km/h
1672 13-12-2011 21:33:01 6.9 C 5.08 g/m*3 6.9 C 0 km/h
1673 13-12-2011 21:45:02 6.4 C 5.14 g/m*3 6.4 C 0 km/h
1674 13-12-2011 21:57:02 6.4 C 5.07 g/m*3 6.4 C 0 km/h
1675 13-12-2011 22:09:01 5.9 C 5.12 g/m*3 5.9 C 0 km/h
Sensor: Nr:Datum:Temp:Abs-Feuchte:Windchill:Wind:
Aussen-T/F 1676 13-12-2011 22:21:02 6.3 C 5.33 g/m*3 6.3 C 0 km/h
1677 13-12-2011 22:33:01 6.7 C 5.32 g/m*3 6.7 C 0 km/h
1678 13-12-2011 22:45:02 7.2 C 5.34 g/m*3 7.2 C 0 km/h
1679 13-12-2011 22:57:02 7 C 5.35 g/m*3 7 C 0 km/h
1680 13-12-2011 23:09:01 7.1 C 5.3 g/m*3 7.1 C 0 km/h
1681 13-12-2011 23:21:02 7.4 C 5.41 g/m*3 7.4 C 0 km/h
1682 13-12-2011 23:33:01 7.5 C 5.28 g/m*3 7.5 C 0 km/h
1683 13-12-2011 23:45:02 7.7 C 5.27 g/m*3 7.7 C 0 km/h
1684 13-12-2011 23:57:02 7.9 C 5.09 g/m*3 7.9 C 0 km/h
1685 14-12-2011 00:09:01 7.9 C 5.01 g/m*3 7.9 C 0 km/h
1686 14-12-2011 00:21:01 7.9 C 4.93 g/m*3 7.9 C 0 km/h
1687 14-12-2011 00:33:01 7.5 C 4.8 g/m*3 7.5 C 0 km/h
1688 14-12-2011 00:45:01 7.3 C 4.74 g/m*3 7.3 C 0 km/h
1689 14-12-2011 00:57:01 7 C 4.73 g/m*3 7 C 0 km/h
1690 14-12-2011 02:25:00 7.4 C 5.81 g/m*3 5.28 C 11.3 km/h
1691 14-12-2011 02:30:00 7.4 C 5.88 g/m*3 5.58 C 9.7 km/h
1692 14-12-2011 02:35:00 7.2 C 5.81 g/m*3 5.69 C 8.1 km/h
1693 14-12-2011 02:40:00 7.2 C 5.81 g/m*3 5.69 C 8.1 km/h
1694 14-12-2011 02:45:00 7.1 C 5.77 g/m*3 6.02 C 6.4 km/h
1695 14-12-2011 02:50:00 6.8 C 5.74 g/m*3 5.22 C 8.1 km/h
1696 14-12-2011 02:55:00 6.8 C 5.74 g/m*3 5.22 C 8.1 km/h
1697 14-12-2011 03:00:00 6.5 C 5.7 g/m*3 6.5 C 4.8 km/h
1698 14-12-2011 03:05:00 6.2 C 5.74 g/m*3 6.2 C 3.2 km/h
1699 14-12-2011 03:10:00 6 C 5.73 g/m*3 6 C 3.2 km/h
1700 14-12-2011 03:15:00 5.7 C 5.69 g/m*3 5.7 C 4.8 km/h
Sensor: Nr:Datum:Temp:Abs-Feuchte:Windchill:Wind:
Aussen-T/F 1701 14-12-2011 03:20:00 5.6 C 5.66 g/m*3 5.6 C 3.2 km/h
1702 14-12-2011 03:25:00 5.6 C 5.73 g/m*3 3.81 C 8.1 km/h
1703 14-12-2011 03:30:00 5.7 C 5.84 g/m*3 5.7 C 3.2 km/h
1704 14-12-2011 03:35:00 6.1 C 5.84 g/m*3 3.43 C 12.9 km/h
1705 14-12-2011 03:40:00 6.5 C 5.92 g/m*3 4.87 C 8.1 km/h
1706 14-12-2011 03:45:00 6.6 C 5.81 g/m*3 5.44 C 6.4 km/h
1707 14-12-2011 03:50:00 6.7 C 5.85 g/m*3 5.11 C 8.1 km/h
1708 14-12-2011 03:55:00 6.8 C 5.89 g/m*3 5.67 C 6.4 km/h
1709 14-12-2011 04:00:00 6.9 C 5.85 g/m*3 6.9 C 4.8 km/h
1710 14-12-2011 04:05:00 6.8 C 5.89 g/m*3 6.8 C 4.8 km/h
1711 14-12-2011 04:10:00 6.7 C 5.85 g/m*3 6.7 C 4.8 km/h
1712 14-12-2011 04:15:00 6.5 C 5.85 g/m*3 6.5 C 4.8 km/h
1713 14-12-2011 04:20:00 6.4 C 5.89 g/m*3 5.21 C 6.4 km/h
1714 14-12-2011 04:25:00 6.4 C 5.89 g/m*3 3.55 C 14.5 km/h
1715 14-12-2011 04:30:00 6.4 C 5.89 g/m*3 6.4 C 3.2 km/h
1716 14-12-2011 04:35:00 6.3 C 5.85 g/m*3 6.3 C 3.2 km/h
1717 14-12-2011 04:40:00 6.1 C 5.84 g/m*3 6.1 C 3.2 km/h
1718 14-12-2011 04:45:00 6 C 5.81 g/m*3 6 C 4.8 km/h
1719 14-12-2011 04:50:00 5.9 C 5.84 g/m*3 5.9 C 4.8 km/h
1720 14-12-2011 04:55:00 6.1 C 5.92 g/m*3 4.86 C 6.4 km/h
1721 14-12-2011 05:00:00 6.1 C 5.92 g/m*3 6.1 C 4.8 km/h
1722 14-12-2011 05:05:00 6 C 5.95 g/m*3 6 C 3.2 km/h
1723 14-12-2011 05:10:00 5.8 C 5.95 g/m*3 5.8 C 3.2 km/h
1724 14-12-2011 05:15:00 5.9 C 5.91 g/m*3 5.9 C 3.2 km/h
1725 14-12-2011 05:20:00 6.1 C 5.92 g/m*3 6.1 C 4.8 km/h
Sensor: Nr:Datum:Temp:Abs-Feuchte:Windchill:Wind:
Aussen-T/F 1726 14-12-2011 05:25:00 6 C 5.95 g/m*3 6 C 3.2 km/h
1727 14-12-2011 05:30:00 5.8 C 5.95 g/m*3 5.8 C 3.2 km/h
1728 14-12-2011 05:35:00 5.6 C 5.87 g/m*3 5.6 C 3.2 km/h
1729 14-12-2011 05:40:00 5.5 C 5.97 g/m*3 5.5 C 4.8 km/h
1730 14-12-2011 05:45:00 5.3 C 5.89 g/m*3 5.3 C 3.2 km/h
1731 14-12-2011 05:50:00 5.2 C 5.92 g/m*3 5.2 C 3.2 km/h
1732 14-12-2011 05:55:00 5.2 C 5.85 g/m*3 5.2 C 4.8 km/h
1733 14-12-2011 06:00:00 5.3 C 5.89 g/m*3 5.3 C 1.6 km/h
1734 14-12-2011 06:05:00 5.2 C 5.85 g/m*3 5.2 C 3.2 km/h
1735 14-12-2011 06:10:00 5.1 C 5.88 g/m*3 5.1 C 4.8 km/h
1736 14-12-2011 06:15:00 5 C 5.91 g/m*3 5 C 3.2 km/h
1737 14-12-2011 06:20:00 4.9 C 5.87 g/m*3 4.9 C 3.2 km/h
1738 14-12-2011 06:25:00 4.9 C 5.87 g/m*3 4.9 C 3.2 km/h
1739 14-12-2011 06:30:00 5.1 C 5.88 g/m*3 5.1 C 3.2 km/h
1740 14-12-2011 06:35:00 5.2 C 5.92 g/m*3 5.2 C 4.8 km/h
1741 14-12-2011 06:40:00 5.2 C 5.92 g/m*3 5.2 C 4.8 km/h
1742 14-12-2011 06:45:00 5.1 C 5.88 g/m*3 5.1 C 4.8 km/h
1743 14-12-2011 06:50:00 5 C 5.91 g/m*3 5 C 3.2 km/h
1744 14-12-2011 06:55:00 5 C 5.91 g/m*3 5 C 3.2 km/h
1745 14-12-2011 07:00:00 5.1 C 6.02 g/m*3 5.1 C 3.2 km/h
1746 14-12-2011 07:05:00 5.3 C 6.1 g/m*3 5.3 C 3.2 km/h
1747 14-12-2011 07:10:00 5.4 C 6.21 g/m*3 5.4 C 4.8 km/h
1748 14-12-2011 07:15:00 5.8 C 6.23 g/m*3 2.81 C 14.5 km/h
1749 14-12-2011 07:20:00 6 C 6.39 g/m*3 6 C 3.2 km/h
1750 14-12-2011 07:25:00 6 C 6.46 g/m*3 6 C 3.2 km/h
Sensor: Nr:Datum:Temp:Abs-Feuchte:Windchill:Wind:
Aussen-T/F 1751 14-12-2011 07:30:00 5.9 C 6.49 g/m*3 5.9 C 4.8 km/h
1752 14-12-2011 07:35:00 5.9 C 6.49 g/m*3 5.9 C 3.2 km/h
1753 14-12-2011 07:40:00 5.8 C 6.52 g/m*3 5.8 C 3.2 km/h
1754 14-12-2011 07:45:00 5.8 C 6.52 g/m*3 5.8 C 4.8 km/h
1755 14-12-2011 07:50:00 5.8 C 6.59 g/m*3 4.52 C 6.4 km/h
1756 14-12-2011 07:55:00 5.9 C 6.63 g/m*3 5.9 C 3.2 km/h
1757 14-12-2011 08:00:00 6.2 C 6.69 g/m*3 6.2 C 3.2 km/h
1758 14-12-2011 08:05:00 6.4 C 6.78 g/m*3 6.4 C 1.6 km/h
1759 14-12-2011 08:10:00 6.6 C 6.79 g/m*3 4.63 C 9.7 km/h
1760 14-12-2011 08:15:00 6.9 C 6.77 g/m*3 5.79 C 6.4 km/h
1761 14-12-2011 08:20:00 7.2 C 6.91 g/m*3 5.35 C 9.7 km/h
1762 14-12-2011 08:25:00 7.6 C 6.85 g/m*3 6.16 C 8.1 km/h
1763 14-12-2011 08:30:00 7.7 C 6.89 g/m*3 7.7 C 4.8 km/h
1764 14-12-2011 08:35:00 7.8 C 6.94 g/m*3 5.77 C 11.3 km/h
1765 14-12-2011 08:40:00 8.1 C 7.07 g/m*3 5.64 C 14.5 km/h
1766 14-12-2011 08:45:00 8.1 C 7.07 g/m*3 6.75 C 8.1 km/h
1767 14-12-2011 08:50:00 8.2 C 7.12 g/m*3 5.76 C 14.5 km/h
1768 14-12-2011 08:55:00 8.2 C 7.12 g/m*3 6.87 C 8.1 km/h
1769 14-12-2011 09:00:00 8.2 C 7.12 g/m*3 5.18 C 19.3 km/h
1770 14-12-2011 09:05:00 8.3 C 7.16 g/m*3 5.68 C 16.1 km/h
1771 14-12-2011 09:10:00 8.4 C 7.13 g/m*3 6.01 C 14.5 km/h
1772 14-12-2011 09:15:00 8.6 C 7.13 g/m*3 6.73 C 11.3 km/h
1773 14-12-2011 09:20:00 8.7 C 7.09 g/m*3 6.85 C 11.3 km/h
1774 14-12-2011 09:25:00 8.8 C 7.14 g/m*3 6.72 C 12.9 km/h
1775 14-12-2011 09:30:00 8.8 C 7.05 g/m*3 6.3 C 16.1 km/h
Sensor: Nr:Datum:Temp:Abs-Feuchte:Windchill:Wind:
Aussen-T/F 1776 14-12-2011 09:35:00 9 C 7.05 g/m*3 6.75 C 14.5 km/h
1777 14-12-2011 09:40:00 9.1 C 7.19 g/m*3 7.33 C 11.3 km/h
1778 14-12-2011 09:45:00 9 C 7.14 g/m*3 7.49 C 9.7 km/h
1779 14-12-2011 09:50:00 9 C 7.14 g/m*3 7.49 C 9.7 km/h
1780 14-12-2011 09:55:00 9.1 C 7.1 g/m*3 6.48 C 17.7 km/h
1781 14-12-2011 10:00:00 9.2 C 7.14 g/m*3 7.21 C 12.9 km/h
1782 14-12-2011 10:05:00 9.3 C 7.19 g/m*3 6.12 C 24.1 km/h
1783 14-12-2011 10:10:00 9.4 C 7.05 g/m*3 6.86 C 17.7 km/h
1784 14-12-2011 10:15:00 9.4 C 7.05 g/m*3 7.04 C 16.1 km/h
1785 14-12-2011 10:20:00 9.4 C 7.15 g/m*3 7.97 C 9.7 km/h
1786 14-12-2011 10:25:00 9.5 C 7.01 g/m*3 7.58 C 12.9 km/h
1787 14-12-2011 10:30:00 9.6 C 7.05 g/m*3 7.7 C 12.9 km/h
1788 14-12-2011 10:35:00 9.7 C 6.91 g/m*3 7.23 C 17.7 km/h
1789 14-12-2011 10:40:00 9.6 C 7.05 g/m*3 7.94 C 11.3 km/h
1790 14-12-2011 10:45:00 9.5 C 7.01 g/m*3 7.16 C 16.1 km/h
1791 14-12-2011 10:50:00 9.5 C 7.01 g/m*3 7.36 C 14.5 km/h
1792 14-12-2011 10:55:00 9.6 C 6.96 g/m*3 7.29 C 16.1 km/h
1793 14-12-2011 11:00:00 9.6 C 7.05 g/m*3 7.48 C 14.5 km/h
1794 14-12-2011 11:05:00 9.6 C 6.96 g/m*3 7.94 C 11.3 km/h
1795 14-12-2011 11:10:00 9.6 C 6.96 g/m*3 7.7 C 12.9 km/h
1796 14-12-2011 11:15:00 9.6 C 6.96 g/m*3 7.7 C 12.9 km/h
1797 14-12-2011 11:20:00 9.7 C 6.82 g/m*3 8.06 C 11.3 km/h
1798 14-12-2011 11:25:00 9.8 C 6.77 g/m*3 7.94 C 12.9 km/h
1799 14-12-2011 11:30:00 9.8 C 6.77 g/m*3 8.18 C 11.3 km/h
1800 14-12-2011 11:35:00 9.8 C 6.68 g/m*3 7.04 C 20.9 km/h
Sensor: Nr:Datum:Temp:Abs-Feuchte:Windchill:Wind:
Aussen-T/F 1801 14-12-2011 11:40:00 9.9 C 6.63 g/m*3 7.66 C 16.1 km/h
1802 14-12-2011 11:45:00 9.8 C 6.49 g/m*3 7.36 C 17.7 km/h
1803 14-12-2011 11:50:00 9.8 C 6.49 g/m*3 6.63 C 25.7 km/h
1804 14-12-2011 11:55:00 9.7 C 6.45 g/m*3 7.23 C 17.7 km/h
1805 14-12-2011 12:00:00 9.6 C 6.41 g/m*3 6.5 C 24.1 km/h
1806 14-12-2011 12:05:00 9.6 C 6.5 g/m*3 6.64 C 22.5 km/h
1807 14-12-2011 12:10:00 9.4 C 6.42 g/m*3 7.04 C 16.1 km/h
1808 14-12-2011 12:15:00 9.4 C 6.42 g/m*3 6.53 C 20.9 km/h
1809 14-12-2011 12:20:00 9.3 C 6.47 g/m*3 6.26 C 22.5 km/h
1810 14-12-2011 12:25:00 9.2 C 6.61 g/m*3 6.79 C 16.1 km/h
1811 14-12-2011 12:30:00 9.1 C 6.48 g/m*3 6.87 C 14.5 km/h
1812 14-12-2011 12:35:00 9 C 6.35 g/m*3 6.75 C 14.5 km/h
1813 14-12-2011 12:40:00 8.9 C 6.39 g/m*3 6.23 C 17.7 km/h
1814 14-12-2011 12:45:00 8.9 C 6.48 g/m*3 6.62 C 14.5 km/h
1815 14-12-2011 12:50:00 8.9 C 6.48 g/m*3 6.62 C 14.5 km/h
1816 14-12-2011 12:55:00 8.8 C 6.44 g/m*3 6.72 C 12.9 km/h
1817 14-12-2011 13:00:00 8.8 C 6.35 g/m*3 5.93 C 19.3 km/h
1818 14-12-2011 13:05:00 8.8 C 6.35 g/m*3 6.11 C 17.7 km/h
1819 14-12-2011 13:10:00 8.6 C 6.36 g/m*3 6.05 C 16.1 km/h
1820 14-12-2011 13:15:00 8.4 C 6.36 g/m*3 4.96 C 24.1 km/h
1821 14-12-2011 13:20:00 8.3 C 6.32 g/m*3 5.48 C 17.7 km/h
1822 14-12-2011 13:25:00 8.2 C 6.28 g/m*3 4.71 C 24.1 km/h
1823 14-12-2011 13:30:00 8.2 C 6.2 g/m*3 5.36 C 17.7 km/h
1824 14-12-2011 13:35:00 8.2 C 6.2 g/m*3 5.01 C 20.9 km/h
1825 14-12-2011 13:40:00 8.2 C 6.2 g/m*3 5.55 C 16.1 km/h
Sensor: Nr:Datum:Temp:Abs-Feuchte:Windchill:Wind:
Aussen-T/F 1826 14-12-2011 13:45:00 8.1 C 6.24 g/m*3 5.43 C 16.1 km/h
1827 14-12-2011 13:50:00 8.1 C 6.24 g/m*3 6.13 C 11.3 km/h
1828 14-12-2011 13:55:00 8.1 C 6.24 g/m*3 6.13 C 11.3 km/h
1829 14-12-2011 14:00:00 8.2 C 6.28 g/m*3 5.36 C 17.7 km/h
1830 14-12-2011 14:05:00 8.2 C 6.28 g/m*3 5.99 C 12.9 km/h
1831 14-12-2011 14:10:00 8.1 C 6.24 g/m*3 5.23 C 17.7 km/h
1832 14-12-2011 14:15:00 8.1 C 6.24 g/m*3 5.05 C 19.3 km/h
1833 14-12-2011 14:20:00 8.1 C 6.24 g/m*3 4.89 C 20.9 km/h
1834 14-12-2011 14:25:00 8.1 C 6.24 g/m*3 4.44 C 25.7 km/h
1835 14-12-2011 14:30:00 8.1 C 6.24 g/m*3 5.43 C 16.1 km/h
1836 14-12-2011 14:35:00 8.1 C 6.24 g/m*3 5.23 C 17.7 km/h
1837 14-12-2011 14:40:00 8 C 6.2 g/m*3 5.11 C 17.7 km/h
1838 14-12-2011 14:45:00 8 C 6.12 g/m*3 4.45 C 24.1 km/h
1839 14-12-2011 14:50:00 8.1 C 6.16 g/m*3 5.43 C 16.1 km/h
1840 14-12-2011 14:55:00 8.1 C 6.16 g/m*3 5.87 C 12.9 km/h
1841 14-12-2011 15:00:00 8 C 6.12 g/m*3 6.01 C 11.3 km/h
1842 14-12-2011 15:05:00 8 C 6.2 g/m*3 4.93 C 19.3 km/h
1843 14-12-2011 15:10:00 7.9 C 6.16 g/m*3 5.39 C 14.5 km/h
1844 14-12-2011 15:15:00 7.9 C 6.24 g/m*3 4.8 C 19.3 km/h
1845 14-12-2011 15:20:00 7.7 C 6.32 g/m*3 4.55 C 19.3 km/h
1846 14-12-2011 15:25:00 7.5 C 6.32 g/m*3 3.96 C 22.5 km/h
1847 14-12-2011 15:30:00 7.4 C 6.36 g/m*3 4.17 C 19.3 km/h
1848 14-12-2011 15:35:00 7.3 C 6.4 g/m*3 3.87 C 20.9 km/h
1849 14-12-2011 15:40:00 7.2 C 6.36 g/m*3 4.31 C 16.1 km/h
1850 14-12-2011 15:45:00 7.2 C 6.36 g/m*3 4.11 C 17.7 km/h
Sensor: Nr:Datum:Temp:Abs-Feuchte:Windchill:Wind:
Aussen-T/F 1851 14-12-2011 15:50:00 7.2 C 6.36 g/m*3 4.53 C 14.5 km/h
1852 14-12-2011 15:55:00 7.2 C 6.36 g/m*3 4.77 C 12.9 km/h
1853 14-12-2011 16:00:00 7.2 C 6.36 g/m*3 4.77 C 12.9 km/h
1854 14-12-2011 16:05:00 7.2 C 6.36 g/m*3 4.77 C 12.9 km/h
1855 14-12-2011 16:10:00 6.9 C 6.24 g/m*3 4.16 C 14.5 km/h
1856 14-12-2011 16:15:00 6.7 C 6.31 g/m*3 3.69 C 16.1 km/h
1857 14-12-2011 16:20:00 6.4 C 6.26 g/m*3 3.11 C 17.7 km/h
1858 14-12-2011 16:25:00 6.2 C 6.32 g/m*3 4.15 C 9.7 km/h
1859 14-12-2011 16:30:00 6.1 C 6.28 g/m*3 3.72 C 11.3 km/h
1860 14-12-2011 16:35:00 6.1 C 6.36 g/m*3 6.1 C 4.8 km/h
1861 14-12-2011 16:40:00 6.1 C 6.43 g/m*3 4.04 C 9.7 km/h
1862 14-12-2011 16:45:00 6.3 C 6.22 g/m*3 3.2 C 16.1 km/h
1863 14-12-2011 16:50:00 6.6 C 6.19 g/m*3 4.04 C 12.9 km/h
1864 14-12-2011 16:55:00 6.7 C 6.15 g/m*3 4.44 C 11.3 km/h
1865 14-12-2011 17:00:00 6.7 C 6.15 g/m*3 3.92 C 14.5 km/h
1866 14-12-2011 17:05:00 6.9 C 6.08 g/m*3 4.41 C 12.9 km/h
1867 14-12-2011 17:10:00 7.1 C 6.08 g/m*3 4.65 C 12.9 km/h
1868 14-12-2011 17:15:00 7.3 C 6.08 g/m*3 4.23 C 17.7 km/h
1869 14-12-2011 17:20:00 7.3 C 6.08 g/m*3 5.47 C 9.7 km/h
1870 14-12-2011 17:25:00 7.2 C 6.04 g/m*3 5.04 C 11.3 km/h
1871 14-12-2011 17:30:00 7.2 C 5.97 g/m*3 3.13 C 27.4 km/h
1872 14-12-2011 17:35:00 6.2 C 5.74 g/m*3 1.32 C 33.8 km/h
1873 14-12-2011 17:40:00 4.8 C 5.5 g/m*3 1.58 C 14.5 km/h
1874 14-12-2011 17:45:00 4.2 C 5.41 g/m*3 -0.24 C 22.5 km/h
1875 14-12-2011 17:50:00 4.2 C 5.54 g/m*3 0.36 C 17.7 km/h
Sensor: Nr:Datum:Temp:Abs-Feuchte:Windchill:Wind:
Aussen-T/F 1876 14-12-2011 17:55:00 4.1 C 5.5 g/m*3 -0.55 C 24.1 km/h
1877 14-12-2011 18:00:00 4.1 C 5.5 g/m*3 -0.71 C 25.7 km/h
1878 14-12-2011 18:05:00 4.1 C 5.5 g/m*3 0.24 C 17.7 km/h
1879 14-12-2011 18:10:00 4.2 C 5.54 g/m*3 0.59 C 16.1 km/h
1880 14-12-2011 18:15:00 4.2 C 5.48 g/m*3 0.36 C 17.7 km/h
1881 14-12-2011 18:20:00 4.3 C 5.51 g/m*3 0.97 C 14.5 km/h
1882 14-12-2011 18:25:00 4.7 C 5.6 g/m*3 0.58 C 20.9 km/h
1883 14-12-2011 18:30:00 5.2 C 5.71 g/m*3 1.61 C 17.7 km/h
1884 14-12-2011 18:35:00 5.2 C 5.71 g/m*3 2.07 C 14.5 km/h
1885 14-12-2011 18:40:00 5.2 C 5.71 g/m*3 2.63 C 11.3 km/h
1886 14-12-2011 18:45:00 5.1 C 5.68 g/m*3 2.51 C 11.3 km/h
1887 14-12-2011 18:50:00 5 C 5.78 g/m*3 3.11 C 8.1 km/h
1888 14-12-2011 18:55:00 4.7 C 5.66 g/m*3 2.03 C 11.3 km/h
1889 14-12-2011 19:00:00 4.7 C 5.8 g/m*3 2.37 C 9.7 km/h
1890 14-12-2011 19:05:00 4.5 C 5.72 g/m*3 0.96 C 16.1 km/h
1891 14-12-2011 19:10:00 4.7 C 5.86 g/m*3 0.58 C 20.9 km/h
1892 14-12-2011 19:15:00 4.6 C 5.82 g/m*3 1.34 C 14.5 km/h
1893 14-12-2011 19:20:00 4.7 C 5.8 g/m*3 0.4 C 22.5 km/h
1894 14-12-2011 19:25:00 4.8 C 5.77 g/m*3 1.34 C 16.1 km/h
1895 14-12-2011 19:30:00 4.9 C 5.67 g/m*3 0.65 C 22.5 km/h
1896 14-12-2011 19:35:00 4.9 C 5.67 g/m*3 1.46 C 16.1 km/h
1897 14-12-2011 19:40:00 5 C 5.64 g/m*3 1.15 C 19.3 km/h
1898 14-12-2011 19:45:00 4.9 C 5.6 g/m*3 1.46 C 16.1 km/h
1899 14-12-2011 19:50:00 4.8 C 5.57 g/m*3 1.34 C 16.1 km/h
1900 14-12-2011 19:55:00 4.8 C 5.57 g/m*3 2.15 C 11.3 km/h
Sensor: Nr:Datum:Temp:Abs-Feuchte:Windchill:Wind:
Aussen-T/F 1901 14-12-2011 20:00:00 4.8 C 5.5 g/m*3 1.85 C 12.9 km/h
1902 14-12-2011 20:05:00 4.8 C 5.5 g/m*3 1.58 C 14.5 km/h
1903 14-12-2011 20:10:00 4.9 C 5.54 g/m*3 1.97 C 12.9 km/h
1904 14-12-2011 20:15:00 4.9 C 5.6 g/m*3 0.83 C 20.9 km/h
1905 14-12-2011 20:20:00 4.9 C 5.6 g/m*3 1.97 C 12.9 km/h
1906 14-12-2011 20:25:00 4.9 C 5.54 g/m*3 1.46 C 16.1 km/h
1907 14-12-2011 20:30:00 4.9 C 5.54 g/m*3 2.61 C 9.7 km/h
1908 14-12-2011 20:35:00 4.8 C 5.57 g/m*3 2.15 C 11.3 km/h
1909 14-12-2011 20:40:00 4.8 C 5.63 g/m*3 2.49 C 9.7 km/h
1910 14-12-2011 20:45:00 4.6 C 5.56 g/m*3 3.13 C 6.4 km/h
1911 14-12-2011 20:50:00 4.5 C 5.52 g/m*3 2.52 C 8.1 km/h
1912 14-12-2011 20:55:00 4.4 C 5.55 g/m*3 4.4 C 4.8 km/h
1913 14-12-2011 21:00:00 4.4 C 5.55 g/m*3 1.67 C 11.3 km/h
1914 14-12-2011 21:05:00 4.4 C 5.48 g/m*3 2.01 C 9.7 km/h
1915 14-12-2011 21:10:00 4.4 C 5.48 g/m*3 2.9 C 6.4 km/h
1916 14-12-2011 21:15:00 4.4 C 5.55 g/m*3 2.4 C 8.1 km/h
1917 14-12-2011 21:20:00 4.2 C 5.61 g/m*3 4.2 C 4.8 km/h
1918 14-12-2011 21:25:00 3.9 C 5.49 g/m*3 2.32 C 6.4 km/h
1919 14-12-2011 21:30:00 3.9 C 5.49 g/m*3 1.06 C 11.3 km/h
1920 14-12-2011 21:35:00 4.3 C 5.58 g/m*3 1.89 C 9.7 km/h
1921 14-12-2011 21:40:00 4.6 C 5.69 g/m*3 2.64 C 8.1 km/h
1922 14-12-2011 21:45:00 4.6 C 5.76 g/m*3 4.6 C 3.2 km/h
1923 14-12-2011 21:50:00 4.4 C 5.68 g/m*3 4.4 C 4.8 km/h
1924 14-12-2011 21:55:00 4.3 C 5.64 g/m*3 4.3 C 4.8 km/h
1925 14-12-2011 22:00:00 4.5 C 5.65 g/m*3 3.02 C 6.4 km/h
Sensor: Nr:Datum:Temp:Abs-Feuchte:Windchill:Wind:
Aussen-T/F 1926 14-12-2011 22:05:00 4.7 C 5.8 g/m*3 4.7 C 4.8 km/h
1927 14-12-2011 22:10:00 4.8 C 5.7 g/m*3 4.8 C 4.8 km/h
1928 14-12-2011 22:15:00 5.1 C 5.68 g/m*3 2.51 C 11.3 km/h
1929 14-12-2011 22:20:00 5.2 C 5.78 g/m*3 5.2 C 3.2 km/h
1930 14-12-2011 22:25:00 5.3 C 5.68 g/m*3 1.74 C 17.7 km/h
1931 14-12-2011 22:30:00 5.4 C 5.72 g/m*3 5.4 C 4.8 km/h
1932 14-12-2011 22:35:00 5.3 C 5.68 g/m*3 5.3 C 4.8 km/h
1933 14-12-2011 22:40:00 5.4 C 5.65 g/m*3 4.06 C 6.4 km/h
1934 14-12-2011 22:45:00 5.6 C 5.73 g/m*3 2.57 C 14.5 km/h
1935 14-12-2011 22:50:00 5.7 C 5.62 g/m*3 3.93 C 8.1 km/h
1936 14-12-2011 22:55:00 5.7 C 5.62 g/m*3 3.56 C 9.7 km/h
1937 14-12-2011 23:00:00 5.8 C 5.59 g/m*3 3.36 C 11.3 km/h
1938 14-12-2011 23:05:00 5.9 C 5.55 g/m*3 3.48 C 11.3 km/h
1939 14-12-2011 23:10:00 5.9 C 5.62 g/m*3 5.9 C 4.8 km/h
1940 14-12-2011 23:15:00 5.8 C 5.59 g/m*3 3.68 C 9.7 km/h
1941 14-12-2011 23:20:00 5.8 C 5.59 g/m*3 4.05 C 8.1 km/h
1942 14-12-2011 23:25:00 5.7 C 5.55 g/m*3 2.69 C 14.5 km/h
1943 14-12-2011 23:30:00 5.6 C 5.59 g/m*3 3.81 C 8.1 km/h
1944 14-12-2011 23:35:00 5.7 C 5.55 g/m*3 3.93 C 8.1 km/h
1945 14-12-2011 23:40:00 5.7 C 5.62 g/m*3 5.7 C 4.8 km/h
1946 14-12-2011 23:45:00 5.7 C 5.48 g/m*3 3.23 C 11.3 km/h
1947 14-12-2011 23:50:00 5.8 C 5.44 g/m*3 3.07 C 12.9 km/h
1948 14-12-2011 23:55:00 6 C 5.52 g/m*3 3.31 C 12.9 km/h
1949 15-12-2011 00:00:00 6.1 C 5.63 g/m*3 3.72 C 11.3 km/h
1950 15-12-2011 00:05:00 6.1 C 5.55 g/m*3 3.72 C 11.3 km/h
Sensor: Nr:Datum:Temp:Abs-Feuchte:Windchill:Wind:
Aussen-T/F 1951 15-12-2011 00:10:00 6.2 C 5.44 g/m*3 3.56 C 12.9 km/h
1952 15-12-2011 00:15:00 6.4 C 5.44 g/m*3 3.32 C 16.1 km/h
1953 15-12-2011 00:20:00 6.4 C 5.36 g/m*3 3.55 C 14.5 km/h
1954 15-12-2011 00:25:00 6.4 C 5.36 g/m*3 3.32 C 16.1 km/h
1955 15-12-2011 00:30:00 6.4 C 5.29 g/m*3 3.11 C 17.7 km/h
1956 15-12-2011 00:35:00 6.4 C 5.29 g/m*3 3.11 C 17.7 km/h
1957 15-12-2011 00:40:00 6.4 C 5.29 g/m*3 3.55 C 14.5 km/h
1958 15-12-2011 00:45:00 6.4 C 5.29 g/m*3 3.11 C 17.7 km/h
1959 15-12-2011 00:50:00 6.3 C 5.33 g/m*3 4.27 C 9.7 km/h
1960 15-12-2011 00:55:00 6.2 C 5.29 g/m*3 3.07 C 16.1 km/h
1961 15-12-2011 01:00:00 6.2 C 5.37 g/m*3 4.52 C 8.1 km/h
1962 15-12-2011 01:05:00 6.1 C 5.33 g/m*3 3.72 C 11.3 km/h
1963 15-12-2011 01:10:00 6 C 5.37 g/m*3 4.75 C 6.4 km/h
1964 15-12-2011 01:15:00 6 C 5.37 g/m*3 3.6 C 11.3 km/h
1965 15-12-2011 01:20:00 5.8 C 5.37 g/m*3 5.8 C 4.8 km/h
1966 15-12-2011 01:25:00 5.7 C 5.41 g/m*3 4.4 C 6.4 km/h
1967 15-12-2011 01:30:00 5.6 C 5.51 g/m*3 5.6 C 4.8 km/h
1968 15-12-2011 01:35:00 5.6 C 5.44 g/m*3 3.11 C 11.3 km/h
1969 15-12-2011 01:40:00 5.6 C 5.44 g/m*3 5.6 C 3.2 km/h
1970 15-12-2011 01:45:00 5.7 C 5.48 g/m*3 2.45 C 16.1 km/h
1971 15-12-2011 01:50:00 5.9 C 5.41 g/m*3 2.93 C 14.5 km/h
1972 15-12-2011 01:55:00 6.1 C 5.48 g/m*3 3.18 C 14.5 km/h
1973 15-12-2011 02:00:00 6.2 C 5.44 g/m*3 3.3 C 14.5 km/h
1974 15-12-2011 02:05:00 6.2 C 5.44 g/m*3 3.56 C 12.9 km/h
1975 15-12-2011 02:10:00 6.3 C 5.48 g/m*3 4.64 C 8.1 km/h
Sensor: Nr:Datum:Temp:Abs-Feuchte:Windchill:Wind:
Aussen-T/F 1976 15-12-2011 02:15:00 6.1 C 5.48 g/m*3 4.86 C 6.4 km/h
1977 15-12-2011 02:20:00 5.9 C 5.48 g/m*3 5.9 C 4.8 km/h
1978 15-12-2011 02:25:00 5.8 C 5.37 g/m*3 3.36 C 11.3 km/h
1979 15-12-2011 02:30:00 5.8 C 5.37 g/m*3 5.8 C 4.8 km/h
1980 15-12-2011 02:35:00 5.8 C 5.37 g/m*3 5.8 C 4.8 km/h
1981 15-12-2011 02:40:00 5.9 C 5.62 g/m*3 5.9 C 4.8 km/h
1982 15-12-2011 02:45:00 5.8 C 5.59 g/m*3 5.8 C 4.8 km/h
1983 15-12-2011 02:50:00 5.9 C 5.41 g/m*3 2.93 C 14.5 km/h
1984 15-12-2011 02:55:00 5.9 C 5.41 g/m*3 4.63 C 6.4 km/h
1985 15-12-2011 03:00:00 5.9 C 5.41 g/m*3 4.63 C 6.4 km/h
1986 15-12-2011 03:05:00 5.8 C 5.52 g/m*3 5.8 C 4.8 km/h
1987 15-12-2011 03:10:00 5.7 C 5.41 g/m*3 3.93 C 8.1 km/h
1988 15-12-2011 03:15:00 5.9 C 5.48 g/m*3 3.8 C 9.7 km/h
1989 15-12-2011 03:20:00 5.9 C 5.55 g/m*3 5.9 C 4.8 km/h
1990 15-12-2011 03:25:00 5.8 C 5.59 g/m*3 4.52 C 6.4 km/h
1991 15-12-2011 03:30:00 5.7 C 5.62 g/m*3 5.7 C 3.2 km/h
1992 15-12-2011 03:35:00 5.6 C 5.59 g/m*3 4.29 C 6.4 km/h
1993 15-12-2011 03:40:00 5.7 C 5.62 g/m*3 4.4 C 6.4 km/h
1994 15-12-2011 03:45:00 5.8 C 5.73 g/m*3 4.05 C 8.1 km/h
1995 15-12-2011 03:50:00 5.9 C 5.77 g/m*3 2.93 C 14.5 km/h
1996 15-12-2011 03:55:00 5.8 C 5.8 g/m*3 5.8 C 4.8 km/h
1997 15-12-2011 04:00:00 5.6 C 5.87 g/m*3 4.29 C 6.4 km/h
1998 15-12-2011 04:05:00 5.4 C 5.79 g/m*3 2.58 C 12.9 km/h
1999 15-12-2011 04:10:00 5.1 C 5.81 g/m*3 5.1 C 4.8 km/h
2000 15-12-2011 04:15:00 4.9 C 5.74 g/m*3 4.9 C 3.2 km/h
Sensor: Nr:Datum:Temp:Abs-Feuchte:Windchill:Wind:
Aussen-T/F 2001 15-12-2011 04:20:00 4.7 C 5.73 g/m*3 3.25 C 6.4 km/h
2002 15-12-2011 04:25:00 4.6 C 5.69 g/m*3 3.13 C 6.4 km/h
2003 15-12-2011 04:30:00 4.4 C 5.62 g/m*3 4.4 C 4.8 km/h
2004 15-12-2011 04:35:00 4.3 C 5.64 g/m*3 2.29 C 8.1 km/h
2005 15-12-2011 04:40:00 4.1 C 5.63 g/m*3 4.1 C 3.2 km/h
2006 15-12-2011 04:45:00 4 C 5.66 g/m*3 4 C 4.8 km/h
2007 15-12-2011 04:50:00 4 C 5.66 g/m*3 4 C 4.8 km/h
2008 15-12-2011 04:55:00 4.1 C 5.7 g/m*3 4.1 C 3.2 km/h
2009 15-12-2011 05:00:00 4.1 C 5.7 g/m*3 4.1 C 4.8 km/h
2010 15-12-2011 05:05:00 4.2 C 5.73 g/m*3 4.2 C 4.8 km/h
2011 15-12-2011 05:10:00 4.1 C 5.7 g/m*3 4.1 C 4.8 km/h
2012 15-12-2011 05:15:00 4.3 C 5.71 g/m*3 2.29 C 8.1 km/h
2013 15-12-2011 05:20:00 4.6 C 5.76 g/m*3 3.13 C 6.4 km/h
2014 15-12-2011 05:25:00 4.6 C 5.76 g/m*3 4.6 C 3.2 km/h
2015 15-12-2011 05:30:00 4.5 C 5.72 g/m*3 2.52 C 8.1 km/h
2016 15-12-2011 05:35:00 4.5 C 5.72 g/m*3 2.52 C 8.1 km/h
2017 15-12-2011 05:40:00 4.5 C 5.65 g/m*3 4.5 C 4.8 km/h
2018 15-12-2011 05:45:00 4.5 C 5.65 g/m*3 2.52 C 8.1 km/h
2019 15-12-2011 05:50:00 4.7 C 5.73 g/m*3 2.37 C 9.7 km/h
2020 15-12-2011 05:55:00 4.8 C 5.77 g/m*3 1.85 C 12.9 km/h
2021 15-12-2011 06:00:00 4.9 C 5.74 g/m*3 2.27 C 11.3 km/h
2022 15-12-2011 06:05:00 4.9 C 5.67 g/m*3 2.99 C 8.1 km/h
2023 15-12-2011 06:10:00 5.1 C 5.75 g/m*3 3.71 C 6.4 km/h
2024 15-12-2011 06:15:00 5.1 C 5.81 g/m*3 1.71 C 16.1 km/h
2025 15-12-2011 06:20:00 5.1 C 5.75 g/m*3 2.84 C 9.7 km/h
Sensor: Nr:Datum:Temp:Abs-Feuchte:Windchill:Wind:
Aussen-T/F 2026 15-12-2011 06:25:00 5.1 C 5.75 g/m*3 1.49 C 17.7 km/h
2027 15-12-2011 06:30:00 5 C 5.71 g/m*3 3.11 C 8.1 km/h
2028 15-12-2011 06:35:00 4.9 C 5.67 g/m*3 2.61 C 9.7 km/h
2029 15-12-2011 06:40:00 4.8 C 5.63 g/m*3 2.49 C 9.7 km/h
2030 15-12-2011 06:45:00 4.9 C 5.67 g/m*3 2.27 C 11.3 km/h
2031 15-12-2011 06:50:00 4.9 C 5.67 g/m*3 1.97 C 12.9 km/h
2032 15-12-2011 06:55:00 5 C 5.64 g/m*3 2.39 C 11.3 km/h
2033 15-12-2011 07:00:00 4.9 C 5.67 g/m*3 2.99 C 8.1 km/h
2034 15-12-2011 07:05:00 4.9 C 5.74 g/m*3 4.9 C 4.8 km/h
2035 15-12-2011 07:10:00 4.8 C 5.83 g/m*3 4.8 C 4.8 km/h
2036 15-12-2011 07:15:00 4.7 C 5.8 g/m*3 3.25 C 6.4 km/h
2037 15-12-2011 07:20:00 4.6 C 5.76 g/m*3 4.6 C 4.8 km/h
2038 15-12-2011 07:25:00 4.5 C 5.78 g/m*3 4.5 C 4.8 km/h
2039 15-12-2011 07:30:00 4.4 C 5.75 g/m*3 4.4 C 4.8 km/h
2040 15-12-2011 07:35:00 4.3 C 5.64 g/m*3 1.55 C 11.3 km/h
2041 15-12-2011 07:40:00 4.6 C 5.69 g/m*3 2.64 C 8.1 km/h
2042 15-12-2011 07:45:00 4.8 C 5.7 g/m*3 3.36 C 6.4 km/h
2043 15-12-2011 07:50:00 4.8 C 5.63 g/m*3 4.8 C 4.8 km/h
2044 15-12-2011 07:55:00 4.8 C 5.63 g/m*3 4.8 C 3.2 km/h
2045 15-12-2011 08:00:00 4.9 C 5.6 g/m*3 4.9 C 4.8 km/h
2046 15-12-2011 08:05:00 4.9 C 5.6 g/m*3 2.99 C 8.1 km/h
2047 15-12-2011 08:10:00 5.1 C 5.61 g/m*3 2.51 C 11.3 km/h
2048 15-12-2011 08:15:00 5.3 C 5.61 g/m*3 2.75 C 11.3 km/h
2049 15-12-2011 08:20:00 5.3 C 5.54 g/m*3 3.94 C 6.4 km/h
2050 15-12-2011 08:25:00 5.3 C 5.61 g/m*3 5.3 C 4.8 km/h
Sensor: Nr:Datum:Temp:Abs-Feuchte:Windchill:Wind:
Aussen-T/F 2051 15-12-2011 08:30:00 5.2 C 5.65 g/m*3 5.2 C 4.8 km/h
2052 15-12-2011 08:35:00 5.2 C 5.71 g/m*3 5.2 C 4.8 km/h
2053 15-12-2011 08:40:00 5.1 C 5.75 g/m*3 5.1 C 3.2 km/h
2054 15-12-2011 08:45:00 5.1 C 5.68 g/m*3 2.22 C 12.9 km/h
2055 15-12-2011 08:50:00 5.1 C 5.75 g/m*3 5.1 C 4.8 km/h
2056 15-12-2011 08:55:00 5.1 C 5.68 g/m*3 3.71 C 6.4 km/h
2057 15-12-2011 09:00:00 5.2 C 5.71 g/m*3 2.96 C 9.7 km/h
2058 15-12-2011 09:05:00 5.3 C 5.68 g/m*3 3.94 C 6.4 km/h
2059 15-12-2011 09:10:00 5.4 C 5.65 g/m*3 2.87 C 11.3 km/h
2060 15-12-2011 09:15:00 5.6 C 5.66 g/m*3 3.81 C 8.1 km/h
2061 15-12-2011 09:20:00 5.6 C 5.73 g/m*3 5.6 C 4.8 km/h
2062 15-12-2011 09:25:00 5.8 C 5.66 g/m*3 2.58 C 16.1 km/h
2063 15-12-2011 09:30:00 5.9 C 5.7 g/m*3 4.63 C 6.4 km/h
2064 15-12-2011 09:35:00 5.9 C 5.77 g/m*3 4.17 C 8.1 km/h
2065 15-12-2011 09:40:00 6 C 5.73 g/m*3 4.75 C 6.4 km/h
2066 15-12-2011 09:45:00 6.1 C 5.7 g/m*3 4.86 C 6.4 km/h
2067 15-12-2011 09:50:00 6.3 C 5.7 g/m*3 3.68 C 12.9 km/h
2068 15-12-2011 09:55:00 6.3 C 5.63 g/m*3 4.27 C 9.7 km/h
2069 15-12-2011 10:00:00 6.4 C 5.66 g/m*3 5.21 C 6.4 km/h
2070 15-12-2011 10:05:00 6.4 C 5.74 g/m*3 6.4 C 4.8 km/h
2071 15-12-2011 10:10:00 6.4 C 5.74 g/m*3 5.21 C 6.4 km/h
2072 15-12-2011 10:15:00 6.4 C 5.66 g/m*3 6.4 C 4.8 km/h
2073 15-12-2011 10:20:00 6.4 C 5.74 g/m*3 4.08 C 11.3 km/h
2074 15-12-2011 10:25:00 6.5 C 5.7 g/m*3 4.87 C 8.1 km/h
2075 15-12-2011 10:30:00 6.6 C 5.66 g/m*3 4.63 C 9.7 km/h
Sensor: Nr:Datum:Temp:Abs-Feuchte:Windchill:Wind:
Aussen-T/F 2076 15-12-2011 10:35:00 6.6 C 5.59 g/m*3 3.57 C 16.1 km/h
2077 15-12-2011 10:40:00 6.7 C 5.62 g/m*3 3.48 C 17.7 km/h
2078 15-12-2011 10:45:00 6.7 C 5.7 g/m*3 5.56 C 6.4 km/h
2079 15-12-2011 10:50:00 6.7 C 5.62 g/m*3 3.92 C 14.5 km/h
2080 15-12-2011 10:55:00 6.7 C 5.62 g/m*3 4.75 C 9.7 km/h
2081 15-12-2011 11:00:00 6.7 C 5.55 g/m*3 5.11 C 8.1 km/h
2082 15-12-2011 11:05:00 6.7 C 5.55 g/m*3 4.44 C 11.3 km/h
2083 15-12-2011 11:10:00 6.8 C 5.58 g/m*3 5.67 C 6.4 km/h
2084 15-12-2011 11:15:00 6.9 C 5.54 g/m*3 5.34 C 8.1 km/h
2085 15-12-2011 11:20:00 6.9 C 5.54 g/m*3 5.79 C 6.4 km/h
2086 15-12-2011 11:25:00 7.1 C 5.54 g/m*3 5.58 C 8.1 km/h
2087 15-12-2011 11:30:00 7.1 C 5.54 g/m*3 5.23 C 9.7 km/h
2088 15-12-2011 11:35:00 7.1 C 5.62 g/m*3 7.1 C 4.8 km/h
2089 15-12-2011 11:40:00 7.1 C 5.62 g/m*3 5.23 C 9.7 km/h
2090 15-12-2011 11:45:00 7 C 5.73 g/m*3 5.46 C 8.1 km/h
2091 15-12-2011 11:50:00 6.9 C 5.7 g/m*3 6.9 C 4.8 km/h
2092 15-12-2011 11:55:00 6.9 C 5.77 g/m*3 6.9 C 3.2 km/h
2093 15-12-2011 12:00:00 6.9 C 5.7 g/m*3 5.79 C 6.4 km/h
2094 15-12-2011 12:05:00 7 C 5.58 g/m*3 5.46 C 8.1 km/h
2095 15-12-2011 12:10:00 7.1 C 5.69 g/m*3 5.58 C 8.1 km/h
2096 15-12-2011 12:15:00 7.1 C 5.62 g/m*3 4.92 C 11.3 km/h
2097 15-12-2011 12:20:00 7.1 C 5.62 g/m*3 5.58 C 8.1 km/h
2098 15-12-2011 12:25:00 7.2 C 5.73 g/m*3 5.69 C 8.1 km/h
2099 15-12-2011 12:30:00 7.2 C 5.73 g/m*3 7.2 C 4.8 km/h
2100 15-12-2011 12:35:00 7.3 C 5.61 g/m*3 5.81 C 8.1 km/h
Sensor: Nr:Datum:Temp:Abs-Feuchte:Windchill:Wind:
Aussen-T/F 2101 15-12-2011 12:40:00 7.4 C 5.65 g/m*3 4.78 C 14.5 km/h
2102 15-12-2011 12:45:00 7.4 C 5.65 g/m*3 5.58 C 9.7 km/h
2103 15-12-2011 12:50:00 7.4 C 5.73 g/m*3 5.93 C 8.1 km/h
2104 15-12-2011 12:55:00 7.4 C 5.73 g/m*3 5.02 C 12.9 km/h
2105 15-12-2011 13:00:00 7.4 C 5.73 g/m*3 5.58 C 9.7 km/h
2106 15-12-2011 13:05:00 7.4 C 5.73 g/m*3 5.58 C 9.7 km/h
2107 15-12-2011 13:10:00 7.4 C 5.73 g/m*3 5.58 C 9.7 km/h
2108 15-12-2011 13:15:00 7.4 C 5.65 g/m*3 4.78 C 14.5 km/h
2109 15-12-2011 13:20:00 7.4 C 5.73 g/m*3 4.56 C 16.1 km/h
2110 15-12-2011 13:25:00 7.3 C 5.61 g/m*3 4.9 C 12.9 km/h
2111 15-12-2011 13:30:00 7.3 C 5.69 g/m*3 4.66 C 14.5 km/h
2112 15-12-2011 13:35:00 7.3 C 5.69 g/m*3 5.47 C 9.7 km/h
2113 15-12-2011 13:40:00 7.3 C 5.69 g/m*3 4.23 C 17.7 km/h
2114 15-12-2011 13:45:00 7.3 C 5.77 g/m*3 5.47 C 9.7 km/h
2115 15-12-2011 13:50:00 7.3 C 5.85 g/m*3 4.66 C 14.5 km/h
2116 15-12-2011 13:55:00 7.3 C 5.93 g/m*3 5.16 C 11.3 km/h
2117 15-12-2011 14:00:00 7.2 C 5.89 g/m*3 5.04 C 11.3 km/h
2118 15-12-2011 14:05:00 7.2 C 5.89 g/m*3 4.77 C 12.9 km/h
2119 15-12-2011 14:10:00 7.3 C 5.77 g/m*3 4.44 C 16.1 km/h
2120 15-12-2011 14:15:00 7.3 C 5.69 g/m*3 4.23 C 17.7 km/h
2121 15-12-2011 14:20:00 7.3 C 5.61 g/m*3 4.44 C 16.1 km/h
2122 15-12-2011 14:25:00 7.4 C 5.73 g/m*3 5.58 C 9.7 km/h
2123 15-12-2011 14:30:00 7.4 C 5.65 g/m*3 5.02 C 12.9 km/h
2124 15-12-2011 14:35:00 7.4 C 5.65 g/m*3 4.78 C 14.5 km/h
2125 15-12-2011 14:40:00 7.4 C 5.57 g/m*3 5.28 C 11.3 km/h
Sensor: Nr:Datum:Temp:Abs-Feuchte:Windchill:Wind:
Aussen-T/F 2126 15-12-2011 14:45:00 7.4 C 5.57 g/m*3 5.02 C 12.9 km/h
2127 15-12-2011 14:50:00 7.4 C 5.73 g/m*3 4.56 C 16.1 km/h
2128 15-12-2011 14:55:00 7.3 C 5.61 g/m*3 4.44 C 16.1 km/h
2129 15-12-2011 15:00:00 7.3 C 5.69 g/m*3 4.44 C 16.1 km/h
2130 15-12-2011 15:05:00 7.3 C 5.69 g/m*3 5.16 C 11.3 km/h
2131 15-12-2011 15:10:00 7.3 C 5.77 g/m*3 4.9 C 12.9 km/h
2132 15-12-2011 15:15:00 7.3 C 5.77 g/m*3 5.47 C 9.7 km/h
2133 15-12-2011 15:20:00 7.2 C 5.73 g/m*3 4.11 C 17.7 km/h
2134 15-12-2011 15:25:00 7.2 C 5.73 g/m*3 4.53 C 14.5 km/h
2135 15-12-2011 15:30:00 7.1 C 5.77 g/m*3 4.92 C 11.3 km/h
2136 15-12-2011 15:35:00 6.9 C 5.77 g/m*3 4.16 C 14.5 km/h
2137 15-12-2011 15:40:00 6.8 C 5.74 g/m*3 3.07 C 22.5 km/h
2138 15-12-2011 15:45:00 6.7 C 5.85 g/m*3 4.17 C 12.9 km/h
2139 15-12-2011 15:50:00 6.6 C 5.81 g/m*3 3.79 C 14.5 km/h
2140 15-12-2011 15:55:00 6.5 C 5.77 g/m*3 3.67 C 14.5 km/h
2141 15-12-2011 16:00:00 6.4 C 5.81 g/m*3 3.8 C 12.9 km/h
2142 15-12-2011 16:05:00 6.5 C 5.77 g/m*3 3.92 C 12.9 km/h
2143 15-12-2011 16:10:00 6.5 C 5.77 g/m*3 4.2 C 11.3 km/h
2144 15-12-2011 16:15:00 6.5 C 5.7 g/m*3 3.44 C 16.1 km/h
2145 15-12-2011 16:20:00 6.5 C 5.7 g/m*3 4.2 C 11.3 km/h
2146 15-12-2011 16:25:00 6.5 C 5.77 g/m*3 4.2 C 11.3 km/h
2147 15-12-2011 16:30:00 6.5 C 5.77 g/m*3 4.2 C 11.3 km/h
2148 15-12-2011 16:35:00 6.5 C 5.77 g/m*3 4.51 C 9.7 km/h
2149 15-12-2011 16:40:00 6.4 C 5.74 g/m*3 4.75 C 8.1 km/h
2150 15-12-2011 16:45:00 6.4 C 5.74 g/m*3 4.75 C 8.1 km/h
Sensor: Nr:Datum:Temp:Abs-Feuchte:Windchill:Wind:
Aussen-T/F 2151 15-12-2011 16:50:00 6.4 C 5.74 g/m*3 4.39 C 9.7 km/h
2152 15-12-2011 16:55:00 6.5 C 5.77 g/m*3 3.23 C 17.7 km/h
2153 15-12-2011 17:00:00 6.6 C 5.81 g/m*3 4.32 C 11.3 km/h
2154 15-12-2011 17:05:00 6.5 C 5.77 g/m*3 4.2 C 11.3 km/h
2155 15-12-2011 17:10:00 6.6 C 5.81 g/m*3 4.63 C 9.7 km/h
2156 15-12-2011 17:15:00 6.6 C 5.81 g/m*3 3.79 C 14.5 km/h
2157 15-12-2011 17:20:00 6.6 C 5.74 g/m*3 4.04 C 12.9 km/h
2158 15-12-2011 17:25:00 6.6 C 5.74 g/m*3 4.32 C 11.3 km/h
2159 15-12-2011 17:30:00 6.6 C 5.74 g/m*3 4.32 C 11.3 km/h
2160 15-12-2011 17:35:00 6.5 C 5.7 g/m*3 4.51 C 9.7 km/h
2161 15-12-2011 17:40:00 6.5 C 5.7 g/m*3 4.2 C 11.3 km/h
2162 15-12-2011 17:45:00 6.5 C 5.7 g/m*3 3.04 C 19.3 km/h
2163 15-12-2011 17:50:00 6.6 C 5.66 g/m*3 3.17 C 19.3 km/h
2164 15-12-2011 17:55:00 6.6 C 5.74 g/m*3 3.79 C 14.5 km/h
2165 15-12-2011 18:00:00 6.5 C 5.62 g/m*3 3.92 C 12.9 km/h
2166 15-12-2011 18:05:00 6.5 C 5.62 g/m*3 4.2 C 11.3 km/h
2167 15-12-2011 18:10:00 6.5 C 5.62 g/m*3 3.92 C 12.9 km/h
2168 15-12-2011 18:15:00 6.6 C 5.66 g/m*3 3.57 C 16.1 km/h
2169 15-12-2011 18:20:00 6.6 C 5.74 g/m*3 3.79 C 14.5 km/h
2170 15-12-2011 18:25:00 6.6 C 5.66 g/m*3 4.04 C 12.9 km/h
2171 15-12-2011 18:30:00 6.6 C 5.74 g/m*3 3.79 C 14.5 km/h
2172 15-12-2011 18:35:00 6.6 C 5.74 g/m*3 4.04 C 12.9 km/h
2173 15-12-2011 18:40:00 6.6 C 5.74 g/m*3 4.32 C 11.3 km/h
2174 15-12-2011 18:45:00 6.5 C 5.77 g/m*3 3.67 C 14.5 km/h
2175 15-12-2011 18:50:00 6.5 C 5.77 g/m*3 3.04 C 19.3 km/h
Sensor: Nr:Datum:Temp:Abs-Feuchte:Windchill:Wind:
Aussen-T/F 2176 15-12-2011 18:55:00 6.5 C 5.85 g/m*3 3.67 C 14.5 km/h
2177 15-12-2011 19:00:00 6.4 C 5.81 g/m*3 4.08 C 11.3 km/h
2178 15-12-2011 19:05:00 6.3 C 5.85 g/m*3 3.43 C 14.5 km/h
2179 15-12-2011 19:10:00 6.3 C 5.85 g/m*3 3.68 C 12.9 km/h
2180 15-12-2011 19:15:00 6.3 C 5.85 g/m*3 2.98 C 17.7 km/h
2181 15-12-2011 19:20:00 6.4 C 5.89 g/m*3 3.8 C 12.9 km/h
2182 15-12-2011 19:25:00 6.4 C 5.89 g/m*3 4.08 C 11.3 km/h
2183 15-12-2011 19:30:00 6.4 C 5.89 g/m*3 5.21 C 6.4 km/h
2184 15-12-2011 19:35:00 6.4 C 5.89 g/m*3 3.32 C 16.1 km/h
2185 15-12-2011 19:40:00 6.4 C 5.89 g/m*3 3.11 C 17.7 km/h
2186 15-12-2011 19:45:00 6.5 C 5.92 g/m*3 3.67 C 14.5 km/h
2187 15-12-2011 19:50:00 6.4 C 5.89 g/m*3 5.21 C 6.4 km/h
2188 15-12-2011 19:55:00 6.5 C 5.92 g/m*3 3.44 C 16.1 km/h
2189 15-12-2011 20:00:00 6.5 C 5.92 g/m*3 3.23 C 17.7 km/h
2190 15-12-2011 20:05:00 6.5 C 5.92 g/m*3 3.67 C 14.5 km/h
2191 15-12-2011 20:10:00 6.5 C 5.85 g/m*3 3.67 C 14.5 km/h
2192 15-12-2011 20:15:00 6.5 C 5.85 g/m*3 4.2 C 11.3 km/h
2193 15-12-2011 20:20:00 6.6 C 5.89 g/m*3 3.17 C 19.3 km/h
2194 15-12-2011 20:25:00 6.6 C 5.89 g/m*3 4.04 C 12.9 km/h
2195 15-12-2011 20:30:00 6.5 C 5.85 g/m*3 3.92 C 12.9 km/h
2196 15-12-2011 20:35:00 6.5 C 5.85 g/m*3 3.67 C 14.5 km/h
2197 15-12-2011 20:40:00 6.4 C 5.81 g/m*3 3.55 C 14.5 km/h
2198 15-12-2011 20:45:00 6.4 C 5.81 g/m*3 2.91 C 19.3 km/h
2199 15-12-2011 20:50:00 6.4 C 5.89 g/m*3 3.8 C 12.9 km/h
2200 15-12-2011 20:55:00 6.3 C 5.85 g/m*3 3.43 C 14.5 km/h
Sensor: Nr:Datum:Temp:Abs-Feuchte:Windchill:Wind:
Aussen-T/F 2201 15-12-2011 21:00:00 6.3 C 5.85 g/m*3 3.68 C 12.9 km/h
2202 15-12-2011 21:05:00 6.3 C 5.85 g/m*3 2.98 C 17.7 km/h
2203 15-12-2011 21:10:00 6.2 C 5.81 g/m*3 4.15 C 9.7 km/h
2204 15-12-2011 21:15:00 6.2 C 5.81 g/m*3 3.3 C 14.5 km/h
2205 15-12-2011 21:20:00 6.2 C 5.81 g/m*3 2.48 C 20.9 km/h
2206 15-12-2011 21:25:00 6.2 C 5.74 g/m*3 3.56 C 12.9 km/h
2207 15-12-2011 21:30:00 6.3 C 5.77 g/m*3 3.68 C 12.9 km/h
2208 15-12-2011 21:35:00 6.3 C 5.77 g/m*3 2.27 C 24.1 km/h
2209 15-12-2011 21:40:00 6.3 C 5.77 g/m*3 3.96 C 11.3 km/h
2210 15-12-2011 21:45:00 6.3 C 5.77 g/m*3 3.96 C 11.3 km/h
2211 15-12-2011 21:50:00 6.2 C 5.81 g/m*3 3.84 C 11.3 km/h
2212 15-12-2011 21:55:00 6.2 C 5.81 g/m*3 4.52 C 8.1 km/h
2213 15-12-2011 22:00:00 6.2 C 5.81 g/m*3 2.86 C 17.7 km/h
2214 15-12-2011 22:05:00 6.2 C 5.74 g/m*3 3.3 C 14.5 km/h
2215 15-12-2011 22:10:00 6.2 C 5.74 g/m*3 3.3 C 14.5 km/h
2216 15-12-2011 22:15:00 6.3 C 5.77 g/m*3 3.2 C 16.1 km/h
2217 15-12-2011 22:20:00 6.3 C 5.77 g/m*3 4.64 C 8.1 km/h
2218 15-12-2011 22:25:00 6.3 C 5.77 g/m*3 3.96 C 11.3 km/h
2219 15-12-2011 22:30:00 6.3 C 5.77 g/m*3 3.96 C 11.3 km/h
2220 15-12-2011 22:35:00 6.3 C 5.77 g/m*3 3.68 C 12.9 km/h
2221 15-12-2011 22:40:00 6.3 C 5.77 g/m*3 3.96 C 11.3 km/h
2222 15-12-2011 22:45:00 6.3 C 5.77 g/m*3 4.64 C 8.1 km/h
2223 15-12-2011 22:50:00 6.3 C 5.77 g/m*3 4.27 C 9.7 km/h
2224 15-12-2011 22:55:00 6.3 C 5.77 g/m*3 3.96 C 11.3 km/h
2225 15-12-2011 23:00:00 6.4 C 5.74 g/m*3 4.08 C 11.3 km/h
Sensor: Nr:Datum:Temp:Abs-Feuchte:Windchill:Wind:
Aussen-T/F 2226 15-12-2011 23:05:00 6.4 C 5.81 g/m*3 4.39 C 9.7 km/h
2227 15-12-2011 23:10:00 6.4 C 5.81 g/m*3 4.39 C 9.7 km/h
2228 15-12-2011 23:15:00 6.4 C 5.74 g/m*3 4.75 C 8.1 km/h
2229 15-12-2011 23:20:00 6.4 C 5.81 g/m*3 4.39 C 9.7 km/h
2230 15-12-2011 23:25:00 6.4 C 5.81 g/m*3 4.75 C 8.1 km/h
2231 15-12-2011 23:30:00 6.3 C 5.77 g/m*3 4.27 C 9.7 km/h
2232 15-12-2011 23:35:00 6.3 C 5.77 g/m*3 4.64 C 8.1 km/h
2233 15-12-2011 23:40:00 6.4 C 5.81 g/m*3 4.75 C 8.1 km/h
2234 15-12-2011 23:45:00 6.4 C 5.81 g/m*3 4.75 C 8.1 km/h
2235 15-12-2011 23:50:00 6.4 C 5.81 g/m*3 6.4 C 4.8 km/h
2236 15-12-2011 23:55:00 6.4 C 5.81 g/m*3 4.75 C 8.1 km/h
2237 16-12-2011 00:00:00 6.4 C 5.81 g/m*3 4.39 C 9.7 km/h
2238 16-12-2011 00:05:00 6.5 C 5.85 g/m*3 4.87 C 8.1 km/h
2239 16-12-2011 00:10:00 6.5 C 5.85 g/m*3 4.51 C 9.7 km/h
2240 16-12-2011 00:15:00 6.4 C 5.81 g/m*3 5.21 C 6.4 km/h
2241 16-12-2011 00:20:00 6.5 C 5.85 g/m*3 6.5 C 4.8 km/h
2242 16-12-2011 00:25:00 6.5 C 5.92 g/m*3 6.5 C 4.8 km/h
2243 16-12-2011 00:30:00 6.5 C 5.85 g/m*3 6.5 C 4.8 km/h
2244 16-12-2011 00:35:00 6.6 C 5.89 g/m*3 4.63 C 9.7 km/h
2245 16-12-2011 00:40:00 6.6 C 5.96 g/m*3 4.99 C 8.1 km/h
2246 16-12-2011 00:45:00 6.5 C 5.92 g/m*3 6.5 C 4.8 km/h
2247 16-12-2011 00:50:00 6.4 C 5.89 g/m*3 6.4 C 3.2 km/h
2248 16-12-2011 00:55:00 6.4 C 5.81 g/m*3 6.4 C 3.2 km/h
2249 16-12-2011 01:00:00 6.4 C 5.96 g/m*3 6.4 C 4.8 km/h
2250 16-12-2011 01:05:00 6.4 C 5.89 g/m*3 6.4 C 1.6 km/h
Sensor: Nr:Datum:Temp:Abs-Feuchte:Windchill:Wind:
Aussen-T/F 2251 16-12-2011 01:10:00 6.4 C 5.89 g/m*3 6.4 C 4.8 km/h
2252 16-12-2011 01:15:00 6.4 C 5.89 g/m*3 6.4 C 4.8 km/h
2253 16-12-2011 01:20:00 6.4 C 5.96 g/m*3 6.4 C 3.2 km/h
2254 16-12-2011 01:25:00 6.3 C 5.92 g/m*3 6.3 C 1.6 km/h
2255 16-12-2011 01:30:00 6.2 C 5.81 g/m*3 6.2 C 4.8 km/h
2256 16-12-2011 01:35:00 6.2 C 5.74 g/m*3 6.2 C 3.2 km/h
2257 16-12-2011 01:40:00 6.3 C 5.85 g/m*3 6.3 C 3.2 km/h
2258 16-12-2011 01:45:00 6.2 C 5.81 g/m*3 6.2 C 1.6 km/h
2259 16-12-2011 01:50:00 6.1 C 5.77 g/m*3 6.1 C 4.8 km/h
2260 16-12-2011 01:55:00 6 C 5.95 g/m*3 6 C 1.6 km/h
2261 16-12-2011 02:00:00 5.8 C 5.8 g/m*3 3.68 C 9.7 km/h
2262 16-12-2011 02:05:00 5.8 C 5.8 g/m*3 4.52 C 6.4 km/h
2263 16-12-2011 02:10:00 5.8 C 5.73 g/m*3 5.8 C 4.8 km/h
2264 16-12-2011 02:15:00 6 C 5.81 g/m*3 6 C 3.2 km/h
2265 16-12-2011 02:20:00 6 C 5.88 g/m*3 6 C 3.2 km/h
2266 16-12-2011 02:25:00 6 C 5.81 g/m*3 6 C 4.8 km/h
2267 16-12-2011 02:30:00 6 C 5.81 g/m*3 6 C 3.2 km/h
2268 16-12-2011 02:35:00 6 C 5.95 g/m*3 6 C 4.8 km/h
2269 16-12-2011 02:40:00 5.9 C 5.98 g/m*3 4.17 C 8.1 km/h
2270 16-12-2011 02:45:00 5.8 C 5.87 g/m*3 5.8 C 4.8 km/h
2271 16-12-2011 02:50:00 5.7 C 6.05 g/m*3 5.7 C 3.2 km/h
2272 16-12-2011 02:55:00 5.6 C 5.94 g/m*3 4.29 C 6.4 km/h
2273 16-12-2011 03:00:00 5.6 C 6.01 g/m*3 5.6 C 4.8 km/h
2274 16-12-2011 03:05:00 5.5 C 5.9 g/m*3 5.5 C 3.2 km/h
2275 16-12-2011 03:10:00 5.4 C 5.93 g/m*3 5.4 C 4.8 km/h
Sensor: Nr:Datum:Temp:Abs-Feuchte:Windchill:Wind:
Aussen-T/F 2276 16-12-2011 03:15:00 5.4 C 6 g/m*3 5.4 C 3.2 km/h
2277 16-12-2011 03:20:00 5.2 C 5.99 g/m*3 5.2 C 3.2 km/h
2278 16-12-2011 03:25:00 5.2 C 6.06 g/m*3 5.2 C 3.2 km/h
2279 16-12-2011 03:30:00 5.1 C 6.09 g/m*3 5.1 C 3.2 km/h
2280 16-12-2011 03:35:00 4.9 C 6.01 g/m*3 4.9 C 1.6 km/h
2281 16-12-2011 03:40:00 4.9 C 5.94 g/m*3 4.9 C 3.2 km/h
2282 16-12-2011 03:45:00 4.8 C 5.9 g/m*3 4.8 C 4.8 km/h
2283 16-12-2011 03:50:00 4.7 C 6 g/m*3 4.7 C 4.8 km/h
2284 16-12-2011 03:55:00 4.7 C 5.86 g/m*3 4.7 C 4.8 km/h
2285 16-12-2011 04:00:00 4.7 C 5.93 g/m*3 4.7 C 4.8 km/h
2286 16-12-2011 04:05:00 4.6 C 5.89 g/m*3 4.6 C 4.8 km/h
2287 16-12-2011 04:10:00 4.6 C 5.96 g/m*3 3.13 C 6.4 km/h
2288 16-12-2011 04:15:00 4.5 C 5.85 g/m*3 4.5 C 3.2 km/h
2289 16-12-2011 04:20:00 4.5 C 5.78 g/m*3 2.52 C 8.1 km/h
2290 16-12-2011 04:25:00 4.4 C 5.81 g/m*3 2.9 C 6.4 km/h
2291 16-12-2011 04:30:00 4.4 C 5.81 g/m*3 4.4 C 4.8 km/h
2292 16-12-2011 04:35:00 4.3 C 5.77 g/m*3 4.3 C 4.8 km/h
2293 16-12-2011 04:40:00 4.3 C 5.77 g/m*3 1.55 C 11.3 km/h
2294 16-12-2011 04:45:00 4.2 C 5.67 g/m*3 1.43 C 11.3 km/h
2295 16-12-2011 04:50:00 4.1 C 5.63 g/m*3 2.05 C 8.1 km/h
2296 16-12-2011 04:55:00 4.1 C 5.7 g/m*3 2.05 C 8.1 km/h
2297 16-12-2011 05:00:00 4.1 C 5.63 g/m*3 1.65 C 9.7 km/h
2298 16-12-2011 05:05:00 3.9 C 5.56 g/m*3 1.82 C 8.1 km/h
2299 16-12-2011 05:10:00 3.9 C 5.62 g/m*3 1.41 C 9.7 km/h
2300 16-12-2011 05:15:00 3.9 C 5.68 g/m*3 1.41 C 9.7 km/h
Sensor: Nr:Datum:Temp:Abs-Feuchte:Windchill:Wind:
Aussen-T/F 2301 16-12-2011 05:20:00 3.8 C 5.58 g/m*3 1.7 C 8.1 km/h
2302 16-12-2011 05:25:00 3.7 C 5.55 g/m*3 1.18 C 9.7 km/h
2303 16-12-2011 05:30:00 3.7 C 5.55 g/m*3 3.7 C 4.8 km/h
2304 16-12-2011 05:35:00 3.7 C 5.55 g/m*3 1.58 C 8.1 km/h
2305 16-12-2011 05:40:00 3.7 C 5.61 g/m*3 1.58 C 8.1 km/h
2306 16-12-2011 05:45:00 3.7 C 5.61 g/m*3 1.58 C 8.1 km/h
2307 16-12-2011 05:50:00 3.6 C 5.57 g/m*3 3.6 C 3.2 km/h
2308 16-12-2011 05:55:00 3.6 C 5.57 g/m*3 3.6 C 4.8 km/h
2309 16-12-2011 06:00:00 3.5 C 5.53 g/m*3 1.86 C 6.4 km/h
2310 16-12-2011 06:05:00 3.4 C 5.56 g/m*3 3.4 C 3.2 km/h
2311 16-12-2011 06:10:00 3.4 C 5.56 g/m*3 3.4 C 3.2 km/h
2312 16-12-2011 06:15:00 3.4 C 5.56 g/m*3 3.4 C 4.8 km/h
2313 16-12-2011 06:20:00 3.4 C 5.56 g/m*3 0.82 C 9.7 km/h
2314 16-12-2011 06:25:00 3.3 C 5.52 g/m*3 3.3 C 3.2 km/h
2315 16-12-2011 06:30:00 3.3 C 5.52 g/m*3 1.11 C 8.1 km/h
2316 16-12-2011 06:35:00 3.3 C 5.52 g/m*3 3.3 C 3.2 km/h
2317 16-12-2011 06:40:00 3.3 C 5.52 g/m*3 3.3 C 3.2 km/h
2318 16-12-2011 06:45:00 3.3 C 5.52 g/m*3 3.3 C 4.8 km/h
2319 16-12-2011 06:50:00 3.3 C 5.52 g/m*3 1.63 C 6.4 km/h
2320 16-12-2011 06:55:00 3.4 C 5.62 g/m*3 3.4 C 4.8 km/h
2321 16-12-2011 07:00:00 3.4 C 5.62 g/m*3 3.4 C 3.2 km/h
2322 16-12-2011 07:05:00 3.5 C 5.66 g/m*3 3.5 C 3.2 km/h
2323 16-12-2011 07:10:00 3.7 C 5.73 g/m*3 2.09 C 6.4 km/h
2324 16-12-2011 07:15:00 3.8 C 5.83 g/m*3 3.8 C 3.2 km/h
2325 16-12-2011 07:20:00 3.8 C 5.83 g/m*3 3.8 C 3.2 km/h
Sensor: Nr:Datum:Temp:Abs-Feuchte:Windchill:Wind:
Aussen-T/F 2326 16-12-2011 07:25:00 3.8 C 5.83 g/m*3 3.8 C 0 km/h
2327 16-12-2011 07:30:00 3.8 C 5.83 g/m*3 3.8 C 3.2 km/h
2328 16-12-2011 07:35:00 3.8 C 5.9 g/m*3 3.8 C 1.6 km/h
2329 16-12-2011 07:40:00 3.9 C 5.94 g/m*3 3.9 C 1.6 km/h
2330 16-12-2011 07:45:00 3.9 C 5.94 g/m*3 3.9 C 3.2 km/h
2331 16-12-2011 07:50:00 4 C 6.04 g/m*3 4 C 3.2 km/h
2332 16-12-2011 07:55:00 4.1 C 6.08 g/m*3 4.1 C 3.2 km/h
2333 16-12-2011 08:00:00 4.2 C 6.12 g/m*3 4.2 C 3.2 km/h
2334 16-12-2011 08:05:00 4.2 C 6.12 g/m*3 4.2 C 1.6 km/h
2335 16-12-2011 08:10:00 4.4 C 6.2 g/m*3 4.4 C 1.6 km/h
2336 16-12-2011 08:15:00 4.6 C 6.29 g/m*3 4.6 C 3.2 km/h
2337 16-12-2011 08:20:00 4.8 C 6.37 g/m*3 4.8 C 3.2 km/h
2338 16-12-2011 08:25:00 4.9 C 6.48 g/m*3 4.9 C 1.6 km/h
2339 16-12-2011 08:30:00 5.1 C 6.57 g/m*3 5.1 C 4.8 km/h
2340 16-12-2011 08:35:00 5.4 C 6.7 g/m*3 5.4 C 4.8 km/h
2341 16-12-2011 08:40:00 5.7 C 6.83 g/m*3 4.4 C 6.4 km/h
2342 16-12-2011 08:45:00 6.3 C 7.11 g/m*3 5.1 C 6.4 km/h
2343 16-12-2011 08:50:00 6.9 C 7.39 g/m*3 5.34 C 8.1 km/h
2344 16-12-2011 08:55:00 7.3 C 7.58 g/m*3 7.3 C 4.8 km/h
2345 16-12-2011 09:00:00 7.7 C 7.78 g/m*3 7.7 C 4.8 km/h
2346 16-12-2011 09:05:00 7.9 C 7.89 g/m*3 7.9 C 4.8 km/h
2347 16-12-2011 09:10:00 8.2 C 8.04 g/m*3 8.2 C 4.8 km/h
2348 16-12-2011 09:15:00 8.4 C 8.06 g/m*3 7.52 C 6.4 km/h
2349 16-12-2011 09:20:00 8.6 C 8.08 g/m*3 7.01 C 9.7 km/h
2350 16-12-2011 09:25:00 8.8 C 8.01 g/m*3 7.58 C 8.1 km/h
Sensor: Nr:Datum:Temp:Abs-Feuchte:Windchill:Wind:
Aussen-T/F 2351 16-12-2011 09:30:00 9.1 C 8.07 g/m*3 7.61 C 9.7 km/h
2352 16-12-2011 09:35:00 9.2 C 8.13 g/m*3 8.05 C 8.1 km/h
2353 16-12-2011 09:40:00 9.3 C 8.18 g/m*3 7.58 C 11.3 km/h
2354 16-12-2011 09:45:00 9.2 C 8.13 g/m*3 8.05 C 8.1 km/h
2355 16-12-2011 09:50:00 9.2 C 8.13 g/m*3 7.46 C 11.3 km/h
2356 16-12-2011 09:55:00 9.4 C 8.14 g/m*3 7.97 C 9.7 km/h
2357 16-12-2011 10:00:00 9.6 C 8.24 g/m*3 6.64 C 22.5 km/h
2358 16-12-2011 10:05:00 9.8 C 8.26 g/m*3 8.18 C 11.3 km/h
2359 16-12-2011 10:10:00 9.9 C 8.31 g/m*3 7.85 C 14.5 km/h
2360 16-12-2011 10:15:00 9.9 C 8.31 g/m*3 9.25 C 6.4 km/h
2361 16-12-2011 10:20:00 10 C 8.36 g/m*3 8.19 C 12.9 km/h
2362 16-12-2011 10:25:00 10.1 C 8.42 g/m*3 8.31 C 12.9 km/h
2363 16-12-2011 10:30:00 10.2 C 8.37 g/m*3 7.54 C 20.9 km/h
2364 16-12-2011 10:35:00 10.3 C 8.43 g/m*3 7.98 C 17.7 km/h
2365 16-12-2011 10:40:00 10.3 C 8.43 g/m*3 8.16 C 16.1 km/h
2366 16-12-2011 10:45:00 10.4 C 8.38 g/m*3 8.28 C 16.1 km/h
2367 16-12-2011 10:50:00 10.6 C 8.39 g/m*3 7.91 C 22.5 km/h
2368 16-12-2011 10:55:00 10.7 C 8.35 g/m*3 8.48 C 17.7 km/h
2369 16-12-2011 11:00:00 10.8 C 8.4 g/m*3 8.78 C 16.1 km/h
2370 16-12-2011 11:05:00 10.8 C 8.3 g/m*3 8.17 C 22.5 km/h
2371 16-12-2011 11:10:00 10.8 C 8.2 g/m*3 8.45 C 19.3 km/h
2372 16-12-2011 11:15:00 10.9 C 8.16 g/m*3 8.43 C 20.9 km/h
2373 16-12-2011 11:20:00 10.9 C 8.06 g/m*3 8.3 C 22.5 km/h
2374 16-12-2011 11:25:00 10.9 C 8.06 g/m*3 8.3 C 22.5 km/h
2375 16-12-2011 11:30:00 10.9 C 7.96 g/m*3 8.17 C 24.1 km/h
Sensor: Nr:Datum:Temp:Abs-Feuchte:Windchill:Wind:
Aussen-T/F 2376 16-12-2011 11:35:00 11 C 7.91 g/m*3 8.05 C 27.4 km/h
2377 16-12-2011 11:40:00 11.1 C 7.96 g/m*3 11.1 C 27.4 km/h
2378 16-12-2011 11:45:00 11 C 7.91 g/m*3 8.42 C 22.5 km/h
2379 16-12-2011 11:50:00 10.9 C 7.86 g/m*3 8.05 C 25.7 km/h
2380 16-12-2011 11:55:00 10.9 C 7.86 g/m*3 8.05 C 25.7 km/h
2381 16-12-2011 12:00:00 10.9 C 7.86 g/m*3 8.73 C 17.7 km/h
2382 16-12-2011 12:05:00 10.9 C 7.86 g/m*3 8.3 C 22.5 km/h
2383 16-12-2011 12:10:00 10.8 C 7.81 g/m*3 8.3 C 20.9 km/h
2384 16-12-2011 12:15:00 10.8 C 7.81 g/m*3 8.61 C 17.7 km/h
2385 16-12-2011 12:20:00 10.9 C 7.86 g/m*3 7.81 C 29 km/h
2386 16-12-2011 12:25:00 10.8 C 7.81 g/m*3 8.96 C 14.5 km/h
2387 16-12-2011 12:30:00 10.8 C 7.81 g/m*3 8.17 C 22.5 km/h
2388 16-12-2011 12:35:00 10.7 C 7.76 g/m*3 8.65 C 16.1 km/h
2389 16-12-2011 12:40:00 10.7 C 7.66 g/m*3 8.32 C 19.3 km/h
2390 16-12-2011 12:45:00 10.7 C 7.37 g/m*3 8.04 C 22.5 km/h
2391 16-12-2011 12:50:00 10.7 C 7.27 g/m*3 7.45 C 30.6 km/h
2392 16-12-2011 12:55:00 10.7 C 7.07 g/m*3 7.66 C 27.4 km/h
2393 16-12-2011 13:00:00 10.7 C 7.07 g/m*3 7.91 C 24.1 km/h
2394 16-12-2011 13:05:00 10.6 C 7.12 g/m*3 9.14 C 11.3 km/h
2395 16-12-2011 13:10:00 10.5 C 7.27 g/m*3 8.07 C 19.3 km/h
2396 16-12-2011 13:15:00 10.4 C 7.32 g/m*3 7.95 C 19.3 km/h
2397 16-12-2011 13:20:00 10.3 C 7.09 g/m*3 7.27 C 25.7 km/h
2398 16-12-2011 13:25:00 10.2 C 6.95 g/m*3 7.4 C 22.5 km/h
2399 16-12-2011 13:30:00 10.2 C 6.95 g/m*3 7.7 C 19.3 km/h
2400 16-12-2011 13:35:00 10.1 C 6.9 g/m*3 7.42 C 20.9 km/h
Sensor: Nr:Datum:Temp:Abs-Feuchte:Windchill:Wind:
Aussen-T/F 2401 16-12-2011 13:40:00 10 C 6.95 g/m*3 7.44 C 19.3 km/h
2402 16-12-2011 13:45:00 9.9 C 7 g/m*3 7.85 C 14.5 km/h
2403 16-12-2011 13:50:00 9.7 C 6.91 g/m*3 6.91 C 20.9 km/h
2404 16-12-2011 13:55:00 9.6 C 6.87 g/m*3 6.94 C 19.3 km/h
2405 16-12-2011 14:00:00 9.5 C 6.92 g/m*3 7.36 C 14.5 km/h
2406 16-12-2011 14:05:00 9.4 C 6.78 g/m*3 7.04 C 16.1 km/h
2407 16-12-2011 14:10:00 9.3 C 6.56 g/m*3 7.12 C 14.5 km/h
2408 16-12-2011 14:15:00 9.2 C 6.52 g/m*3 6.61 C 17.7 km/h
2409 16-12-2011 14:20:00 9.1 C 6.48 g/m*3 6.15 C 20.9 km/h
2410 16-12-2011 14:25:00 8.9 C 6.04 g/m*3 5.47 C 25.7 km/h
2411 16-12-2011 14:30:00 8.8 C 6.09 g/m*3 6.11 C 17.7 km/h
2412 16-12-2011 14:35:00 8.6 C 5.93 g/m*3 5.22 C 24.1 km/h
2413 16-12-2011 14:40:00 8.4 C 5.77 g/m*3 5.11 C 22.5 km/h
2414 16-12-2011 14:45:00 8.2 C 5.69 g/m*3 4.07 C 32.2 km/h
2415 16-12-2011 14:50:00 8.1 C 5.66 g/m*3 3.94 C 32.2 km/h
2416 16-12-2011 14:55:00 8 C 5.79 g/m*3 4.76 C 20.9 km/h
2417 16-12-2011 15:00:00 7.9 C 5.83 g/m*3 4.98 C 17.7 km/h
2418 16-12-2011 15:05:00 7.6 C 6.04 g/m*3 4.61 C 17.7 km/h
2419 16-12-2011 15:10:00 7.2 C 5.89 g/m*3 4.53 C 14.5 km/h
2420 16-12-2011 15:15:00 7.1 C 5.69 g/m*3 4.19 C 16.1 km/h
2421 16-12-2011 15:20:00 7.1 C 5.54 g/m*3 3.98 C 17.7 km/h
2422 16-12-2011 15:25:00 7 C 5.5 g/m*3 3.86 C 17.7 km/h
2423 16-12-2011 15:30:00 6.9 C 5.39 g/m*3 3.2 C 22.5 km/h
2424 16-12-2011 15:35:00 6.8 C 5.28 g/m*3 3.07 C 22.5 km/h
2425 16-12-2011 15:40:00 6.7 C 5.32 g/m*3 3.92 C 14.5 km/h
Sensor: Nr:Datum:Temp:Abs-Feuchte:Windchill:Wind:
Aussen-T/F 2426 16-12-2011 15:45:00 6.6 C 5.28 g/m*3 2.66 C 24.1 km/h
2427 16-12-2011 15:50:00 6.5 C 5.32 g/m*3 3.23 C 17.7 km/h
2428 16-12-2011 15:55:00 6.4 C 5.29 g/m*3 3.32 C 16.1 km/h
2429 16-12-2011 16:00:00 6.2 C 5.37 g/m*3 2.86 C 17.7 km/h
2430 16-12-2011 16:05:00 6.1 C 5.26 g/m*3 2.73 C 17.7 km/h
2431 16-12-2011 16:10:00 6.1 C 5.26 g/m*3 2.73 C 17.7 km/h
2432 16-12-2011 16:15:00 6.1 C 5.33 g/m*3 3.43 C 12.9 km/h
2433 16-12-2011 16:20:00 6 C 5.23 g/m*3 3.06 C 14.5 km/h
2434 16-12-2011 16:25:00 5.9 C 5.19 g/m*3 2.93 C 14.5 km/h
2435 16-12-2011 16:30:00 5.9 C 5.19 g/m*3 2.93 C 14.5 km/h
2436 16-12-2011 16:35:00 5.9 C 5.12 g/m*3 2.93 C 14.5 km/h
2437 16-12-2011 16:40:00 5.9 C 5.12 g/m*3 1.45 C 27.4 km/h
2438 16-12-2011 16:45:00 5.8 C 5.09 g/m*3 2.16 C 19.3 km/h
2439 16-12-2011 16:50:00 5.8 C 5.09 g/m*3 2.16 C 19.3 km/h
2440 16-12-2011 16:55:00 5.7 C 5.05 g/m*3 2.69 C 14.5 km/h
2441 16-12-2011 17:00:00 5.7 C 5.12 g/m*3 2.45 C 16.1 km/h
2442 16-12-2011 17:05:00 5.6 C 5.16 g/m*3 2.11 C 17.7 km/h
2443 16-12-2011 17:10:00 5.6 C 5.16 g/m*3 2.33 C 16.1 km/h
2444 16-12-2011 17:15:00 5.5 C 5.2 g/m*3 2.44 C 14.5 km/h
2445 16-12-2011 17:20:00 5.4 C 5.23 g/m*3 2.58 C 12.9 km/h
2446 16-12-2011 17:25:00 5.4 C 5.16 g/m*3 2.58 C 12.9 km/h
2447 16-12-2011 17:30:00 5.4 C 5.16 g/m*3 2.08 C 16.1 km/h
2448 16-12-2011 17:35:00 5.4 C 5.3 g/m*3 3.2 C 9.7 km/h
2449 16-12-2011 17:40:00 5.3 C 5.27 g/m*3 2.2 C 14.5 km/h
2450 16-12-2011 17:45:00 5.3 C 5.34 g/m*3 2.46 C 12.9 km/h
Sensor: Nr:Datum:Temp:Abs-Feuchte:Windchill:Wind:
Aussen-T/F 2451 16-12-2011 17:50:00 5.2 C 5.3 g/m*3 2.07 C 14.5 km/h
2452 16-12-2011 17:55:00 5.2 C 5.3 g/m*3 1.61 C 17.7 km/h
2453 16-12-2011 18:00:00 5.2 C 5.37 g/m*3 2.34 C 12.9 km/h
2454 16-12-2011 18:05:00 5.2 C 5.37 g/m*3 2.07 C 14.5 km/h
2455 16-12-2011 18:10:00 5.2 C 5.37 g/m*3 1.83 C 16.1 km/h
2456 16-12-2011 18:15:00 5.2 C 5.37 g/m*3 2.34 C 12.9 km/h
2457 16-12-2011 18:20:00 5.3 C 5.41 g/m*3 2.75 C 11.3 km/h
2458 16-12-2011 18:25:00 5.3 C 5.41 g/m*3 2.2 C 14.5 km/h
2459 16-12-2011 18:30:00 5.3 C 5.41 g/m*3 1.74 C 17.7 km/h
2460 16-12-2011 18:35:00 5.2 C 5.44 g/m*3 2.63 C 11.3 km/h
2461 16-12-2011 18:40:00 5.1 C 5.47 g/m*3 2.22 C 12.9 km/h
2462 16-12-2011 18:45:00 5.1 C 5.47 g/m*3 1.95 C 14.5 km/h
2463 16-12-2011 18:50:00 4.9 C 5.54 g/m*3 2.27 C 11.3 km/h
2464 16-12-2011 18:55:00 4.8 C 5.5 g/m*3 2.15 C 11.3 km/h
2465 16-12-2011 19:00:00 4.7 C 5.53 g/m*3 1.21 C 16.1 km/h
2466 16-12-2011 19:05:00 4.6 C 5.56 g/m*3 1.09 C 16.1 km/h
2467 16-12-2011 19:10:00 4.5 C 5.59 g/m*3 1.21 C 14.5 km/h
2468 16-12-2011 19:15:00 4.4 C 5.55 g/m*3 1.09 C 14.5 km/h
2469 16-12-2011 19:20:00 4.4 C 5.62 g/m*3 1.67 C 11.3 km/h
2470 16-12-2011 19:25:00 4.4 C 5.62 g/m*3 1.67 C 11.3 km/h
2471 16-12-2011 19:30:00 4.3 C 5.58 g/m*3 0.97 C 14.5 km/h
2472 16-12-2011 19:35:00 4.3 C 5.58 g/m*3 1.24 C 12.9 km/h
2473 16-12-2011 19:40:00 4.3 C 5.58 g/m*3 0.72 C 16.1 km/h
2474 16-12-2011 19:45:00 4.3 C 5.58 g/m*3 0.72 C 16.1 km/h
2475 16-12-2011 19:50:00 4.2 C 5.54 g/m*3 1.12 C 12.9 km/h
Sensor: Nr:Datum:Temp:Abs-Feuchte:Windchill:Wind:
Aussen-T/F 2476 16-12-2011 19:55:00 4.3 C 5.51 g/m*3 0.49 C 17.7 km/h
2477 16-12-2011 20:00:00 4.2 C 5.48 g/m*3 1.12 C 12.9 km/h
2478 16-12-2011 20:05:00 4.1 C 5.44 g/m*3 0.72 C 14.5 km/h
2479 16-12-2011 20:10:00 4.1 C 5.44 g/m*3 0.24 C 17.7 km/h
2480 16-12-2011 20:15:00 3.9 C 5.43 g/m*3 0.47 C 14.5 km/h
2481 16-12-2011 20:20:00 3.9 C 5.49 g/m*3 0.47 C 14.5 km/h
2482 16-12-2011 20:25:00 3.8 C 5.4 g/m*3 -0.14 C 17.7 km/h
2483 16-12-2011 20:30:00 3.7 C 5.3 g/m*3 -0.03 C 16.1 km/h
2484 16-12-2011 20:35:00 3.6 C 5.32 g/m*3 -0.39 C 17.7 km/h
2485 16-12-2011 20:40:00 3.6 C 5.26 g/m*3 0.11 C 14.5 km/h
2486 16-12-2011 20:45:00 3.6 C 5.26 g/m*3 -0.81 C 20.9 km/h
2487 16-12-2011 20:50:00 3.6 C 5.26 g/m*3 -1.01 C 22.5 km/h
2488 16-12-2011 20:55:00 3.6 C 5.26 g/m*3 -0.15 C 16.1 km/h
2489 16-12-2011 21:00:00 3.5 C 5.23 g/m*3 -0.02 C 14.5 km/h
2490 16-12-2011 21:05:00 3.6 C 5.26 g/m*3 -0.15 C 16.1 km/h
2491 16-12-2011 21:10:00 3.6 C 5.2 g/m*3 0.11 C 14.5 km/h
2492 16-12-2011 21:15:00 3.6 C 5.2 g/m*3 0.11 C 14.5 km/h
2493 16-12-2011 21:20:00 3.6 C 5.2 g/m*3 0.39 C 12.9 km/h
2494 16-12-2011 21:25:00 3.6 C 5.14 g/m*3 0.39 C 12.9 km/h
2495 16-12-2011 21:30:00 3.6 C 5.2 g/m*3 -0.15 C 16.1 km/h
2496 16-12-2011 21:35:00 3.7 C 5.23 g/m*3 -0.69 C 20.9 km/h
2497 16-12-2011 21:40:00 3.7 C 5.17 g/m*3 -0.48 C 19.3 km/h
2498 16-12-2011 21:45:00 3.6 C 5.2 g/m*3 0.7 C 11.3 km/h
2499 16-12-2011 21:50:00 3.6 C 5.2 g/m*3 -0.15 C 16.1 km/h
2500 16-12-2011 21:55:00 3.5 C 5.23 g/m*3 -1.31 C 24.1 km/h
Sensor: Nr:Datum:Temp:Abs-Feuchte:Windchill:Wind:
Aussen-T/F 2501 16-12-2011 22:00:00 3.4 C 5.19 g/m*3 -1.07 C 20.9 km/h
2502 16-12-2011 22:05:00 3.3 C 5.16 g/m*3 -0.52 C 16.1 km/h
2503 16-12-2011 22:10:00 3.3 C 5.16 g/m*3 -0.26 C 14.5 km/h
2504 16-12-2011 22:15:00 3.3 C 5.22 g/m*3 0.02 C 12.9 km/h
2505 16-12-2011 22:20:00 3.3 C 5.22 g/m*3 -0.26 C 14.5 km/h
2506 16-12-2011 22:25:00 3.2 C 5.18 g/m*3 -0.1 C 12.9 km/h
2507 16-12-2011 22:30:00 3.2 C 5.18 g/m*3 -0.65 C 16.1 km/h
2508 16-12-2011 22:35:00 3.2 C 5.18 g/m*3 0.99 C 8.1 km/h
2509 16-12-2011 22:40:00 3.2 C 5.18 g/m*3 0.99 C 8.1 km/h
2510 16-12-2011 22:45:00 3.2 C 5.18 g/m*3 0.58 C 9.7 km/h
2511 16-12-2011 22:50:00 3.2 C 5.18 g/m*3 0.22 C 11.3 km/h
2512 16-12-2011 22:55:00 3.2 C 5.18 g/m*3 -0.1 C 12.9 km/h
2513 16-12-2011 23:00:00 3.3 C 5.16 g/m*3 0.34 C 11.3 km/h
2514 16-12-2011 23:05:00 3.3 C 5.16 g/m*3 0.02 C 12.9 km/h
2515 16-12-2011 23:10:00 3.3 C 5.22 g/m*3 0.02 C 12.9 km/h
2516 16-12-2011 23:15:00 3.3 C 5.16 g/m*3 1.63 C 6.4 km/h
2517 16-12-2011 23:20:00 3.3 C 5.16 g/m*3 0.34 C 11.3 km/h
2518 16-12-2011 23:25:00 3.3 C 5.16 g/m*3 0.34 C 11.3 km/h
2519 16-12-2011 23:30:00 3.3 C 5.22 g/m*3 0.34 C 11.3 km/h
2520 16-12-2011 23:35:00 3.3 C 5.28 g/m*3 0.7 C 9.7 km/h
2521 16-12-2011 23:40:00 3.2 C 5.24 g/m*3 0.22 C 11.3 km/h
2522 16-12-2011 23:45:00 3.1 C 5.21 g/m*3 0.1 C 11.3 km/h
2523 16-12-2011 23:50:00 3.1 C 5.27 g/m*3 0.46 C 9.7 km/h
2524 16-12-2011 23:55:00 3.1 C 5.27 g/m*3 0.1 C 11.3 km/h
2525 17-12-2011 00:00:00 3.1 C 5.21 g/m*3 -0.22 C 12.9 km/h
Sensor: Nr:Datum:Temp:Abs-Feuchte:Windchill:Wind:
Aussen-T/F 2526 17-12-2011 00:05:00 3.1 C 5.21 g/m*3 0.46 C 9.7 km/h
2527 17-12-2011 00:10:00 3.1 C 5.21 g/m*3 0.46 C 9.7 km/h
2528 17-12-2011 00:15:00 3.1 C 5.21 g/m*3 -0.22 C 12.9 km/h
2529 17-12-2011 00:20:00 3.1 C 5.21 g/m*3 -0.22 C 12.9 km/h
2530 17-12-2011 00:25:00 3.1 C 5.15 g/m*3 -0.22 C 12.9 km/h
2531 17-12-2011 00:30:00 3.1 C 5.15 g/m*3 -0.22 C 12.9 km/h
2532 17-12-2011 00:35:00 3 C 5.11 g/m*3 -0.63 C 14.5 km/h
2533 17-12-2011 00:40:00 3.1 C 5.15 g/m*3 0.1 C 11.3 km/h
2534 17-12-2011 00:45:00 3.1 C 5.15 g/m*3 0.1 C 11.3 km/h
2535 17-12-2011 00:50:00 3.1 C 5.15 g/m*3 0.46 C 9.7 km/h
2536 17-12-2011 00:55:00 3.2 C 5.18 g/m*3 0.22 C 11.3 km/h
2537 17-12-2011 01:00:00 3.2 C 5.12 g/m*3 0.22 C 11.3 km/h
2538 17-12-2011 01:05:00 3.4 C 5.07 g/m*3 -0.4 C 16.1 km/h
2539 17-12-2011 01:10:00 3.5 C 5.1 g/m*3 -0.28 C 16.1 km/h
2540 17-12-2011 01:15:00 3.6 C 5.08 g/m*3 0.7 C 11.3 km/h
2541 17-12-2011 01:20:00 3.6 C 5.14 g/m*3 1.06 C 9.7 km/h
2542 17-12-2011 01:25:00 3.5 C 5.1 g/m*3 0.94 C 9.7 km/h
2543 17-12-2011 01:30:00 3.5 C 5.04 g/m*3 1.34 C 8.1 km/h
2544 17-12-2011 01:35:00 3.5 C 5.1 g/m*3 1.34 C 8.1 km/h
2545 17-12-2011 01:40:00 3.5 C 5.16 g/m*3 0.94 C 9.7 km/h
2546 17-12-2011 01:45:00 3.4 C 5.25 g/m*3 3.4 C 4.8 km/h
2547 17-12-2011 01:50:00 3.2 C 5.24 g/m*3 0.22 C 11.3 km/h
2548 17-12-2011 01:55:00 3.1 C 5.21 g/m*3 1.4 C 6.4 km/h
2549 17-12-2011 02:00:00 3 C 5.17 g/m*3 0.76 C 8.1 km/h
2550 17-12-2011 02:05:00 2.9 C 5.2 g/m*3 0.22 C 9.7 km/h
Sensor: Nr:Datum:Temp:Abs-Feuchte:Windchill:Wind:
Aussen-T/F 2551 17-12-2011 02:10:00 2.9 C 5.2 g/m*3 0.22 C 9.7 km/h
2552 17-12-2011 02:15:00 2.9 C 5.2 g/m*3 0.64 C 8.1 km/h
2553 17-12-2011 02:20:00 2.8 C 5.16 g/m*3 0.52 C 8.1 km/h
2554 17-12-2011 02:25:00 2.8 C 5.16 g/m*3 0.52 C 8.1 km/h
2555 17-12-2011 02:30:00 2.8 C 5.22 g/m*3 0.52 C 8.1 km/h
2556 17-12-2011 02:35:00 2.9 C 5.2 g/m*3 0.22 C 9.7 km/h
2557 17-12-2011 02:40:00 2.9 C 5.2 g/m*3 0.22 C 9.7 km/h
2558 17-12-2011 02:45:00 2.9 C 5.2 g/m*3 -0.14 C 11.3 km/h
2559 17-12-2011 02:50:00 2.8 C 5.16 g/m*3 -0.26 C 11.3 km/h
2560 17-12-2011 02:55:00 2.8 C 5.22 g/m*3 0.1 C 9.7 km/h
2561 17-12-2011 03:00:00 2.7 C 5.19 g/m*3 -0.02 C 9.7 km/h
2562 17-12-2011 03:05:00 2.7 C 5.19 g/m*3 -0.02 C 9.7 km/h
2563 17-12-2011 03:10:00 2.6 C 5.15 g/m*3 -0.83 C 12.9 km/h
2564 17-12-2011 03:15:00 2.4 C 5.08 g/m*3 -0.74 C 11.3 km/h
2565 17-12-2011 03:20:00 2.2 C 5.07 g/m*3 -0.18 C 8.1 km/h
2566 17-12-2011 03:25:00 2.1 C 5.09 g/m*3 -0.3 C 8.1 km/h
2567 17-12-2011 03:30:00 2.1 C 5.09 g/m*3 -0.73 C 9.7 km/h
2568 17-12-2011 03:35:00 2.2 C 5.18 g/m*3 2.2 C 4.8 km/h
2569 17-12-2011 03:40:00 2.3 C 5.22 g/m*3 0.47 C 6.4 km/h
2570 17-12-2011 03:45:00 2.4 C 5.25 g/m*3 2.4 C 3.2 km/h
2571 17-12-2011 03:50:00 2.5 C 5.23 g/m*3 2.5 C 4.8 km/h
2572 17-12-2011 03:55:00 2.6 C 5.27 g/m*3 0.29 C 8.1 km/h
2573 17-12-2011 04:00:00 2.7 C 5.3 g/m*3 0.4 C 8.1 km/h
2574 17-12-2011 04:05:00 2.7 C 5.3 g/m*3 0.94 C 6.4 km/h
2575 17-12-2011 04:10:00 2.8 C 5.34 g/m*3 2.8 C 3.2 km/h
Sensor: Nr:Datum:Temp:Abs-Feuchte:Windchill:Wind:
Aussen-T/F 2576 17-12-2011 04:15:00 2.8 C 5.34 g/m*3 1.05 C 6.4 km/h
2577 17-12-2011 04:20:00 2.8 C 5.34 g/m*3 2.8 C 4.8 km/h
2578 17-12-2011 04:25:00 2.8 C 5.28 g/m*3 2.8 C 4.8 km/h
2579 17-12-2011 04:30:00 2.9 C 5.37 g/m*3 2.9 C 4.8 km/h
2580 17-12-2011 04:35:00 2.8 C 5.34 g/m*3 2.8 C 4.8 km/h
2581 17-12-2011 04:40:00 2.8 C 5.34 g/m*3 2.8 C 3.2 km/h
2582 17-12-2011 04:45:00 2.8 C 5.34 g/m*3 2.8 C 3.2 km/h
2583 17-12-2011 04:50:00 2.8 C 5.4 g/m*3 2.8 C 4.8 km/h
2584 17-12-2011 04:55:00 2.7 C 5.36 g/m*3 2.7 C 4.8 km/h
2585 17-12-2011 05:00:00 2.8 C 5.4 g/m*3 2.8 C 4.8 km/h
2586 17-12-2011 05:05:00 2.8 C 5.46 g/m*3 2.8 C 3.2 km/h
2587 17-12-2011 05:10:00 2.8 C 5.46 g/m*3 2.8 C 3.2 km/h
2588 17-12-2011 05:15:00 2.9 C 5.49 g/m*3 2.9 C 3.2 km/h
2589 17-12-2011 05:20:00 2.9 C 5.49 g/m*3 2.9 C 1.6 km/h
2590 17-12-2011 05:25:00 2.9 C 5.49 g/m*3 0.64 C 8.1 km/h
2591 17-12-2011 05:30:00 3.1 C 5.51 g/m*3 3.1 C 3.2 km/h
2592 17-12-2011 05:35:00 3.2 C 5.54 g/m*3 3.2 C 4.8 km/h
2593 17-12-2011 05:40:00 3.3 C 5.52 g/m*3 1.63 C 6.4 km/h
2594 17-12-2011 05:45:00 3.4 C 5.56 g/m*3 3.4 C 4.8 km/h
2595 17-12-2011 05:50:00 3.4 C 5.56 g/m*3 3.4 C 4.8 km/h
2596 17-12-2011 05:55:00 3.4 C 5.56 g/m*3 3.4 C 3.2 km/h
2597 17-12-2011 06:00:00 3.5 C 5.53 g/m*3 3.5 C 4.8 km/h
2598 17-12-2011 06:05:00 3.6 C 5.57 g/m*3 3.6 C 4.8 km/h
2599 17-12-2011 06:10:00 3.6 C 5.57 g/m*3 3.6 C 4.8 km/h
2600 17-12-2011 06:15:00 3.7 C 5.61 g/m*3 2.09 C 6.4 km/h
Sensor: Nr:Datum:Temp:Abs-Feuchte:Windchill:Wind:
Aussen-T/F 2601 17-12-2011 06:20:00 3.7 C 5.61 g/m*3 3.7 C 3.2 km/h
2602 17-12-2011 06:25:00 3.8 C 5.52 g/m*3 1.29 C 9.7 km/h
2603 17-12-2011 06:30:00 3.9 C 5.62 g/m*3 3.9 C 4.8 km/h
2604 17-12-2011 06:35:00 3.9 C 5.56 g/m*3 3.9 C 4.8 km/h
2605 17-12-2011 06:40:00 3.9 C 5.62 g/m*3 3.9 C 4.8 km/h
2606 17-12-2011 06:45:00 3.9 C 5.56 g/m*3 1.41 C 9.7 km/h
2607 17-12-2011 06:50:00 3.9 C 5.56 g/m*3 1.82 C 8.1 km/h
2608 17-12-2011 06:55:00 3.9 C 5.62 g/m*3 3.9 C 4.8 km/h
2609 17-12-2011 07:00:00 3.9 C 5.62 g/m*3 3.9 C 4.8 km/h
2610 17-12-2011 07:05:00 3.8 C 5.58 g/m*3 2.21 C 6.4 km/h
2611 17-12-2011 07:10:00 3.9 C 5.62 g/m*3 3.9 C 4.8 km/h
2612 17-12-2011 07:15:00 3.9 C 5.56 g/m*3 2.32 C 6.4 km/h
2613 17-12-2011 07:20:00 3.9 C 5.56 g/m*3 3.9 C 4.8 km/h
2614 17-12-2011 07:25:00 3.9 C 5.56 g/m*3 2.32 C 6.4 km/h
2615 17-12-2011 07:30:00 3.9 C 5.62 g/m*3 3.9 C 4.8 km/h
2616 17-12-2011 07:35:00 3.9 C 5.56 g/m*3 3.9 C 4.8 km/h
2617 17-12-2011 07:40:00 3.9 C 5.56 g/m*3 3.9 C 4.8 km/h
2618 17-12-2011 07:45:00 3.9 C 5.56 g/m*3 1.82 C 8.1 km/h
2619 17-12-2011 07:50:00 3.9 C 5.56 g/m*3 1.82 C 8.1 km/h
2620 17-12-2011 07:55:00 3.9 C 5.62 g/m*3 3.9 C 4.8 km/h
2621 17-12-2011 08:00:00 3.9 C 5.56 g/m*3 3.9 C 4.8 km/h
2622 17-12-2011 08:05:00 3.9 C 5.49 g/m*3 1.82 C 8.1 km/h
2623 17-12-2011 08:10:00 3.9 C 5.49 g/m*3 3.9 C 3.2 km/h
2624 17-12-2011 08:15:00 3.9 C 5.49 g/m*3 1.82 C 8.1 km/h
2625 17-12-2011 08:20:00 3.9 C 5.49 g/m*3 2.32 C 6.4 km/h
Sensor: Nr:Datum:Temp:Abs-Feuchte:Windchill:Wind:
Aussen-T/F 2626 17-12-2011 08:25:00 3.9 C 5.49 g/m*3 2.32 C 6.4 km/h
2627 17-12-2011 08:30:00 3.9 C 5.49 g/m*3 1.41 C 9.7 km/h
2628 17-12-2011 08:35:00 3.9 C 5.43 g/m*3 2.32 C 6.4 km/h
2629 17-12-2011 08:40:00 3.9 C 5.43 g/m*3 2.32 C 6.4 km/h
2630 17-12-2011 08:45:00 4 C 5.4 g/m*3 1.93 C 8.1 km/h
2631 17-12-2011 08:50:00 4 C 5.47 g/m*3 2.44 C 6.4 km/h
2632 17-12-2011 08:55:00 3.9 C 5.43 g/m*3 2.32 C 6.4 km/h
2633 17-12-2011 09:00:00 4 C 5.47 g/m*3 1.18 C 11.3 km/h
2634 17-12-2011 09:05:00 4 C 5.47 g/m*3 4 C 4.8 km/h
2635 17-12-2011 09:10:00 4.1 C 5.44 g/m*3 1.65 C 9.7 km/h
2636 17-12-2011 09:15:00 4.1 C 5.44 g/m*3 1.31 C 11.3 km/h
2637 17-12-2011 09:20:00 4.1 C 5.44 g/m*3 2.55 C 6.4 km/h
2638 17-12-2011 09:25:00 4.1 C 5.44 g/m*3 2.55 C 6.4 km/h
2639 17-12-2011 09:30:00 4.1 C 5.44 g/m*3 2.55 C 6.4 km/h
2640 17-12-2011 09:35:00 4 C 5.4 g/m*3 4 C 4.8 km/h
2641 17-12-2011 09:40:00 4 C 5.4 g/m*3 4 C 3.2 km/h
2642 17-12-2011 09:45:00 3.9 C 5.43 g/m*3 3.9 C 4.8 km/h
2643 17-12-2011 09:50:00 3.9 C 5.43 g/m*3 3.9 C 3.2 km/h
2644 17-12-2011 09:55:00 3.8 C 5.4 g/m*3 3.8 C 4.8 km/h
2645 17-12-2011 10:00:00 3.7 C 5.36 g/m*3 3.7 C 4.8 km/h
2646 17-12-2011 10:05:00 3.7 C 5.3 g/m*3 3.7 C 4.8 km/h
2647 17-12-2011 10:10:00 3.8 C 5.33 g/m*3 2.21 C 6.4 km/h
2648 17-12-2011 10:15:00 3.9 C 5.31 g/m*3 1.82 C 8.1 km/h
2649 17-12-2011 10:20:00 4.1 C 5.38 g/m*3 2.55 C 6.4 km/h
2650 17-12-2011 10:25:00 4.1 C 5.31 g/m*3 2.05 C 8.1 km/h
Sensor: Nr:Datum:Temp:Abs-Feuchte:Windchill:Wind:
Aussen-T/F 2651 17-12-2011 10:30:00 4.2 C 5.41 g/m*3 4.2 C 4.8 km/h
2652 17-12-2011 10:35:00 4.2 C 5.48 g/m*3 4.2 C 4.8 km/h
2653 17-12-2011 10:40:00 4.2 C 5.35 g/m*3 4.2 C 4.8 km/h
2654 17-12-2011 10:45:00 4.2 C 5.35 g/m*3 4.2 C 1.6 km/h
2655 17-12-2011 10:50:00 4.2 C 5.35 g/m*3 4.2 C 4.8 km/h
2656 17-12-2011 10:55:00 4.2 C 5.41 g/m*3 4.2 C 4.8 km/h
2657 17-12-2011 11:00:00 4.3 C 5.38 g/m*3 1.89 C 9.7 km/h
2658 17-12-2011 11:05:00 4.4 C 5.35 g/m*3 2.4 C 8.1 km/h
2659 17-12-2011 11:10:00 4.6 C 5.36 g/m*3 3.13 C 6.4 km/h
2660 17-12-2011 11:15:00 4.7 C 5.4 g/m*3 2.37 C 9.7 km/h
2661 17-12-2011 11:20:00 4.7 C 5.53 g/m*3 2.37 C 9.7 km/h
2662 17-12-2011 11:25:00 4.7 C 5.46 g/m*3 3.25 C 6.4 km/h
2663 17-12-2011 11:30:00 4.7 C 5.33 g/m*3 2.76 C 8.1 km/h
2664 17-12-2011 11:35:00 4.9 C 5.4 g/m*3 3.48 C 6.4 km/h
2665 17-12-2011 11:40:00 5 C 5.37 g/m*3 5 C 4.8 km/h
2666 17-12-2011 11:45:00 5.1 C 5.47 g/m*3 5.1 C 4.8 km/h
2667 17-12-2011 11:50:00 5.2 C 5.44 g/m*3 3.34 C 8.1 km/h
2668 17-12-2011 11:55:00 5.3 C 5.48 g/m*3 5.3 C 4.8 km/h
2669 17-12-2011 12:00:00 5.3 C 5.48 g/m*3 3.94 C 6.4 km/h
2670 17-12-2011 12:05:00 5.3 C 5.41 g/m*3 3.94 C 6.4 km/h
2671 17-12-2011 12:10:00 5.4 C 5.44 g/m*3 5.4 C 4.8 km/h
2672 17-12-2011 12:15:00 5.4 C 5.37 g/m*3 3.58 C 8.1 km/h
2673 17-12-2011 12:20:00 5.4 C 5.44 g/m*3 3.2 C 9.7 km/h
2674 17-12-2011 12:25:00 5.4 C 5.37 g/m*3 2.58 C 12.9 km/h
2675 17-12-2011 12:30:00 5.4 C 5.44 g/m*3 4.06 C 6.4 km/h
Sensor: Nr:Datum:Temp:Abs-Feuchte:Windchill:Wind:
Aussen-T/F 2676 17-12-2011 12:35:00 5.4 C 5.44 g/m*3 3.2 C 9.7 km/h
2677 17-12-2011 12:40:00 5.4 C 5.44 g/m*3 2.87 C 11.3 km/h
2678 17-12-2011 12:45:00 5.4 C 5.44 g/m*3 4.06 C 6.4 km/h
2679 17-12-2011 12:50:00 5.4 C 5.51 g/m*3 3.58 C 8.1 km/h
2680 17-12-2011 12:55:00 5.4 C 5.51 g/m*3 3.2 C 9.7 km/h
2681 17-12-2011 13:00:00 5.3 C 5.48 g/m*3 3.46 C 8.1 km/h
2682 17-12-2011 13:05:00 5.3 C 5.54 g/m*3 3.08 C 9.7 km/h
2683 17-12-2011 13:10:00 5.1 C 5.54 g/m*3 3.71 C 6.4 km/h
2684 17-12-2011 13:15:00 5 C 5.57 g/m*3 2.72 C 9.7 km/h
2685 17-12-2011 13:20:00 5 C 5.5 g/m*3 2.39 C 11.3 km/h
2686 17-12-2011 13:25:00 5.1 C 5.54 g/m*3 2.84 C 9.7 km/h
2687 17-12-2011 13:30:00 5.2 C 5.58 g/m*3 2.07 C 14.5 km/h
2688 17-12-2011 13:35:00 5.3 C 5.54 g/m*3 2.75 C 11.3 km/h
2689 17-12-2011 13:40:00 5.4 C 5.51 g/m*3 2.32 C 14.5 km/h
2690 17-12-2011 13:45:00 5.3 C 5.48 g/m*3 2.46 C 12.9 km/h
2691 17-12-2011 13:50:00 5.3 C 5.48 g/m*3 3.46 C 8.1 km/h
2692 17-12-2011 13:55:00 5.4 C 5.51 g/m*3 3.58 C 8.1 km/h
2693 17-12-2011 14:00:00 5.4 C 5.51 g/m*3 2.32 C 14.5 km/h
2694 17-12-2011 14:05:00 5.3 C 5.61 g/m*3 3.46 C 8.1 km/h
2695 17-12-2011 14:10:00 5.3 C 5.61 g/m*3 5.3 C 4.8 km/h
2696 17-12-2011 14:15:00 5.3 C 5.61 g/m*3 3.94 C 6.4 km/h
2697 17-12-2011 14:20:00 5.3 C 5.54 g/m*3 3.46 C 8.1 km/h
2698 17-12-2011 14:25:00 5.3 C 5.54 g/m*3 5.3 C 4.8 km/h
2699 17-12-2011 14:30:00 5.3 C 5.54 g/m*3 3.94 C 6.4 km/h
2700 17-12-2011 14:35:00 5.5 C 5.55 g/m*3 2.2 C 16.1 km/h
Sensor: Nr:Datum:Temp:Abs-Feuchte:Windchill:Wind:
Aussen-T/F 2701 17-12-2011 14:40:00 5.6 C 5.59 g/m*3 2.83 C 12.9 km/h
2702 17-12-2011 14:45:00 5.6 C 5.59 g/m*3 2.33 C 16.1 km/h
2703 17-12-2011 14:50:00 5.6 C 5.51 g/m*3 2.83 C 12.9 km/h
2704 17-12-2011 14:55:00 5.4 C 5.51 g/m*3 4.06 C 6.4 km/h
2705 17-12-2011 15:00:00 5.3 C 5.48 g/m*3 3.46 C 8.1 km/h
2706 17-12-2011 15:05:00 5.3 C 5.48 g/m*3 3.46 C 8.1 km/h
2707 17-12-2011 15:10:00 5.3 C 5.48 g/m*3 3.94 C 6.4 km/h
2708 17-12-2011 15:15:00 5.2 C 5.44 g/m*3 3.82 C 6.4 km/h
2709 17-12-2011 15:20:00 5.1 C 5.4 g/m*3 2.84 C 9.7 km/h
2710 17-12-2011 15:25:00 4.9 C 5.4 g/m*3 2.61 C 9.7 km/h
2711 17-12-2011 15:30:00 4.8 C 5.43 g/m*3 2.15 C 11.3 km/h
2712 17-12-2011 15:35:00 4.7 C 5.4 g/m*3 1.46 C 14.5 km/h
2713 17-12-2011 15:40:00 4.7 C 5.4 g/m*3 2.37 C 9.7 km/h
2714 17-12-2011 15:45:00 4.6 C 5.43 g/m*3 2.25 C 9.7 km/h
2715 17-12-2011 15:50:00 4.6 C 5.43 g/m*3 1.91 C 11.3 km/h
2716 17-12-2011 15:55:00 4.5 C 5.46 g/m*3 1.79 C 11.3 km/h
2717 17-12-2011 16:00:00 4.4 C 5.42 g/m*3 0.61 C 17.7 km/h
2718 17-12-2011 16:05:00 4.2 C 5.35 g/m*3 0.36 C 17.7 km/h
2719 17-12-2011 16:10:00 4.1 C 5.31 g/m*3 2.05 C 8.1 km/h
2720 17-12-2011 16:15:00 3.9 C 5.31 g/m*3 2.32 C 6.4 km/h
2721 17-12-2011 16:20:00 3.8 C 5.27 g/m*3 1.7 C 8.1 km/h
2722 17-12-2011 16:25:00 3.8 C 5.33 g/m*3 1.7 C 8.1 km/h
2723 17-12-2011 16:30:00 3.8 C 5.33 g/m*3 0.94 C 11.3 km/h
2724 17-12-2011 16:35:00 3.8 C 5.27 g/m*3 1.7 C 8.1 km/h
2725 17-12-2011 16:40:00 3.9 C 5.31 g/m*3 0.75 C 12.9 km/h
Sensor: Nr:Datum:Temp:Abs-Feuchte:Windchill:Wind:
Aussen-T/F 2726 17-12-2011 16:45:00 3.9 C 5.31 g/m*3 1.41 C 9.7 km/h
2727 17-12-2011 16:50:00 3.8 C 5.27 g/m*3 1.29 C 9.7 km/h
2728 17-12-2011 16:55:00 3.7 C 5.23 g/m*3 1.18 C 9.7 km/h
2729 17-12-2011 17:00:00 3.7 C 5.23 g/m*3 0.82 C 11.3 km/h
2730 17-12-2011 17:05:00 3.6 C 5.2 g/m*3 1.06 C 9.7 km/h
2731 17-12-2011 17:10:00 3.5 C 5.16 g/m*3 1.34 C 8.1 km/h
2732 17-12-2011 17:15:00 3.4 C 5.13 g/m*3 1.75 C 6.4 km/h
2733 17-12-2011 17:20:00 3.4 C 5.13 g/m*3 0.82 C 9.7 km/h
2734 17-12-2011 17:25:00 3.2 C 5.12 g/m*3 -0.1 C 12.9 km/h
2735 17-12-2011 17:30:00 3.2 C 5.12 g/m*3 0.99 C 8.1 km/h
2736 17-12-2011 17:35:00 3 C 5.05 g/m*3 -0.02 C 11.3 km/h
2737 17-12-2011 17:40:00 2.9 C 5.02 g/m*3 -0.14 C 11.3 km/h
2738 17-12-2011 17:45:00 3.1 C 4.97 g/m*3 0.46 C 9.7 km/h
2739 17-12-2011 17:50:00 3.2 C 5 g/m*3 0.99 C 8.1 km/h
2740 17-12-2011 17:55:00 3.1 C 4.97 g/m*3 0.87 C 8.1 km/h
2741 17-12-2011 18:00:00 3 C 4.93 g/m*3 0.34 C 9.7 km/h
2742 17-12-2011 18:05:00 2.8 C 4.93 g/m*3 1.05 C 6.4 km/h
2743 17-12-2011 18:10:00 2.6 C 4.86 g/m*3 -0.14 C 9.7 km/h
2744 17-12-2011 18:15:00 2.4 C 4.91 g/m*3 0.05 C 8.1 km/h
2745 17-12-2011 18:20:00 2.4 C 4.85 g/m*3 0.05 C 8.1 km/h
2746 17-12-2011 18:25:00 2.6 C 4.92 g/m*3 -0.5 C 11.3 km/h
2747 17-12-2011 18:30:00 2.6 C 4.92 g/m*3 -0.14 C 9.7 km/h
2748 17-12-2011 18:35:00 2.7 C 4.95 g/m*3 -0.38 C 11.3 km/h
2749 17-12-2011 18:40:00 2.8 C 4.93 g/m*3 0.1 C 9.7 km/h
2750 17-12-2011 18:45:00 2.9 C 4.9 g/m*3 1.17 C 6.4 km/h
Sensor: Nr:Datum:Temp:Abs-Feuchte:Windchill:Wind:
Aussen-T/F 2751 17-12-2011 18:50:00 2.8 C 4.93 g/m*3 0.52 C 8.1 km/h
2752 17-12-2011 18:55:00 2.8 C 4.93 g/m*3 0.52 C 8.1 km/h
2753 17-12-2011 19:00:00 2.7 C 4.89 g/m*3 2.7 C 4.8 km/h
2754 17-12-2011 19:05:00 2.6 C 4.92 g/m*3 0.82 C 6.4 km/h
2755 17-12-2011 19:10:00 2.4 C 4.85 g/m*3 -1.07 C 12.9 km/h
2756 17-12-2011 19:15:00 2.5 C 4.89 g/m*3 -0.26 C 9.7 km/h
2757 17-12-2011 19:20:00 2.5 C 4.89 g/m*3 -0.26 C 9.7 km/h
2758 17-12-2011 19:25:00 2.4 C 4.85 g/m*3 -0.37 C 9.7 km/h
2759 17-12-2011 19:30:00 2.3 C 4.88 g/m*3 2.3 C 4.8 km/h
2760 17-12-2011 19:35:00 2.2 C 4.84 g/m*3 0.36 C 6.4 km/h
2761 17-12-2011 19:40:00 2.2 C 4.84 g/m*3 -0.18 C 8.1 km/h
2762 17-12-2011 19:45:00 2.2 C 4.9 g/m*3 0.36 C 6.4 km/h
2763 17-12-2011 19:50:00 2.2 C 4.84 g/m*3 2.2 C 4.8 km/h
2764 17-12-2011 19:55:00 2.1 C 4.87 g/m*3 2.1 C 3.2 km/h
2765 17-12-2011 20:00:00 1.9 C 4.8 g/m*3 1.9 C 3.2 km/h
2766 17-12-2011 20:05:00 1.8 C 4.82 g/m*3 1.8 C 3.2 km/h
2767 17-12-2011 20:10:00 1.7 C 4.79 g/m*3 1.7 C 3.2 km/h
2768 17-12-2011 20:15:00 1.7 C 4.79 g/m*3 1.7 C 4.8 km/h
2769 17-12-2011 20:20:00 1.7 C 4.79 g/m*3 -0.22 C 6.4 km/h
2770 17-12-2011 20:25:00 1.9 C 4.8 g/m*3 1.9 C 4.8 km/h
2771 17-12-2011 20:30:00 2.2 C 4.84 g/m*3 -0.61 C 9.7 km/h
2772 17-12-2011 20:35:00 2.3 C 4.76 g/m*3 -0.87 C 11.3 km/h
2773 17-12-2011 20:40:00 2.8 C 4.81 g/m*3 -0.59 C 12.9 km/h
2774 17-12-2011 20:45:00 3.3 C 4.85 g/m*3 -0.26 C 14.5 km/h
2775 17-12-2011 20:50:00 3.4 C 4.89 g/m*3 -0.14 C 14.5 km/h
Sensor: Nr:Datum:Temp:Abs-Feuchte:Windchill:Wind:
Aussen-T/F 2776 17-12-2011 20:55:00 3.3 C 4.79 g/m*3 -0.26 C 14.5 km/h
2777 17-12-2011 21:00:00 3.4 C 4.83 g/m*3 -0.14 C 14.5 km/h
2778 17-12-2011 21:05:00 3.5 C 4.8 g/m*3 -0.02 C 14.5 km/h
2779 17-12-2011 21:10:00 3.5 C 4.8 g/m*3 0.58 C 11.3 km/h
2780 17-12-2011 21:15:00 3.4 C 4.76 g/m*3 0.14 C 12.9 km/h
2781 17-12-2011 21:20:00 3.6 C 4.83 g/m*3 -0.15 C 16.1 km/h
2782 17-12-2011 21:25:00 3.6 C 4.89 g/m*3 1.06 C 9.7 km/h
2783 17-12-2011 21:30:00 3.3 C 4.85 g/m*3 1.63 C 6.4 km/h
2784 17-12-2011 21:35:00 3.1 C 4.91 g/m*3 3.1 C 4.8 km/h
2785 17-12-2011 21:40:00 2.9 C 4.96 g/m*3 1.17 C 6.4 km/h
2786 17-12-2011 21:45:00 2.8 C 4.93 g/m*3 2.8 C 4.8 km/h
2787 17-12-2011 21:50:00 2.8 C 4.93 g/m*3 2.8 C 1.6 km/h
2788 17-12-2011 21:55:00 2.8 C 4.93 g/m*3 0.52 C 8.1 km/h
2789 17-12-2011 22:00:00 2.8 C 4.93 g/m*3 2.8 C 4.8 km/h
2790 17-12-2011 22:05:00 2.7 C 4.84 g/m*3 2.7 C 4.8 km/h
2791 17-12-2011 22:10:00 2.7 C 4.89 g/m*3 0.94 C 6.4 km/h
2792 17-12-2011 22:15:00 2.8 C 4.87 g/m*3 0.1 C 9.7 km/h
2793 17-12-2011 22:20:00 2.9 C 4.9 g/m*3 -0.46 C 12.9 km/h
2794 17-12-2011 22:25:00 3.1 C 4.97 g/m*3 0.87 C 8.1 km/h
2795 17-12-2011 22:30:00 3.1 C 4.97 g/m*3 0.46 C 9.7 km/h
2796 17-12-2011 22:35:00 3.1 C 4.97 g/m*3 0.87 C 8.1 km/h
2797 17-12-2011 22:40:00 3.2 C 5 g/m*3 0.99 C 8.1 km/h
2798 17-12-2011 22:45:00 3.2 C 5 g/m*3 -0.39 C 14.5 km/h
2799 17-12-2011 22:50:00 3.3 C 5.04 g/m*3 0.7 C 9.7 km/h
2800 17-12-2011 22:55:00 3.4 C 5.07 g/m*3 0.46 C 11.3 km/h
Sensor: Nr:Datum:Temp:Abs-Feuchte:Windchill:Wind:
Aussen-T/F 2801 17-12-2011 23:00:00 3.6 C 5.14 g/m*3 0.39 C 12.9 km/h
2802 17-12-2011 23:05:00 3.6 C 5.14 g/m*3 3.6 C 4.8 km/h
2803 17-12-2011 23:10:00 3.6 C 5.14 g/m*3 1.98 C 6.4 km/h
2804 17-12-2011 23:15:00 3.6 C 5.14 g/m*3 3.6 C 4.8 km/h
2805 17-12-2011 23:20:00 3.5 C 5.1 g/m*3 1.86 C 6.4 km/h
2806 17-12-2011 23:25:00 3.4 C 5.13 g/m*3 0.46 C 11.3 km/h
2807 17-12-2011 23:30:00 3.3 C 5.04 g/m*3 0.7 C 9.7 km/h
2808 17-12-2011 23:35:00 3.3 C 5.04 g/m*3 0.34 C 11.3 km/h
2809 17-12-2011 23:40:00 3.2 C 4.94 g/m*3 0.22 C 11.3 km/h
2810 17-12-2011 23:45:00 3.2 C 4.94 g/m*3 0.58 C 9.7 km/h
2811 17-12-2011 23:50:00 3.2 C 4.94 g/m*3 0.58 C 9.7 km/h
2812 17-12-2011 23:55:00 3.2 C 5 g/m*3 0.99 C 8.1 km/h
2813 18-12-2011 00:00:00 3.2 C 5 g/m*3 0.22 C 11.3 km/h
2814 18-12-2011 00:05:00 3.2 C 5 g/m*3 0.99 C 8.1 km/h
2815 18-12-2011 00:10:00 3.2 C 5 g/m*3 0.99 C 8.1 km/h
2816 18-12-2011 00:15:00 3.3 C 4.97 g/m*3 1.11 C 8.1 km/h
2817 18-12-2011 00:20:00 3.3 C 4.97 g/m*3 1.11 C 8.1 km/h
2818 18-12-2011 00:25:00 3.3 C 4.97 g/m*3 1.11 C 8.1 km/h
2819 18-12-2011 00:30:00 3.2 C 5 g/m*3 3.2 C 4.8 km/h
2820 18-12-2011 00:35:00 3.2 C 5 g/m*3 0.99 C 8.1 km/h
2821 18-12-2011 00:40:00 3.1 C 4.97 g/m*3 3.1 C 3.2 km/h
2822 18-12-2011 00:45:00 3 C 4.93 g/m*3 1.28 C 6.4 km/h
2823 18-12-2011 00:50:00 3.1 C 4.97 g/m*3 0.46 C 9.7 km/h
2824 18-12-2011 00:55:00 3.1 C 4.97 g/m*3 0.46 C 9.7 km/h
2825 18-12-2011 01:00:00 3.1 C 4.97 g/m*3 -0.51 C 14.5 km/h
Sensor: Nr:Datum:Temp:Abs-Feuchte:Windchill:Wind:
Aussen-T/F 2826 18-12-2011 01:05:00 3.2 C 5.06 g/m*3 -0.89 C 17.7 km/h
2827 18-12-2011 01:10:00 3.2 C 5 g/m*3 -0.65 C 16.1 km/h
2828 18-12-2011 01:15:00 3.2 C 5 g/m*3 0.99 C 8.1 km/h
2829 18-12-2011 01:20:00 3.2 C 5 g/m*3 0.58 C 9.7 km/h
2830 18-12-2011 01:25:00 3.2 C 5.06 g/m*3 0.58 C 9.7 km/h
2831 18-12-2011 01:30:00 3.2 C 5 g/m*3 0.22 C 11.3 km/h
2832 18-12-2011 01:35:00 3.2 C 5 g/m*3 0.58 C 9.7 km/h
2833 18-12-2011 01:40:00 3.2 C 5 g/m*3 0.22 C 11.3 km/h
2834 18-12-2011 01:45:00 3.2 C 5.06 g/m*3 0.99 C 8.1 km/h
2835 18-12-2011 01:50:00 3.2 C 5.06 g/m*3 -0.1 C 12.9 km/h
2836 18-12-2011 01:55:00 3.2 C 5.06 g/m*3 0.99 C 8.1 km/h
2837 18-12-2011 02:00:00 3.2 C 5.06 g/m*3 0.58 C 9.7 km/h
2838 18-12-2011 02:05:00 3.2 C 5.06 g/m*3 0.99 C 8.1 km/h
2839 18-12-2011 02:10:00 3.1 C 5.09 g/m*3 1.4 C 6.4 km/h
2840 18-12-2011 02:15:00 3.1 C 5.09 g/m*3 0.87 C 8.1 km/h
2841 18-12-2011 02:20:00 3.1 C 5.09 g/m*3 1.4 C 6.4 km/h
2842 18-12-2011 02:25:00 3.2 C 5.06 g/m*3 -0.1 C 12.9 km/h
2843 18-12-2011 02:30:00 3.2 C 5.06 g/m*3 0.58 C 9.7 km/h
2844 18-12-2011 02:35:00 3.3 C 5.04 g/m*3 0.34 C 11.3 km/h
2845 18-12-2011 02:40:00 3.3 C 5.04 g/m*3 1.11 C 8.1 km/h
2846 18-12-2011 02:45:00 3.4 C 5.07 g/m*3 0.82 C 9.7 km/h
2847 18-12-2011 02:50:00 3.4 C 5.07 g/m*3 0.82 C 9.7 km/h
2848 18-12-2011 02:55:00 3.4 C 5.07 g/m*3 0.82 C 9.7 km/h
2849 18-12-2011 03:00:00 3.4 C 5.07 g/m*3 0.82 C 9.7 km/h
2850 18-12-2011 03:05:00 3.4 C 5.01 g/m*3 1.23 C 8.1 km/h
Sensor: Nr:Datum:Temp:Abs-Feuchte:Windchill:Wind:
Aussen-T/F 2851 18-12-2011 03:10:00 3.4 C 5.01 g/m*3 0.82 C 9.7 km/h
2852 18-12-2011 03:15:00 3.4 C 5.01 g/m*3 1.75 C 6.4 km/h
2853 18-12-2011 03:20:00 3.4 C 5.01 g/m*3 0.82 C 9.7 km/h
2854 18-12-2011 03:25:00 3.3 C 5.04 g/m*3 1.11 C 8.1 km/h
2855 18-12-2011 03:30:00 3.2 C 5 g/m*3 1.51 C 6.4 km/h
2856 18-12-2011 03:35:00 3.1 C 4.97 g/m*3 0.87 C 8.1 km/h
2857 18-12-2011 03:40:00 3.1 C 5.03 g/m*3 1.4 C 6.4 km/h
2858 18-12-2011 03:45:00 2.9 C 4.96 g/m*3 0.64 C 8.1 km/h
2859 18-12-2011 03:50:00 2.8 C 4.99 g/m*3 0.52 C 8.1 km/h
2860 18-12-2011 03:55:00 2.6 C 4.98 g/m*3 2.6 C 4.8 km/h
2861 18-12-2011 04:00:00 2.4 C 4.91 g/m*3 2.4 C 4.8 km/h
2862 18-12-2011 04:05:00 2.3 C 4.88 g/m*3 2.3 C 4.8 km/h
2863 18-12-2011 04:10:00 2.3 C 4.88 g/m*3 -0.49 C 9.7 km/h
2864 18-12-2011 04:15:00 2.4 C 4.85 g/m*3 0.59 C 6.4 km/h
2865 18-12-2011 04:20:00 2.4 C 4.85 g/m*3 0.05 C 8.1 km/h
2866 18-12-2011 04:25:00 2.6 C 4.86 g/m*3 -0.14 C 9.7 km/h
2867 18-12-2011 04:30:00 2.8 C 4.87 g/m*3 -1.14 C 16.1 km/h
2868 18-12-2011 04:35:00 2.9 C 4.78 g/m*3 -0.76 C 14.5 km/h
2869 18-12-2011 04:40:00 2.9 C 4.78 g/m*3 -0.76 C 14.5 km/h
2870 18-12-2011 04:45:00 2.9 C 4.84 g/m*3 -0.14 C 11.3 km/h
2871 18-12-2011 04:50:00 2.7 C 4.84 g/m*3 0.4 C 8.1 km/h
2872 18-12-2011 04:55:00 2.7 C 4.89 g/m*3 -0.71 C 12.9 km/h
2873 18-12-2011 05:00:00 2.7 C 4.89 g/m*3 0.4 C 8.1 km/h
2874 18-12-2011 05:05:00 2.6 C 4.86 g/m*3 0.29 C 8.1 km/h
2875 18-12-2011 05:10:00 2.6 C 4.92 g/m*3 -0.14 C 9.7 km/h
Sensor: Nr:Datum:Temp:Abs-Feuchte:Windchill:Wind:
Aussen-T/F 2876 18-12-2011 05:15:00 2.6 C 4.86 g/m*3 -1.12 C 14.5 km/h
2877 18-12-2011 05:20:00 2.6 C 4.92 g/m*3 -1.64 C 17.7 km/h
2878 18-12-2011 05:25:00 2.6 C 4.86 g/m*3 -0.5 C 11.3 km/h
2879 18-12-2011 05:30:00 2.6 C 4.86 g/m*3 -0.5 C 11.3 km/h
2880 18-12-2011 05:35:00 2.6 C 4.86 g/m*3 -1.12 C 14.5 km/h
2881 18-12-2011 05:40:00 2.6 C 4.86 g/m*3 -0.83 C 12.9 km/h
2882 18-12-2011 05:45:00 2.5 C 4.89 g/m*3 -0.26 C 9.7 km/h
2883 18-12-2011 05:50:00 2.4 C 4.85 g/m*3 2.4 C 4.8 km/h
2884 18-12-2011 05:55:00 2.3 C 4.82 g/m*3 2.3 C 3.2 km/h
2885 18-12-2011 06:00:00 2.2 C 4.84 g/m*3 2.2 C 4.8 km/h
2886 18-12-2011 06:05:00 2.1 C 4.87 g/m*3 2.1 C 3.2 km/h
2887 18-12-2011 06:10:00 2.2 C 4.9 g/m*3 2.2 C 4.8 km/h
2888 18-12-2011 06:15:00 2.1 C 4.87 g/m*3 2.1 C 4.8 km/h
2889 18-12-2011 06:20:00 2.2 C 4.9 g/m*3 0.36 C 6.4 km/h
2890 18-12-2011 06:25:00 2.2 C 4.84 g/m*3 2.2 C 4.8 km/h
2891 18-12-2011 06:30:00 2.2 C 4.9 g/m*3 0.36 C 6.4 km/h
2892 18-12-2011 06:35:00 2.2 C 4.84 g/m*3 0.36 C 6.4 km/h
2893 18-12-2011 06:40:00 2.3 C 4.88 g/m*3 0.47 C 6.4 km/h
2894 18-12-2011 06:45:00 2.3 C 4.88 g/m*3 2.3 C 4.8 km/h
2895 18-12-2011 06:50:00 2.3 C 4.88 g/m*3 -0.07 C 8.1 km/h
2896 18-12-2011 06:55:00 2.4 C 4.91 g/m*3 0.59 C 6.4 km/h
2897 18-12-2011 07:00:00 2.3 C 4.88 g/m*3 2.3 C 4.8 km/h
2898 18-12-2011 07:05:00 2.4 C 4.91 g/m*3 0.05 C 8.1 km/h
2899 18-12-2011 07:10:00 2.4 C 4.91 g/m*3 2.4 C 4.8 km/h
2900 18-12-2011 07:15:00 2.4 C 4.91 g/m*3 2.4 C 3.2 km/h
Sensor: Nr:Datum:Temp:Abs-Feuchte:Windchill:Wind:
Aussen-T/F 2901 18-12-2011 07:20:00 2.4 C 4.91 g/m*3 2.4 C 4.8 km/h
2902 18-12-2011 07:25:00 2.3 C 4.93 g/m*3 0.47 C 6.4 km/h
2903 18-12-2011 07:30:00 2.3 C 4.93 g/m*3 2.3 C 4.8 km/h
2904 18-12-2011 07:35:00 2.3 C 4.93 g/m*3 2.3 C 4.8 km/h
2905 18-12-2011 07:40:00 2.3 C 4.93 g/m*3 2.3 C 4.8 km/h
2906 18-12-2011 07:45:00 2.2 C 4.96 g/m*3 2.2 C 4.8 km/h
2907 18-12-2011 07:50:00 2.2 C 4.96 g/m*3 2.2 C 3.2 km/h
2908 18-12-2011 07:55:00 2.1 C 4.92 g/m*3 2.1 C 3.2 km/h
2909 18-12-2011 08:00:00 2.1 C 4.98 g/m*3 2.1 C 4.8 km/h
2910 18-12-2011 08:05:00 2.1 C 4.98 g/m*3 2.1 C 4.8 km/h
2911 18-12-2011 08:10:00 2.1 C 4.92 g/m*3 0.24 C 6.4 km/h
2912 18-12-2011 08:15:00 2.2 C 4.96 g/m*3 0.36 C 6.4 km/h
2913 18-12-2011 08:20:00 2.4 C 4.97 g/m*3 0.05 C 8.1 km/h
2914 18-12-2011 08:25:00 2.5 C 4.94 g/m*3 2.5 C 4.8 km/h
2915 18-12-2011 08:30:00 2.6 C 4.98 g/m*3 -0.5 C 11.3 km/h
2916 18-12-2011 08:35:00 2.6 C 5.03 g/m*3 2.6 C 4.8 km/h
2917 18-12-2011 08:40:00 2.4 C 5.02 g/m*3 0.05 C 8.1 km/h
2918 18-12-2011 08:45:00 2.2 C 5.01 g/m*3 -0.18 C 8.1 km/h
2919 18-12-2011 08:50:00 2.1 C 4.98 g/m*3 0.24 C 6.4 km/h
2920 18-12-2011 08:55:00 1.9 C 4.97 g/m*3 -0.97 C 9.7 km/h
2921 18-12-2011 09:00:00 1.8 C 4.93 g/m*3 -0.65 C 8.1 km/h
2922 18-12-2011 09:05:00 1.8 C 4.99 g/m*3 -1.47 C 11.3 km/h
2923 18-12-2011 09:10:00 1.7 C 4.95 g/m*3 -0.22 C 6.4 km/h
2924 18-12-2011 09:15:00 1.7 C 5.01 g/m*3 1.7 C 4.8 km/h
2925 18-12-2011 09:20:00 1.7 C 5.01 g/m*3 1.7 C 4.8 km/h
Sensor: Nr:Datum:Temp:Abs-Feuchte:Windchill:Wind:
Aussen-T/F 2926 18-12-2011 09:25:00 1.8 C 5.04 g/m*3 1.8 C 4.8 km/h
2927 18-12-2011 09:30:00 1.8 C 5.04 g/m*3 1.8 C 4.8 km/h
2928 18-12-2011 09:35:00 1.9 C 5.08 g/m*3 1.9 C 4.8 km/h
2929 18-12-2011 09:40:00 1.9 C 5.08 g/m*3 1.9 C 3.2 km/h
2930 18-12-2011 09:45:00 2 C 5.11 g/m*3 -0.85 C 9.7 km/h
2931 18-12-2011 09:50:00 2.1 C 5.09 g/m*3 -0.3 C 8.1 km/h
2932 18-12-2011 09:55:00 2.1 C 5.15 g/m*3 2.1 C 4.8 km/h
2933 18-12-2011 10:00:00 2.1 C 5.15 g/m*3 0.24 C 6.4 km/h
2934 18-12-2011 10:05:00 2.1 C 5.15 g/m*3 -0.3 C 8.1 km/h
2935 18-12-2011 10:10:00 2.1 C 5.15 g/m*3 0.24 C 6.4 km/h
2936 18-12-2011 10:15:00 2.1 C 5.15 g/m*3 2.1 C 4.8 km/h
2937 18-12-2011 10:20:00 2.1 C 5.15 g/m*3 -0.73 C 9.7 km/h
2938 18-12-2011 10:25:00 2.1 C 5.15 g/m*3 2.1 C 4.8 km/h
2939 18-12-2011 10:30:00 2 C 5.11 g/m*3 2 C 4.8 km/h
2940 18-12-2011 10:35:00 2 C 5.11 g/m*3 0.13 C 6.4 km/h
2941 18-12-2011 10:40:00 1.9 C 5.02 g/m*3 0.01 C 6.4 km/h
2942 18-12-2011 10:45:00 1.7 C 4.95 g/m*3 1.7 C 1.6 km/h
2943 18-12-2011 10:50:00 1.6 C 4.92 g/m*3 1.6 C 3.2 km/h
2944 18-12-2011 10:55:00 1.4 C 4.85 g/m*3 1.4 C 1.6 km/h
2945 18-12-2011 11:00:00 1.3 C 4.87 g/m*3 1.3 C 1.6 km/h
2946 18-12-2011 11:05:00 1.2 C 4.84 g/m*3 1.2 C 1.6 km/h
2947 18-12-2011 11:10:00 1.1 C 4.86 g/m*3 1.1 C 4.8 km/h
2948 18-12-2011 11:15:00 1.1 C 4.86 g/m*3 1.1 C 3.2 km/h
2949 18-12-2011 11:20:00 1.1 C 4.86 g/m*3 1.1 C 0 km/h
2950 18-12-2011 11:25:00 1.1 C 4.91 g/m*3 1.1 C 3.2 km/h
Sensor: Nr:Datum:Temp:Abs-Feuchte:Windchill:Wind:
Aussen-T/F 2951 18-12-2011 11:30:00 1.2 C 4.95 g/m*3 1.2 C 3.2 km/h
2952 18-12-2011 11:35:00 1.2 C 4.95 g/m*3 1.2 C 4.8 km/h
2953 18-12-2011 11:40:00 1.4 C 5.01 g/m*3 1.4 C 3.2 km/h
2954 18-12-2011 11:45:00 1.5 C 4.99 g/m*3 1.5 C 4.8 km/h
2955 18-12-2011 11:50:00 1.6 C 5.03 g/m*3 1.6 C 4.8 km/h
2956 18-12-2011 11:55:00 1.7 C 5.06 g/m*3 -0.22 C 6.4 km/h
2957 18-12-2011 12:00:00 1.8 C 5.1 g/m*3 1.8 C 3.2 km/h
2958 18-12-2011 12:05:00 1.9 C 5.08 g/m*3 -0.54 C 8.1 km/h
2959 18-12-2011 12:10:00 1.9 C 5.08 g/m*3 1.9 C 4.8 km/h
2960 18-12-2011 12:15:00 2 C 5.06 g/m*3 -0.42 C 8.1 km/h
2961 18-12-2011 12:20:00 2.1 C 5.09 g/m*3 2.1 C 4.8 km/h
2962 18-12-2011 12:25:00 2.1 C 5.09 g/m*3 0.24 C 6.4 km/h
2963 18-12-2011 12:30:00 2.2 C 5.13 g/m*3 0.36 C 6.4 km/h
2964 18-12-2011 12:35:00 2.2 C 5.13 g/m*3 0.36 C 6.4 km/h
2965 18-12-2011 12:40:00 2.3 C 5.16 g/m*3 2.3 C 1.6 km/h
2966 18-12-2011 12:45:00 2.4 C 5.2 g/m*3 0.59 C 6.4 km/h
2967 18-12-2011 12:50:00 2.4 C 5.2 g/m*3 2.4 C 4.8 km/h
2968 18-12-2011 12:55:00 2.4 C 5.14 g/m*3 2.4 C 4.8 km/h
2969 18-12-2011 13:00:00 2.5 C 5.23 g/m*3 2.5 C 1.6 km/h
2970 18-12-2011 13:05:00 2.6 C 5.27 g/m*3 2.6 C 1.6 km/h
2971 18-12-2011 13:10:00 2.6 C 5.32 g/m*3 2.6 C 3.2 km/h
2972 18-12-2011 13:15:00 2.6 C 5.32 g/m*3 2.6 C 1.6 km/h
2973 18-12-2011 13:20:00 2.7 C 5.42 g/m*3 2.7 C 1.6 km/h
2974 18-12-2011 13:25:00 2.7 C 5.24 g/m*3 2.7 C 3.2 km/h
2975 18-12-2011 13:30:00 2.8 C 5.4 g/m*3 2.8 C 0 km/h
Sensor: Nr:Datum:Temp:Abs-Feuchte:Windchill:Wind:
Aussen-T/F 2976 18-12-2011 13:35:00 2.8 C 5.34 g/m*3 1.05 C 6.4 km/h
2977 18-12-2011 13:40:00 2.9 C 5.32 g/m*3 1.17 C 6.4 km/h
2978 18-12-2011 13:45:00 2.9 C 5.32 g/m*3 2.9 C 1.6 km/h
2979 18-12-2011 13:50:00 3.1 C 5.33 g/m*3 3.1 C 4.8 km/h
2980 18-12-2011 13:55:00 3.1 C 5.33 g/m*3 3.1 C 1.6 km/h
2981 18-12-2011 14:00:00 3.2 C 5.36 g/m*3 0.99 C 8.1 km/h
2982 18-12-2011 14:05:00 3.2 C 5.36 g/m*3 1.51 C 6.4 km/h
2983 18-12-2011 14:10:00 3.2 C 5.42 g/m*3 3.2 C 0 km/h
2984 18-12-2011 14:15:00 3.3 C 5.4 g/m*3 3.3 C 4.8 km/h
2985 18-12-2011 14:20:00 3.3 C 5.34 g/m*3 3.3 C 3.2 km/h
2986 18-12-2011 14:25:00 3.3 C 5.4 g/m*3 3.3 C 0 km/h
2987 18-12-2011 14:30:00 3.4 C 5.5 g/m*3 3.4 C 1.6 km/h
2988 18-12-2011 14:35:00 3.3 C 5.46 g/m*3 3.3 C 1.6 km/h
2989 18-12-2011 14:40:00 3.3 C 5.52 g/m*3 3.3 C 1.6 km/h
2990 18-12-2011 14:45:00 3.2 C 5.54 g/m*3 3.2 C 1.6 km/h
2991 18-12-2011 14:50:00 3.1 C 5.51 g/m*3 3.1 C 1.6 km/h
2992 18-12-2011 14:55:00 3.1 C 5.51 g/m*3 3.1 C 1.6 km/h
2993 18-12-2011 15:00:00 3.1 C 5.57 g/m*3 3.1 C 3.2 km/h
2994 18-12-2011 15:05:00 3 C 5.35 g/m*3 1.28 C 6.4 km/h
2995 18-12-2011 15:10:00 3.1 C 5.21 g/m*3 0.46 C 9.7 km/h
2996 18-12-2011 15:15:00 3.3 C 5.22 g/m*3 3.3 C 4.8 km/h
2997 18-12-2011 15:20:00 3.3 C 5.4 g/m*3 3.3 C 3.2 km/h
2998 18-12-2011 15:25:00 3.2 C 5.36 g/m*3 3.2 C 4.8 km/h
2999 18-12-2011 15:30:00 3.2 C 5.24 g/m*3 3.2 C 4.8 km/h
3000 18-12-2011 15:35:00 3.3 C 5.16 g/m*3 3.3 C 4.8 km/h
Sensor: Nr:Datum:Temp:Abs-Feuchte:Windchill:Wind:
Aussen-T/F 3001 18-12-2011 15:40:00 3.4 C 5.19 g/m*3 3.4 C 3.2 km/h
3002 18-12-2011 15:45:00 3.4 C 5.19 g/m*3 1.75 C 6.4 km/h
3003 18-12-2011 15:50:00 3.4 C 5.13 g/m*3 1.75 C 6.4 km/h
3004 18-12-2011 15:55:00 3.3 C 5.22 g/m*3 3.3 C 3.2 km/h
3005 18-12-2011 16:00:00 3.3 C 5.16 g/m*3 1.63 C 6.4 km/h
3006 18-12-2011 16:05:00 3.2 C 5.12 g/m*3 3.2 C 4.8 km/h
3007 18-12-2011 16:10:00 3.2 C 5.18 g/m*3 3.2 C 3.2 km/h
3008 18-12-2011 16:15:00 3.2 C 5.18 g/m*3 3.2 C 4.8 km/h
3009 18-12-2011 16:20:00 3.2 C 5.12 g/m*3 1.51 C 6.4 km/h
3010 18-12-2011 16:25:00 3.3 C 5.1 g/m*3 1.63 C 6.4 km/h
3011 18-12-2011 16:30:00 3.2 C 5.06 g/m*3 1.51 C 6.4 km/h
3012 18-12-2011 16:35:00 3.2 C 5 g/m*3 3.2 C 4.8 km/h
3013 18-12-2011 16:40:00 3.2 C 5 g/m*3 3.2 C 4.8 km/h
3014 18-12-2011 16:45:00 3.2 C 5 g/m*3 3.2 C 4.8 km/h
3015 18-12-2011 16:50:00 3.2 C 5 g/m*3 3.2 C 3.2 km/h
3016 18-12-2011 16:55:00 3.2 C 5.12 g/m*3 3.2 C 3.2 km/h
3017 18-12-2011 17:00:00 3.1 C 5.09 g/m*3 0.87 C 8.1 km/h
3018 18-12-2011 17:05:00 3 C 5.05 g/m*3 3 C 4.8 km/h
3019 18-12-2011 17:10:00 2.9 C 5.02 g/m*3 2.9 C 3.2 km/h
3020 18-12-2011 17:15:00 2.7 C 5.01 g/m*3 2.7 C 4.8 km/h
3021 18-12-2011 17:20:00 2.6 C 4.98 g/m*3 0.82 C 6.4 km/h
3022 18-12-2011 17:25:00 2.6 C 4.92 g/m*3 2.6 C 3.2 km/h
3023 18-12-2011 17:30:00 2.4 C 4.85 g/m*3 2.4 C 4.8 km/h
3024 18-12-2011 17:35:00 2.4 C 4.91 g/m*3 0.59 C 6.4 km/h
3025 18-12-2011 17:40:00 2.4 C 4.85 g/m*3 0.59 C 6.4 km/h
Sensor: Nr:Datum:Temp:Abs-Feuchte:Windchill:Wind:
Aussen-T/F 3026 18-12-2011 17:45:00 2.4 C 4.85 g/m*3 2.4 C 4.8 km/h
3027 18-12-2011 17:50:00 2.4 C 4.91 g/m*3 0.59 C 6.4 km/h
3028 18-12-2011 17:55:00 2.3 C 4.82 g/m*3 2.3 C 4.8 km/h
3029 18-12-2011 18:00:00 2.3 C 4.88 g/m*3 2.3 C 3.2 km/h
3030 18-12-2011 18:05:00 2.3 C 4.76 g/m*3 2.3 C 3.2 km/h
3031 18-12-2011 18:10:00 2.4 C 4.85 g/m*3 2.4 C 4.8 km/h
3032 18-12-2011 18:15:00 2.4 C 4.91 g/m*3 2.4 C 4.8 km/h
3033 18-12-2011 18:20:00 2.4 C 4.8 g/m*3 2.4 C 4.8 km/h
3034 18-12-2011 18:25:00 2.3 C 4.76 g/m*3 2.3 C 3.2 km/h
3035 18-12-2011 18:30:00 2.2 C 4.84 g/m*3 0.36 C 6.4 km/h
3036 18-12-2011 18:35:00 2 C 4.72 g/m*3 2 C 4.8 km/h
3037 18-12-2011 18:40:00 1.9 C 4.75 g/m*3 1.9 C 4.8 km/h
3038 18-12-2011 18:45:00 1.8 C 4.71 g/m*3 1.8 C 3.2 km/h
3039 18-12-2011 18:50:00 1.7 C 4.68 g/m*3 -0.22 C 6.4 km/h
3040 18-12-2011 18:55:00 1.8 C 4.71 g/m*3 1.8 C 4.8 km/h
3041 18-12-2011 19:00:00 1.8 C 4.77 g/m*3 1.8 C 4.8 km/h
3042 18-12-2011 19:05:00 1.7 C 4.68 g/m*3 1.7 C 4.8 km/h
3043 18-12-2011 19:10:00 1.8 C 4.71 g/m*3 -1.09 C 9.7 km/h
3044 18-12-2011 19:15:00 1.9 C 4.69 g/m*3 -0.54 C 8.1 km/h
3045 18-12-2011 19:20:00 1.9 C 4.75 g/m*3 1.9 C 4.8 km/h
3046 18-12-2011 19:25:00 2 C 4.72 g/m*3 0.13 C 6.4 km/h
3047 18-12-2011 19:30:00 2 C 4.78 g/m*3 2 C 3.2 km/h
3048 18-12-2011 19:35:00 1.9 C 4.75 g/m*3 1.9 C 4.8 km/h
3049 18-12-2011 19:40:00 1.8 C 4.66 g/m*3 -0.1 C 6.4 km/h
3050 18-12-2011 19:45:00 1.7 C 4.63 g/m*3 -1.21 C 9.7 km/h
Sensor: Nr:Datum:Temp:Abs-Feuchte:Windchill:Wind:
Aussen-T/F 3051 18-12-2011 19:50:00 1.7 C 4.63 g/m*3 -1.21 C 9.7 km/h
3052 18-12-2011 19:55:00 1.6 C 4.6 g/m*3 -0.89 C 8.1 km/h
3053 18-12-2011 20:00:00 1.3 C 4.61 g/m*3 1.3 C 3.2 km/h
3054 18-12-2011 20:05:00 1.2 C 4.58 g/m*3 1.2 C 4.8 km/h
3055 18-12-2011 20:10:00 1.1 C 4.55 g/m*3 -0.91 C 6.4 km/h
3056 18-12-2011 20:15:00 1.1 C 4.6 g/m*3 -0.91 C 6.4 km/h
3057 18-12-2011 20:20:00 1.1 C 4.6 g/m*3 1.1 C 3.2 km/h
3058 18-12-2011 20:25:00 1 C 4.62 g/m*3 1 C 3.2 km/h
3059 18-12-2011 20:30:00 0.9 C 4.59 g/m*3 0.9 C 3.2 km/h
3060 18-12-2011 20:35:00 0.7 C 4.53 g/m*3 0.7 C 4.8 km/h
3061 18-12-2011 20:40:00 0.6 C 4.54 g/m*3 0.6 C 3.2 km/h
3062 18-12-2011 20:45:00 0.5 C 4.51 g/m*3 0.5 C 4.8 km/h
3063 18-12-2011 20:50:00 0.4 C 4.48 g/m*3 0.4 C 3.2 km/h
3064 18-12-2011 20:55:00 0.3 C 4.45 g/m*3 0.3 C 4.8 km/h
3065 18-12-2011 21:00:00 0.2 C 4.42 g/m*3 0.2 C 4.8 km/h
3066 18-12-2011 21:05:00 0.2 C 4.47 g/m*3 0.2 C 3.2 km/h
3067 18-12-2011 21:10:00 0.2 C 4.47 g/m*3 -1.95 C 6.4 km/h
3068 18-12-2011 21:15:00 0.7 C 4.58 g/m*3 -2.4 C 9.7 km/h
3069 18-12-2011 21:20:00 0.9 C 4.54 g/m*3 -2.16 C 9.7 km/h
3070 18-12-2011 21:25:00 1.1 C 4.55 g/m*3 -0.91 C 6.4 km/h
3071 18-12-2011 21:30:00 1 C 4.52 g/m*3 -1.59 C 8.1 km/h
3072 18-12-2011 21:35:00 1.1 C 4.49 g/m*3 -2.66 C 12.9 km/h
3073 18-12-2011 21:40:00 1.3 C 4.5 g/m*3 -3 C 16.1 km/h
3074 18-12-2011 21:45:00 1.4 C 4.53 g/m*3 -2.29 C 12.9 km/h
3075 18-12-2011 21:50:00 1.3 C 4.5 g/m*3 -2.41 C 12.9 km/h
Sensor: Nr:Datum:Temp:Abs-Feuchte:Windchill:Wind:
Aussen-T/F 3076 18-12-2011 21:55:00 1.3 C 4.5 g/m*3 -3.26 C 17.7 km/h
3077 18-12-2011 22:00:00 1.3 C 4.45 g/m*3 -3 C 16.1 km/h
3078 18-12-2011 22:05:00 1.3 C 4.4 g/m*3 -2.41 C 12.9 km/h
3079 18-12-2011 22:10:00 1.2 C 4.37 g/m*3 -1.8 C 9.7 km/h
3080 18-12-2011 22:15:00 1.2 C 4.42 g/m*3 -2.19 C 11.3 km/h
3081 18-12-2011 22:20:00 1.1 C 4.34 g/m*3 -1.92 C 9.7 km/h
3082 18-12-2011 22:25:00 1.1 C 4.34 g/m*3 -2.31 C 11.3 km/h
3083 18-12-2011 22:30:00 0.9 C 4.33 g/m*3 -2.55 C 11.3 km/h
3084 18-12-2011 22:35:00 0.9 C 4.28 g/m*3 -3.21 C 14.5 km/h
3085 18-12-2011 22:40:00 0.9 C 4.28 g/m*3 -1.71 C 8.1 km/h
3086 18-12-2011 22:45:00 0.8 C 4.2 g/m*3 -3.02 C 12.9 km/h
3087 18-12-2011 22:50:00 0.8 C 4.25 g/m*3 -2.67 C 11.3 km/h
3088 18-12-2011 22:55:00 0.8 C 4.25 g/m*3 -2.28 C 9.7 km/h
3089 18-12-2011 23:00:00 0.6 C 4.24 g/m*3 -2.06 C 8.1 km/h
3090 18-12-2011 23:05:00 0.4 C 4.18 g/m*3 -2.3 C 8.1 km/h
3091 18-12-2011 23:10:00 0.4 C 4.18 g/m*3 -2.76 C 9.7 km/h
3092 18-12-2011 23:15:00 0.4 C 4.18 g/m*3 -3.16 C 11.3 km/h
3093 18-12-2011 23:20:00 0.5 C 4.21 g/m*3 -2.18 C 8.1 km/h
3094 18-12-2011 23:25:00 0.4 C 4.18 g/m*3 -1.72 C 6.4 km/h
3095 18-12-2011 23:30:00 0.4 C 4.18 g/m*3 -1.72 C 6.4 km/h
3096 18-12-2011 23:35:00 0.4 C 4.18 g/m*3 -2.76 C 9.7 km/h
3097 18-12-2011 23:40:00 0.4 C 4.13 g/m*3 -1.72 C 6.4 km/h
3098 18-12-2011 23:45:00 0.4 C 4.13 g/m*3 -2.3 C 8.1 km/h
3099 18-12-2011 23:50:00 0.4 C 4.13 g/m*3 0.4 C 4.8 km/h
3100 18-12-2011 23:55:00 0.4 C 4.23 g/m*3 -1.72 C 6.4 km/h
Sensor: Nr:Datum:Temp:Abs-Feuchte:Windchill:Wind:
Aussen-T/F 3101 19-12-2011 00:00:00 0.3 C 4.25 g/m*3 -1.84 C 6.4 km/h
3102 19-12-2011 00:05:00 0.3 C 4.2 g/m*3 -1.84 C 6.4 km/h
3103 19-12-2011 00:10:00 0.3 C 4.2 g/m*3 -3.28 C 11.3 km/h
3104 19-12-2011 00:15:00 0.2 C 4.27 g/m*3 -2.53 C 8.1 km/h
3105 19-12-2011 00:20:00 0.3 C 4.2 g/m*3 -2.88 C 9.7 km/h
3106 19-12-2011 00:25:00 0.6 C 4.24 g/m*3 -2.06 C 8.1 km/h
3107 19-12-2011 00:30:00 0.7 C 4.27 g/m*3 -1.95 C 8.1 km/h
3108 19-12-2011 00:35:00 0.8 C 4.3 g/m*3 -2.28 C 9.7 km/h
3109 19-12-2011 00:40:00 0.8 C 4.3 g/m*3 -1.83 C 8.1 km/h
3110 19-12-2011 00:45:00 0.8 C 4.3 g/m*3 -2.28 C 9.7 km/h
3111 19-12-2011 00:50:00 0.7 C 4.32 g/m*3 -1.37 C 6.4 km/h
3112 19-12-2011 00:55:00 0.8 C 4.3 g/m*3 -2.28 C 9.7 km/h
3113 19-12-2011 01:00:00 0.8 C 4.3 g/m*3 -1.26 C 6.4 km/h
3114 19-12-2011 01:05:00 0.8 C 4.4 g/m*3 -1.26 C 6.4 km/h
3115 19-12-2011 01:10:00 0.7 C 4.37 g/m*3 -1.37 C 6.4 km/h
3116 19-12-2011 01:15:00 0.5 C 4.36 g/m*3 0.5 C 4.8 km/h
3117 19-12-2011 01:20:00 0.4 C 4.33 g/m*3 -2.3 C 8.1 km/h
3118 19-12-2011 01:25:00 0.3 C 4.35 g/m*3 0.3 C 4.8 km/h
3119 19-12-2011 01:30:00 0.3 C 4.4 g/m*3 0.3 C 3.2 km/h
3120 19-12-2011 01:35:00 0.3 C 4.4 g/m*3 0.3 C 3.2 km/h
3121 19-12-2011 01:40:00 0.3 C 4.45 g/m*3 0.3 C 3.2 km/h
3122 19-12-2011 01:45:00 0.3 C 4.45 g/m*3 0.3 C 4.8 km/h
3123 19-12-2011 01:50:00 0.2 C 4.42 g/m*3 0.2 C 3.2 km/h
3124 19-12-2011 01:55:00 0.2 C 4.42 g/m*3 0.2 C 1.6 km/h
3125 19-12-2011 02:00:00 0.1 C 4.39 g/m*3 0.1 C 3.2 km/h
Sensor: Nr:Datum:Temp:Abs-Feuchte:Windchill:Wind:
Aussen-T/F 3126 19-12-2011 02:05:00 0.1 C 4.39 g/m*3 0.1 C 3.2 km/h
3127 19-12-2011 02:10:00 0 C 4.36 g/m*3 0 C 3.2 km/h
3128 19-12-2011 02:15:00 -0.1 C 4.38 g/m*3 -0.1 C 1.6 km/h
3129 19-12-2011 02:20:00 -0.1 C 4.38 g/m*3 -0.1 C 0 km/h
3130 19-12-2011 02:25:00 -0.1 C 4.43 g/m*3 -0.1 C 1.6 km/h
3131 19-12-2011 02:30:00 0 C 4.41 g/m*3 0 C 3.2 km/h
3132 19-12-2011 02:35:00 0.1 C 4.49 g/m*3 0.1 C 1.6 km/h
3133 19-12-2011 02:40:00 0.2 C 4.52 g/m*3 0.2 C 0 km/h
3134 19-12-2011 02:45:00 0.2 C 4.52 g/m*3 0.2 C 1.6 km/h
3135 19-12-2011 02:50:00 0.3 C 4.5 g/m*3 0.3 C 1.6 km/h
3136 19-12-2011 02:55:00 0.4 C 4.53 g/m*3 0.4 C 1.6 km/h
3137 19-12-2011 03:00:00 0.4 C 4.53 g/m*3 0.4 C 3.2 km/h
3138 19-12-2011 03:05:00 0.6 C 4.6 g/m*3 0.6 C 4.8 km/h
3139 19-12-2011 03:10:00 0.7 C 4.63 g/m*3 0.7 C 3.2 km/h
3140 19-12-2011 03:15:00 0.9 C 4.64 g/m*3 -1.71 C 8.1 km/h
3141 19-12-2011 03:20:00 1 C 4.62 g/m*3 -1.59 C 8.1 km/h
3142 19-12-2011 03:25:00 1.1 C 4.65 g/m*3 -0.91 C 6.4 km/h
3143 19-12-2011 03:30:00 1.2 C 4.68 g/m*3 1.2 C 4.8 km/h
3144 19-12-2011 03:35:00 1.2 C 4.63 g/m*3 -0.8 C 6.4 km/h
3145 19-12-2011 03:40:00 1.2 C 4.68 g/m*3 -0.8 C 6.4 km/h
3146 19-12-2011 03:45:00 1.3 C 4.66 g/m*3 -0.68 C 6.4 km/h
3147 19-12-2011 03:50:00 1.3 C 4.66 g/m*3 -1.24 C 8.1 km/h
3148 19-12-2011 03:55:00 1.4 C 4.69 g/m*3 1.4 C 4.8 km/h
3149 19-12-2011 04:00:00 1.3 C 4.66 g/m*3 1.3 C 3.2 km/h
3150 19-12-2011 04:05:00 1.3 C 4.66 g/m*3 1.3 C 4.8 km/h
Sensor: Nr:Datum:Temp:Abs-Feuchte:Windchill:Wind:
Aussen-T/F 3151 19-12-2011 04:10:00 1.3 C 4.72 g/m*3 1.3 C 3.2 km/h
3152 19-12-2011 04:15:00 1.2 C 4.68 g/m*3 1.2 C 4.8 km/h
3153 19-12-2011 04:20:00 1.2 C 4.68 g/m*3 1.2 C 1.6 km/h
3154 19-12-2011 04:25:00 1.2 C 4.68 g/m*3 1.2 C 1.6 km/h
3155 19-12-2011 04:30:00 1.1 C 4.7 g/m*3 1.1 C 1.6 km/h
3156 19-12-2011 04:35:00 1.1 C 4.7 g/m*3 1.1 C 1.6 km/h
3157 19-12-2011 04:40:00 1.1 C 4.7 g/m*3 1.1 C 3.2 km/h
3158 19-12-2011 04:45:00 1 C 4.67 g/m*3 1 C 3.2 km/h
3159 19-12-2011 04:50:00 0.9 C 4.69 g/m*3 0.9 C 1.6 km/h
3160 19-12-2011 04:55:00 0.9 C 4.69 g/m*3 0.9 C 1.6 km/h
3161 19-12-2011 05:00:00 0.9 C 4.69 g/m*3 0.9 C 3.2 km/h
3162 19-12-2011 05:05:00 0.9 C 4.69 g/m*3 0.9 C 1.6 km/h
3163 19-12-2011 05:10:00 0.9 C 4.69 g/m*3 0.9 C 1.6 km/h
3164 19-12-2011 05:15:00 0.9 C 4.69 g/m*3 0.9 C 3.2 km/h
3165 19-12-2011 05:20:00 0.9 C 4.69 g/m*3 0.9 C 1.6 km/h
3166 19-12-2011 05:25:00 0.8 C 4.66 g/m*3 0.8 C 3.2 km/h
3167 19-12-2011 05:30:00 0.7 C 4.63 g/m*3 0.7 C 3.2 km/h
3168 19-12-2011 05:35:00 0.7 C 4.63 g/m*3 0.7 C 3.2 km/h
3169 19-12-2011 05:40:00 0.6 C 4.6 g/m*3 0.6 C 3.2 km/h
3170 19-12-2011 05:45:00 0.5 C 4.56 g/m*3 0.5 C 3.2 km/h
3171 19-12-2011 05:50:00 0.4 C 4.58 g/m*3 0.4 C 3.2 km/h
3172 19-12-2011 05:55:00 0.5 C 4.61 g/m*3 0.5 C 1.6 km/h
3173 19-12-2011 06:00:00 0.6 C 4.65 g/m*3 0.6 C 3.2 km/h
3174 19-12-2011 06:05:00 0.6 C 4.65 g/m*3 0.6 C 3.2 km/h
3175 19-12-2011 06:10:00 0.7 C 4.68 g/m*3 0.7 C 1.6 km/h
Sensor: Nr:Datum:Temp:Abs-Feuchte:Windchill:Wind:
Aussen-T/F 3176 19-12-2011 06:15:00 0.7 C 4.68 g/m*3 0.7 C 1.6 km/h
3177 19-12-2011 06:20:00 0.7 C 4.68 g/m*3 0.7 C 1.6 km/h
3178 19-12-2011 06:25:00 0.7 C 4.68 g/m*3 0.7 C 1.6 km/h
3179 19-12-2011 06:30:00 0.7 C 4.68 g/m*3 0.7 C 1.6 km/h
3180 19-12-2011 06:35:00 0.7 C 4.68 g/m*3 0.7 C 1.6 km/h
3181 19-12-2011 06:40:00 0.8 C 4.71 g/m*3 0.8 C 1.6 km/h
3182 19-12-2011 06:45:00 0.8 C 4.76 g/m*3 0.8 C 0 km/h
3183 19-12-2011 06:50:00 0.8 C 4.76 g/m*3 0.8 C 1.6 km/h
3184 19-12-2011 06:55:00 0.8 C 4.71 g/m*3 0.8 C 3.2 km/h
3185 19-12-2011 07:00:00 0.8 C 4.71 g/m*3 0.8 C 3.2 km/h
3186 19-12-2011 07:05:00 0.8 C 4.71 g/m*3 0.8 C 1.6 km/h
3187 19-12-2011 07:10:00 0.8 C 4.71 g/m*3 0.8 C 1.6 km/h
3188 19-12-2011 07:15:00 0.8 C 4.71 g/m*3 0.8 C 3.2 km/h
3189 19-12-2011 07:20:00 0.8 C 4.71 g/m*3 0.8 C 3.2 km/h
3190 19-12-2011 07:25:00 0.8 C 4.71 g/m*3 0.8 C 1.6 km/h
3191 19-12-2011 07:30:00 0.8 C 4.71 g/m*3 0.8 C 3.2 km/h
3192 19-12-2011 07:35:00 0.8 C 4.71 g/m*3 0.8 C 3.2 km/h
3193 19-12-2011 07:40:00 0.8 C 4.71 g/m*3 0.8 C 3.2 km/h
3194 19-12-2011 07:45:00 0.9 C 4.74 g/m*3 0.9 C 0 km/h
3195 19-12-2011 07:50:00 0.9 C 4.74 g/m*3 0.9 C 0 km/h
3196 19-12-2011 07:55:00 0.9 C 4.74 g/m*3 0.9 C 1.6 km/h
3197 19-12-2011 08:00:00 0.9 C 4.74 g/m*3 0.9 C 1.6 km/h
3198 19-12-2011 08:05:00 0.9 C 4.74 g/m*3 0.9 C 0 km/h
3199 19-12-2011 08:10:00 0.9 C 4.74 g/m*3 0.9 C 1.6 km/h
3200 19-12-2011 08:15:00 0.9 C 4.74 g/m*3 0.9 C 1.6 km/h
Sensor: Nr:Datum:Temp:Abs-Feuchte:Windchill:Wind:
Aussen-T/F 3201 19-12-2011 08:20:00 0.9 C 4.74 g/m*3 0.9 C 1.6 km/h
3202 19-12-2011 08:25:00 0.9 C 4.74 g/m*3 0.9 C 1.6 km/h
3203 19-12-2011 08:30:00 0.9 C 4.74 g/m*3 0.9 C 1.6 km/h
3204 19-12-2011 08:35:00 0.9 C 4.74 g/m*3 0.9 C 0 km/h
3205 19-12-2011 08:40:00 0.9 C 4.74 g/m*3 0.9 C 1.6 km/h
3206 19-12-2011 08:45:00 0.8 C 4.71 g/m*3 0.8 C 1.6 km/h
3207 19-12-2011 08:50:00 0.9 C 4.74 g/m*3 0.9 C 1.6 km/h
3208 19-12-2011 08:55:00 0.9 C 4.74 g/m*3 0.9 C 3.2 km/h
3209 19-12-2011 09:00:00 0.9 C 4.74 g/m*3 0.9 C 3.2 km/h
3210 19-12-2011 09:05:00 0.9 C 4.69 g/m*3 -1.14 C 6.4 km/h
3211 19-12-2011 09:10:00 1.1 C 4.76 g/m*3 1.1 C 3.2 km/h
3212 19-12-2011 09:15:00 1.2 C 4.74 g/m*3 1.2 C 4.8 km/h
3213 19-12-2011 09:20:00 1.3 C 4.66 g/m*3 1.3 C 4.8 km/h
3214 19-12-2011 09:25:00 1.5 C 4.73 g/m*3 1.5 C 3.2 km/h
3215 19-12-2011 09:30:00 1.6 C 4.7 g/m*3 1.6 C 3.2 km/h
3216 19-12-2011 09:35:00 1.6 C 4.81 g/m*3 1.6 C 3.2 km/h
3217 19-12-2011 09:40:00 1.6 C 4.81 g/m*3 1.6 C 3.2 km/h
3218 19-12-2011 09:45:00 1.6 C 4.76 g/m*3 1.6 C 3.2 km/h
3219 19-12-2011 09:50:00 1.6 C 4.81 g/m*3 1.6 C 1.6 km/h
3220 19-12-2011 09:55:00 1.6 C 4.81 g/m*3 1.6 C 0 km/h
3221 19-12-2011 10:00:00 1.6 C 4.87 g/m*3 1.6 C 0 km/h
3222 19-12-2011 10:05:00 1.6 C 4.87 g/m*3 1.6 C 1.6 km/h
3223 19-12-2011 10:10:00 1.6 C 4.87 g/m*3 1.6 C 0 km/h
3224 19-12-2011 10:15:00 1.6 C 4.87 g/m*3 1.6 C 0 km/h
3225 19-12-2011 10:20:00 1.7 C 4.9 g/m*3 1.7 C 0 km/h
Sensor: Nr:Datum:Temp:Abs-Feuchte:Windchill:Wind:
Aussen-T/F 3226 19-12-2011 10:25:00 1.7 C 4.95 g/m*3 1.7 C 0 km/h
3227 19-12-2011 10:30:00 1.8 C 4.88 g/m*3 1.8 C 1.6 km/h
3228 19-12-2011 10:35:00 1.8 C 4.82 g/m*3 1.8 C 3.2 km/h
3229 19-12-2011 10:40:00 1.9 C 4.86 g/m*3 1.9 C 1.6 km/h
3230 19-12-2011 10:45:00 2 C 4.89 g/m*3 2 C 3.2 km/h
3231 19-12-2011 10:50:00 2.1 C 4.92 g/m*3 2.1 C 4.8 km/h
3232 19-12-2011 10:55:00 2.1 C 4.92 g/m*3 2.1 C 3.2 km/h
3233 19-12-2011 11:00:00 2.1 C 4.92 g/m*3 2.1 C 3.2 km/h
3234 19-12-2011 11:05:00 2.2 C 4.96 g/m*3